<?xml version="1.0" encoding="UTF-8" standalone="no" ?>
<gpx xmlns="http://www.topografix.com/GPX/1/1" xmlns:xsi="http://www.w3.org/2001/XMLSchema-instance" xsi:schemaLocation="http://www.topografix.com/GPX/1/1 http://www.topografix.com/GPX/1/1/gpx.xsd" version="1.1" creator="VisuGPX - https://www.visugpx.com">
  <metadata>
    <name>AMPUS LE MOULIN VIEUX</name>
    <desc><![CDATA[Départ du parking des braconniers à Ampus, nous prenons la descente du ratton puis un peu plus loin la montée des calades. Nous passons ensuite au Turquet,au Mourjai, à La Treille, aux charbonnières puis Les Clauss et la bastide neuve. Nous passons de le moulin vieux, à proximité de notre dame de spéluque, de la Rouvière, des Vanades du logis et de Ravel puis des Olves et regagnons le parking par La Barrière, et la combe de Magné. 
]]></desc>
  </metadata>
  <trk>
    <name><![CDATA[Activité actuelle: 11 MAR 2020 18:34]]></name>
    <trkseg>
      <trkpt lat="43.60545" lon="6.3832">
        <ele>479.91</ele>
        <time>2020-03-12T07:31:20Z</time>
      </trkpt>
      <trkpt lat="43.60548" lon="6.38319">
        <ele>480.04</ele>
        <time>2020-03-12T07:31:21Z</time>
      </trkpt>
      <trkpt lat="43.60594" lon="6.38274">
        <ele>479.93</ele>
        <time>2020-03-12T07:31:42Z</time>
      </trkpt>
      <trkpt lat="43.60585" lon="6.3826">
        <ele>479.93</ele>
        <time>2020-03-12T07:32:07Z</time>
      </trkpt>
      <trkpt lat="43.60581" lon="6.38266">
        <ele>479.93</ele>
        <time>2020-03-12T07:32:23Z</time>
      </trkpt>
      <trkpt lat="43.60577" lon="6.38267">
        <ele>479.93</ele>
        <time>2020-03-12T07:32:48Z</time>
      </trkpt>
      <trkpt lat="43.60588" lon="6.38265">
        <ele>479.93</ele>
        <time>2020-03-12T07:33:12Z</time>
      </trkpt>
      <trkpt lat="43.60585" lon="6.38262">
        <ele>479.93</ele>
        <time>2020-03-12T07:33:35Z</time>
      </trkpt>
      <trkpt lat="43.60585" lon="6.38263">
        <ele>479.93</ele>
        <time>2020-03-12T07:34:08Z</time>
      </trkpt>
      <trkpt lat="43.60578" lon="6.38268">
        <ele>479.93</ele>
        <time>2020-03-12T07:34:42Z</time>
      </trkpt>
      <trkpt lat="43.60578" lon="6.38263">
        <ele>479.93</ele>
        <time>2020-03-12T07:35:02Z</time>
      </trkpt>
      <trkpt lat="43.60577" lon="6.38262">
        <ele>479.93</ele>
        <time>2020-03-12T07:35:24Z</time>
      </trkpt>
      <trkpt lat="43.60575" lon="6.38259">
        <ele>479.93</ele>
        <time>2020-03-12T07:35:49Z</time>
      </trkpt>
      <trkpt lat="43.60583" lon="6.38253">
        <ele>479.93</ele>
        <time>2020-03-12T07:36:08Z</time>
      </trkpt>
      <trkpt lat="43.60583" lon="6.38245">
        <ele>479.93</ele>
        <time>2020-03-12T07:36:23Z</time>
      </trkpt>
      <trkpt lat="43.60588" lon="6.38246">
        <ele>479.93</ele>
        <time>2020-03-12T07:36:36Z</time>
      </trkpt>
      <trkpt lat="43.60596" lon="6.38252">
        <ele>479.93</ele>
        <time>2020-03-12T07:36:46Z</time>
      </trkpt>
      <trkpt lat="43.60601" lon="6.38249">
        <ele>483.84</ele>
        <time>2020-03-12T07:36:51Z</time>
      </trkpt>
      <trkpt lat="43.60602" lon="6.38249">
        <ele>483.87</ele>
        <time>2020-03-12T07:36:52Z</time>
      </trkpt>
      <trkpt lat="43.60611" lon="6.38237">
        <ele>484.25</ele>
        <time>2020-03-12T07:37:07Z</time>
      </trkpt>
      <trkpt lat="43.60617" lon="6.38236">
        <ele>485.35</ele>
        <time>2020-03-12T07:37:21Z</time>
      </trkpt>
      <trkpt lat="43.60621" lon="6.38239">
        <ele>485.83</ele>
        <time>2020-03-12T07:37:25Z</time>
      </trkpt>
      <trkpt lat="43.60625" lon="6.38243">
        <ele>486.28</ele>
        <time>2020-03-12T07:37:30Z</time>
      </trkpt>
      <trkpt lat="43.60633" lon="6.38246">
        <ele>486.77</ele>
        <time>2020-03-12T07:37:36Z</time>
      </trkpt>
      <trkpt lat="43.6064" lon="6.38247">
        <ele>487.08</ele>
        <time>2020-03-12T07:37:40Z</time>
      </trkpt>
      <trkpt lat="43.60649" lon="6.3825">
        <ele>487.57</ele>
        <time>2020-03-12T07:37:47Z</time>
      </trkpt>
      <trkpt lat="43.60659" lon="6.38264">
        <ele>488.62</ele>
        <time>2020-03-12T07:38:00Z</time>
      </trkpt>
      <trkpt lat="43.60662" lon="6.38273">
        <ele>489.39</ele>
        <time>2020-03-12T07:38:10Z</time>
      </trkpt>
      <trkpt lat="43.60663" lon="6.38275">
        <ele>489.6</ele>
        <time>2020-03-12T07:38:14Z</time>
      </trkpt>
      <trkpt lat="43.6067" lon="6.38279">
        <ele>490.14</ele>
        <time>2020-03-12T07:38:22Z</time>
      </trkpt>
      <trkpt lat="43.60679" lon="6.3829">
        <ele>491.14</ele>
        <time>2020-03-12T07:38:33Z</time>
      </trkpt>
      <trkpt lat="43.60683" lon="6.38301">
        <ele>492.17</ele>
        <time>2020-03-12T07:38:42Z</time>
      </trkpt>
      <trkpt lat="43.60694" lon="6.38312">
        <ele>493.56</ele>
        <time>2020-03-12T07:38:58Z</time>
      </trkpt>
      <trkpt lat="43.60701" lon="6.38319">
        <ele>493.72</ele>
        <time>2020-03-12T07:39:08Z</time>
      </trkpt>
      <trkpt lat="43.60705" lon="6.38323">
        <ele>493.54</ele>
        <time>2020-03-12T07:39:11Z</time>
      </trkpt>
      <trkpt lat="43.60711" lon="6.38327">
        <ele>493.32</ele>
        <time>2020-03-12T07:39:15Z</time>
      </trkpt>
      <trkpt lat="43.60716" lon="6.38333">
        <ele>492.61</ele>
        <time>2020-03-12T07:39:23Z</time>
      </trkpt>
      <trkpt lat="43.6072" lon="6.38344">
        <ele>491.98</ele>
        <time>2020-03-12T07:39:32Z</time>
      </trkpt>
      <trkpt lat="43.60718" lon="6.38369">
        <ele>490.91</ele>
        <time>2020-03-12T07:39:48Z</time>
      </trkpt>
      <trkpt lat="43.60713" lon="6.3838">
        <ele>490.16</ele>
        <time>2020-03-12T07:40:02Z</time>
      </trkpt>
      <trkpt lat="43.60713" lon="6.38376">
        <ele>489.85</ele>
        <time>2020-03-12T07:40:15Z</time>
      </trkpt>
      <trkpt lat="43.60718" lon="6.38365">
        <ele>490.37</ele>
        <time>2020-03-12T07:40:27Z</time>
      </trkpt>
      <trkpt lat="43.60726" lon="6.38353">
        <ele>489.68</ele>
        <time>2020-03-12T07:40:42Z</time>
      </trkpt>
      <trkpt lat="43.60734" lon="6.38356">
        <ele>488.44</ele>
        <time>2020-03-12T07:40:53Z</time>
      </trkpt>
      <trkpt lat="43.60751" lon="6.38357">
        <ele>485.73</ele>
        <time>2020-03-12T07:41:08Z</time>
      </trkpt>
      <trkpt lat="43.60765" lon="6.38359">
        <ele>483.95</ele>
        <time>2020-03-12T07:41:21Z</time>
      </trkpt>
      <trkpt lat="43.60766" lon="6.38359">
        <ele>483.78</ele>
        <time>2020-03-12T07:41:22Z</time>
      </trkpt>
      <trkpt lat="43.60778" lon="6.38356">
        <ele>482.16</ele>
        <time>2020-03-12T07:41:34Z</time>
      </trkpt>
      <trkpt lat="43.60785" lon="6.38356">
        <ele>481.64</ele>
        <time>2020-03-12T07:41:42Z</time>
      </trkpt>
      <trkpt lat="43.60787" lon="6.38355">
        <ele>481.37</ele>
        <time>2020-03-12T07:41:44Z</time>
      </trkpt>
      <trkpt lat="43.60799" lon="6.38354">
        <ele>479.71</ele>
        <time>2020-03-12T07:41:58Z</time>
      </trkpt>
      <trkpt lat="43.60797" lon="6.38353">
        <ele>478.99</ele>
        <time>2020-03-12T07:42:16Z</time>
      </trkpt>
      <trkpt lat="43.60809" lon="6.38352">
        <ele>478.5</ele>
        <time>2020-03-12T07:42:34Z</time>
      </trkpt>
      <trkpt lat="43.60822" lon="6.38348">
        <ele>476.95</ele>
        <time>2020-03-12T07:42:47Z</time>
      </trkpt>
      <trkpt lat="43.60836" lon="6.38345">
        <ele>475.24</ele>
        <time>2020-03-12T07:43:03Z</time>
      </trkpt>
      <trkpt lat="43.60838" lon="6.38345">
        <ele>475.13</ele>
        <time>2020-03-12T07:43:04Z</time>
      </trkpt>
      <trkpt lat="43.60849" lon="6.38346">
        <ele>474.12</ele>
        <time>2020-03-12T07:43:11Z</time>
      </trkpt>
      <trkpt lat="43.60853" lon="6.38347">
        <ele>473.79</ele>
        <time>2020-03-12T07:43:15Z</time>
      </trkpt>
      <trkpt lat="43.60867" lon="6.38349">
        <ele>471.88</ele>
        <time>2020-03-12T07:43:30Z</time>
      </trkpt>
      <trkpt lat="43.60872" lon="6.38353">
        <ele>470.86</ele>
        <time>2020-03-12T07:43:39Z</time>
      </trkpt>
      <trkpt lat="43.60875" lon="6.38353">
        <ele>470.37</ele>
        <time>2020-03-12T07:43:42Z</time>
      </trkpt>
      <trkpt lat="43.60886" lon="6.38353">
        <ele>469.14</ele>
        <time>2020-03-12T07:43:54Z</time>
      </trkpt>
      <trkpt lat="43.60906" lon="6.38352">
        <ele>467.73</ele>
        <time>2020-03-12T07:44:10Z</time>
      </trkpt>
      <trkpt lat="43.60907" lon="6.38352">
        <ele>467.62</ele>
        <time>2020-03-12T07:44:11Z</time>
      </trkpt>
      <trkpt lat="43.60914" lon="6.38353">
        <ele>466.62</ele>
        <time>2020-03-12T07:44:18Z</time>
      </trkpt>
      <trkpt lat="43.60929" lon="6.38352">
        <ele>465.64</ele>
        <time>2020-03-12T07:44:31Z</time>
      </trkpt>
      <trkpt lat="43.6094" lon="6.38349">
        <ele>464.78</ele>
        <time>2020-03-12T07:44:42Z</time>
      </trkpt>
      <trkpt lat="43.60949" lon="6.38346">
        <ele>464.02</ele>
        <time>2020-03-12T07:44:52Z</time>
      </trkpt>
      <trkpt lat="43.60958" lon="6.38348">
        <ele>463.52</ele>
        <time>2020-03-12T07:44:59Z</time>
      </trkpt>
      <trkpt lat="43.60973" lon="6.3835">
        <ele>462.29</ele>
        <time>2020-03-12T07:45:11Z</time>
      </trkpt>
      <trkpt lat="43.60981" lon="6.38351">
        <ele>460.92</ele>
        <time>2020-03-12T07:45:24Z</time>
      </trkpt>
      <trkpt lat="43.60996" lon="6.38357">
        <ele>459.96</ele>
        <time>2020-03-12T07:45:40Z</time>
      </trkpt>
      <trkpt lat="43.61007" lon="6.38358">
        <ele>458.71</ele>
        <time>2020-03-12T07:45:50Z</time>
      </trkpt>
      <trkpt lat="43.61011" lon="6.38358">
        <ele>458.22</ele>
        <time>2020-03-12T07:45:54Z</time>
      </trkpt>
      <trkpt lat="43.61019" lon="6.3836">
        <ele>456.89</ele>
        <time>2020-03-12T07:46:04Z</time>
      </trkpt>
      <trkpt lat="43.61022" lon="6.38359">
        <ele>456.42</ele>
        <time>2020-03-12T07:46:07Z</time>
      </trkpt>
      <trkpt lat="43.61033" lon="6.3836">
        <ele>454.53</ele>
        <time>2020-03-12T07:46:20Z</time>
      </trkpt>
      <trkpt lat="43.61041" lon="6.38359">
        <ele>452.89</ele>
        <time>2020-03-12T07:46:35Z</time>
      </trkpt>
      <trkpt lat="43.61055" lon="6.38353">
        <ele>451.37</ele>
        <time>2020-03-12T07:46:46Z</time>
      </trkpt>
      <trkpt lat="43.61069" lon="6.38343">
        <ele>450.56</ele>
        <time>2020-03-12T07:47:00Z</time>
      </trkpt>
      <trkpt lat="43.61084" lon="6.38338">
        <ele>449.81</ele>
        <time>2020-03-12T07:47:11Z</time>
      </trkpt>
      <trkpt lat="43.61088" lon="6.38335">
        <ele>449.58</ele>
        <time>2020-03-12T07:47:16Z</time>
      </trkpt>
      <trkpt lat="43.61098" lon="6.38329">
        <ele>449.23</ele>
        <time>2020-03-12T07:47:26Z</time>
      </trkpt>
      <trkpt lat="43.61107" lon="6.38325">
        <ele>448.5</ele>
        <time>2020-03-12T07:47:37Z</time>
      </trkpt>
      <trkpt lat="43.61119" lon="6.38324">
        <ele>447.95</ele>
        <time>2020-03-12T07:47:50Z</time>
      </trkpt>
      <trkpt lat="43.61135" lon="6.38329">
        <ele>447.36</ele>
        <time>2020-03-12T07:48:03Z</time>
      </trkpt>
      <trkpt lat="43.61146" lon="6.38338">
        <ele>446.75</ele>
        <time>2020-03-12T07:48:13Z</time>
      </trkpt>
      <trkpt lat="43.6115" lon="6.38343">
        <ele>446.54</ele>
        <time>2020-03-12T07:48:17Z</time>
      </trkpt>
      <trkpt lat="43.61155" lon="6.38355">
        <ele>446.05</ele>
        <time>2020-03-12T07:48:27Z</time>
      </trkpt>
      <trkpt lat="43.6116" lon="6.38369">
        <ele>445.53</ele>
        <time>2020-03-12T07:48:36Z</time>
      </trkpt>
      <trkpt lat="43.61167" lon="6.38381">
        <ele>445.07</ele>
        <time>2020-03-12T07:48:46Z</time>
      </trkpt>
      <trkpt lat="43.61172" lon="6.38396">
        <ele>445.19</ele>
        <time>2020-03-12T07:48:59Z</time>
      </trkpt>
      <trkpt lat="43.61172" lon="6.38401">
        <ele>445.18</ele>
        <time>2020-03-12T07:49:01Z</time>
      </trkpt>
      <trkpt lat="43.61176" lon="6.38424">
        <ele>445.58</ele>
        <time>2020-03-12T07:49:16Z</time>
      </trkpt>
      <trkpt lat="43.61177" lon="6.38433">
        <ele>445.7</ele>
        <time>2020-03-12T07:49:20Z</time>
      </trkpt>
      <trkpt lat="43.61177" lon="6.38441">
        <ele>445.84</ele>
        <time>2020-03-12T07:49:24Z</time>
      </trkpt>
      <trkpt lat="43.61182" lon="6.38457">
        <ele>446.01</ele>
        <time>2020-03-12T07:49:33Z</time>
      </trkpt>
      <trkpt lat="43.61185" lon="6.3848">
        <ele>445.76</ele>
        <time>2020-03-12T07:49:47Z</time>
      </trkpt>
      <trkpt lat="43.61183" lon="6.38497">
        <ele>445.22</ele>
        <time>2020-03-12T07:49:58Z</time>
      </trkpt>
      <trkpt lat="43.61186" lon="6.38515">
        <ele>445.45</ele>
        <time>2020-03-12T07:50:14Z</time>
      </trkpt>
      <trkpt lat="43.61191" lon="6.38524">
        <ele>446.48</ele>
        <time>2020-03-12T07:50:23Z</time>
      </trkpt>
      <trkpt lat="43.61195" lon="6.38526">
        <ele>447.21</ele>
        <time>2020-03-12T07:50:40Z</time>
      </trkpt>
      <trkpt lat="43.61198" lon="6.38527">
        <ele>447.21</ele>
        <time>2020-03-12T07:50:43Z</time>
      </trkpt>
      <trkpt lat="43.61207" lon="6.38529">
        <ele>448.12</ele>
        <time>2020-03-12T07:50:52Z</time>
      </trkpt>
      <trkpt lat="43.61214" lon="6.38533">
        <ele>449.71</ele>
        <time>2020-03-12T07:51:03Z</time>
      </trkpt>
      <trkpt lat="43.61222" lon="6.38538">
        <ele>451.71</ele>
        <time>2020-03-12T07:51:20Z</time>
      </trkpt>
      <trkpt lat="43.61236" lon="6.38541">
        <ele>453.69</ele>
        <time>2020-03-12T07:51:37Z</time>
      </trkpt>
      <trkpt lat="43.61248" lon="6.38547">
        <ele>456.2</ele>
        <time>2020-03-12T07:51:55Z</time>
      </trkpt>
      <trkpt lat="43.61256" lon="6.38549">
        <ele>457.71</ele>
        <time>2020-03-12T07:52:06Z</time>
      </trkpt>
      <trkpt lat="43.61264" lon="6.38552">
        <ele>458.81</ele>
        <time>2020-03-12T07:52:15Z</time>
      </trkpt>
      <trkpt lat="43.61274" lon="6.38557">
        <ele>460.02</ele>
        <time>2020-03-12T07:52:26Z</time>
      </trkpt>
      <trkpt lat="43.61276" lon="6.38558">
        <ele>460.32</ele>
        <time>2020-03-12T07:52:28Z</time>
      </trkpt>
      <trkpt lat="43.61286" lon="6.38563">
        <ele>462.05</ele>
        <time>2020-03-12T07:52:40Z</time>
      </trkpt>
      <trkpt lat="43.61296" lon="6.38569">
        <ele>463.56</ele>
        <time>2020-03-12T07:52:55Z</time>
      </trkpt>
      <trkpt lat="43.61303" lon="6.38573">
        <ele>464.59</ele>
        <time>2020-03-12T07:53:07Z</time>
      </trkpt>
      <trkpt lat="43.61312" lon="6.38577">
        <ele>465.55</ele>
        <time>2020-03-12T07:53:16Z</time>
      </trkpt>
      <trkpt lat="43.61324" lon="6.38586">
        <ele>466.6</ele>
        <time>2020-03-12T07:53:29Z</time>
      </trkpt>
      <trkpt lat="43.61333" lon="6.3859">
        <ele>467.47</ele>
        <time>2020-03-12T07:53:39Z</time>
      </trkpt>
      <trkpt lat="43.61342" lon="6.38591">
        <ele>467.94</ele>
        <time>2020-03-12T07:53:46Z</time>
      </trkpt>
      <trkpt lat="43.61354" lon="6.38598">
        <ele>469.18</ele>
        <time>2020-03-12T07:54:00Z</time>
      </trkpt>
      <trkpt lat="43.61357" lon="6.38602">
        <ele>469.54</ele>
        <time>2020-03-12T07:54:05Z</time>
      </trkpt>
      <trkpt lat="43.61363" lon="6.38605">
        <ele>469.99</ele>
        <time>2020-03-12T07:54:11Z</time>
      </trkpt>
      <trkpt lat="43.61376" lon="6.38612">
        <ele>471.16</ele>
        <time>2020-03-12T07:54:25Z</time>
      </trkpt>
      <trkpt lat="43.61391" lon="6.38622">
        <ele>472.67</ele>
        <time>2020-03-12T07:54:45Z</time>
      </trkpt>
      <trkpt lat="43.614" lon="6.38627">
        <ele>473.31</ele>
        <time>2020-03-12T07:54:54Z</time>
      </trkpt>
      <trkpt lat="43.61414" lon="6.38634">
        <ele>474.2</ele>
        <time>2020-03-12T07:55:10Z</time>
      </trkpt>
      <trkpt lat="43.61428" lon="6.38637">
        <ele>475.01</ele>
        <time>2020-03-12T07:55:23Z</time>
      </trkpt>
      <trkpt lat="43.61434" lon="6.38639">
        <ele>475.49</ele>
        <time>2020-03-12T07:55:30Z</time>
      </trkpt>
      <trkpt lat="43.61441" lon="6.38642">
        <ele>476.37</ele>
        <time>2020-03-12T07:55:40Z</time>
      </trkpt>
      <trkpt lat="43.61451" lon="6.38644">
        <ele>477.32</ele>
        <time>2020-03-12T07:55:52Z</time>
      </trkpt>
      <trkpt lat="43.61461" lon="6.38646">
        <ele>478.36</ele>
        <time>2020-03-12T07:56:01Z</time>
      </trkpt>
      <trkpt lat="43.61468" lon="6.38649">
        <ele>479.09</ele>
        <time>2020-03-12T07:56:10Z</time>
      </trkpt>
      <trkpt lat="43.61478" lon="6.38652">
        <ele>480.28</ele>
        <time>2020-03-12T07:56:22Z</time>
      </trkpt>
      <trkpt lat="43.61489" lon="6.38656">
        <ele>481.75</ele>
        <time>2020-03-12T07:56:36Z</time>
      </trkpt>
      <trkpt lat="43.61501" lon="6.38659">
        <ele>483.28</ele>
        <time>2020-03-12T07:56:51Z</time>
      </trkpt>
      <trkpt lat="43.61504" lon="6.38659">
        <ele>484.15</ele>
        <time>2020-03-12T07:57:00Z</time>
      </trkpt>
      <trkpt lat="43.61515" lon="6.38655">
        <ele>485.55</ele>
        <time>2020-03-12T07:57:12Z</time>
      </trkpt>
      <trkpt lat="43.61524" lon="6.3865">
        <ele>487.68</ele>
        <time>2020-03-12T07:57:31Z</time>
      </trkpt>
      <trkpt lat="43.61537" lon="6.38646">
        <ele>488.95</ele>
        <time>2020-03-12T07:57:41Z</time>
      </trkpt>
      <trkpt lat="43.61558" lon="6.38646">
        <ele>492.06</ele>
        <time>2020-03-12T07:58:02Z</time>
      </trkpt>
      <trkpt lat="43.61567" lon="6.38648">
        <ele>494.56</ele>
        <time>2020-03-12T07:58:19Z</time>
      </trkpt>
      <trkpt lat="43.61576" lon="6.38649">
        <ele>496.44</ele>
        <time>2020-03-12T07:58:32Z</time>
      </trkpt>
      <trkpt lat="43.61588" lon="6.38653">
        <ele>498.1</ele>
        <time>2020-03-12T07:58:44Z</time>
      </trkpt>
      <trkpt lat="43.61597" lon="6.38657">
        <ele>499.69</ele>
        <time>2020-03-12T07:58:55Z</time>
      </trkpt>
      <trkpt lat="43.61608" lon="6.38658">
        <ele>501.85</ele>
        <time>2020-03-12T07:59:11Z</time>
      </trkpt>
      <trkpt lat="43.6162" lon="6.38663">
        <ele>503.9</ele>
        <time>2020-03-12T07:59:27Z</time>
      </trkpt>
      <trkpt lat="43.61627" lon="6.38667">
        <ele>504.98</ele>
        <time>2020-03-12T07:59:37Z</time>
      </trkpt>
      <trkpt lat="43.6163" lon="6.38673">
        <ele>505.57</ele>
        <time>2020-03-12T07:59:43Z</time>
      </trkpt>
      <trkpt lat="43.61635" lon="6.38687">
        <ele>506.6</ele>
        <time>2020-03-12T07:59:55Z</time>
      </trkpt>
      <trkpt lat="43.61641" lon="6.38697">
        <ele>507.44</ele>
        <time>2020-03-12T08:00:04Z</time>
      </trkpt>
      <trkpt lat="43.61647" lon="6.38702">
        <ele>508.25</ele>
        <time>2020-03-12T08:00:13Z</time>
      </trkpt>
      <trkpt lat="43.61656" lon="6.3871">
        <ele>509.24</ele>
        <time>2020-03-12T08:00:22Z</time>
      </trkpt>
      <trkpt lat="43.61666" lon="6.38715">
        <ele>510.55</ele>
        <time>2020-03-12T08:00:35Z</time>
      </trkpt>
      <trkpt lat="43.61674" lon="6.3872">
        <ele>511.36</ele>
        <time>2020-03-12T08:00:47Z</time>
      </trkpt>
      <trkpt lat="43.61684" lon="6.38722">
        <ele>512.71</ele>
        <time>2020-03-12T08:01:00Z</time>
      </trkpt>
      <trkpt lat="43.61692" lon="6.38723">
        <ele>514.19</ele>
        <time>2020-03-12T08:01:13Z</time>
      </trkpt>
      <trkpt lat="43.61702" lon="6.38723">
        <ele>515.47</ele>
        <time>2020-03-12T08:01:23Z</time>
      </trkpt>
      <trkpt lat="43.6171" lon="6.38727">
        <ele>516.5</ele>
        <time>2020-03-12T08:01:32Z</time>
      </trkpt>
      <trkpt lat="43.61713" lon="6.38749">
        <ele>518.73</ele>
        <time>2020-03-12T08:01:48Z</time>
      </trkpt>
      <trkpt lat="43.6172" lon="6.38745">
        <ele>520.78</ele>
        <time>2020-03-12T08:02:02Z</time>
      </trkpt>
      <trkpt lat="43.6172" lon="6.38742">
        <ele>521.7</ele>
        <time>2020-03-12T08:02:21Z</time>
      </trkpt>
      <trkpt lat="43.61722" lon="6.38736">
        <ele>521.91</ele>
        <time>2020-03-12T08:02:44Z</time>
      </trkpt>
      <trkpt lat="43.61725" lon="6.38724">
        <ele>523.61</ele>
        <time>2020-03-12T08:02:58Z</time>
      </trkpt>
      <trkpt lat="43.61726" lon="6.38715">
        <ele>524.93</ele>
        <time>2020-03-12T08:03:07Z</time>
      </trkpt>
      <trkpt lat="43.61731" lon="6.38704">
        <ele>526.76</ele>
        <time>2020-03-12T08:03:18Z</time>
      </trkpt>
      <trkpt lat="43.61733" lon="6.38696">
        <ele>528.06</ele>
        <time>2020-03-12T08:03:26Z</time>
      </trkpt>
      <trkpt lat="43.61735" lon="6.38688">
        <ele>529.46</ele>
        <time>2020-03-12T08:03:36Z</time>
      </trkpt>
      <trkpt lat="43.61734" lon="6.38675">
        <ele>530.98</ele>
        <time>2020-03-12T08:03:46Z</time>
      </trkpt>
      <trkpt lat="43.61719" lon="6.38668">
        <ele>533.07</ele>
        <time>2020-03-12T08:04:00Z</time>
      </trkpt>
      <trkpt lat="43.61712" lon="6.38665">
        <ele>534.44</ele>
        <time>2020-03-12T08:04:12Z</time>
      </trkpt>
      <trkpt lat="43.61702" lon="6.38667">
        <ele>535.56</ele>
        <time>2020-03-12T08:04:23Z</time>
      </trkpt>
      <trkpt lat="43.61696" lon="6.38661">
        <ele>536.27</ele>
        <time>2020-03-12T08:04:30Z</time>
      </trkpt>
      <trkpt lat="43.6169" lon="6.38649">
        <ele>538.18</ele>
        <time>2020-03-12T08:04:46Z</time>
      </trkpt>
      <trkpt lat="43.61694" lon="6.3864">
        <ele>539.64</ele>
        <time>2020-03-12T08:04:58Z</time>
      </trkpt>
      <trkpt lat="43.61704" lon="6.38635">
        <ele>540.65</ele>
        <time>2020-03-12T08:05:14Z</time>
      </trkpt>
      <trkpt lat="43.61715" lon="6.38627">
        <ele>541.9</ele>
        <time>2020-03-12T08:05:28Z</time>
      </trkpt>
      <trkpt lat="43.61731" lon="6.38615">
        <ele>543.45</ele>
        <time>2020-03-12T08:05:48Z</time>
      </trkpt>
      <trkpt lat="43.61741" lon="6.38608">
        <ele>544.77</ele>
        <time>2020-03-12T08:06:01Z</time>
      </trkpt>
      <trkpt lat="43.61746" lon="6.38606">
        <ele>545.72</ele>
        <time>2020-03-12T08:06:10Z</time>
      </trkpt>
      <trkpt lat="43.6176" lon="6.38603">
        <ele>547.01</ele>
        <time>2020-03-12T08:06:21Z</time>
      </trkpt>
      <trkpt lat="43.61769" lon="6.38597">
        <ele>548.82</ele>
        <time>2020-03-12T08:06:37Z</time>
      </trkpt>
      <trkpt lat="43.61782" lon="6.38593">
        <ele>550.57</ele>
        <time>2020-03-12T08:06:54Z</time>
      </trkpt>
      <trkpt lat="43.61794" lon="6.38587">
        <ele>551.95</ele>
        <time>2020-03-12T08:07:09Z</time>
      </trkpt>
      <trkpt lat="43.61805" lon="6.38578">
        <ele>552.98</ele>
        <time>2020-03-12T08:07:25Z</time>
      </trkpt>
      <trkpt lat="43.61808" lon="6.38575">
        <ele>554.28</ele>
        <time>2020-03-12T08:07:38Z</time>
      </trkpt>
      <trkpt lat="43.61815" lon="6.38571">
        <ele>554.78</ele>
        <time>2020-03-12T08:07:56Z</time>
      </trkpt>
      <trkpt lat="43.61825" lon="6.38566">
        <ele>555.85</ele>
        <time>2020-03-12T08:08:11Z</time>
      </trkpt>
      <trkpt lat="43.61832" lon="6.38561">
        <ele>556.95</ele>
        <time>2020-03-12T08:08:21Z</time>
      </trkpt>
      <trkpt lat="43.61835" lon="6.38559">
        <ele>557.38</ele>
        <time>2020-03-12T08:08:24Z</time>
      </trkpt>
      <trkpt lat="43.61843" lon="6.38553">
        <ele>558.4</ele>
        <time>2020-03-12T08:08:34Z</time>
      </trkpt>
      <trkpt lat="43.61849" lon="6.38543">
        <ele>559.95</ele>
        <time>2020-03-12T08:08:47Z</time>
      </trkpt>
      <trkpt lat="43.61865" lon="6.38531">
        <ele>561.8</ele>
        <time>2020-03-12T08:09:04Z</time>
      </trkpt>
      <trkpt lat="43.61876" lon="6.38523">
        <ele>563.02</ele>
        <time>2020-03-12T08:09:20Z</time>
      </trkpt>
      <trkpt lat="43.61891" lon="6.38519">
        <ele>564.68</ele>
        <time>2020-03-12T08:09:36Z</time>
      </trkpt>
      <trkpt lat="43.61904" lon="6.38514">
        <ele>566.38</ele>
        <time>2020-03-12T08:09:53Z</time>
      </trkpt>
      <trkpt lat="43.61906" lon="6.38513">
        <ele>566.6</ele>
        <time>2020-03-12T08:09:56Z</time>
      </trkpt>
      <trkpt lat="43.61917" lon="6.38502">
        <ele>567.98</ele>
        <time>2020-03-12T08:10:10Z</time>
      </trkpt>
      <trkpt lat="43.61932" lon="6.38493">
        <ele>569.62</ele>
        <time>2020-03-12T08:10:27Z</time>
      </trkpt>
      <trkpt lat="43.61944" lon="6.38484">
        <ele>570.34</ele>
        <time>2020-03-12T08:10:43Z</time>
      </trkpt>
      <trkpt lat="43.61957" lon="6.38479">
        <ele>571.36</ele>
        <time>2020-03-12T08:10:59Z</time>
      </trkpt>
      <trkpt lat="43.61973" lon="6.38478">
        <ele>572.2</ele>
        <time>2020-03-12T08:11:18Z</time>
      </trkpt>
      <trkpt lat="43.61988" lon="6.38476">
        <ele>572.96</ele>
        <time>2020-03-12T08:11:33Z</time>
      </trkpt>
      <trkpt lat="43.62001" lon="6.38469">
        <ele>573.56</ele>
        <time>2020-03-12T08:11:46Z</time>
      </trkpt>
      <trkpt lat="43.62016" lon="6.38459">
        <ele>574.48</ele>
        <time>2020-03-12T08:12:00Z</time>
      </trkpt>
      <trkpt lat="43.62018" lon="6.3846">
        <ele>575.13</ele>
        <time>2020-03-12T08:12:14Z</time>
      </trkpt>
      <trkpt lat="43.62026" lon="6.38458">
        <ele>575.27</ele>
        <time>2020-03-12T08:12:33Z</time>
      </trkpt>
      <trkpt lat="43.62027" lon="6.38457">
        <ele>575.28</ele>
        <time>2020-03-12T08:12:35Z</time>
      </trkpt>
      <trkpt lat="43.62034" lon="6.38448">
        <ele>575.56</ele>
        <time>2020-03-12T08:12:45Z</time>
      </trkpt>
      <trkpt lat="43.62041" lon="6.38442">
        <ele>575.68</ele>
        <time>2020-03-12T08:12:54Z</time>
      </trkpt>
      <trkpt lat="43.62054" lon="6.38434">
        <ele>575.78</ele>
        <time>2020-03-12T08:13:06Z</time>
      </trkpt>
      <trkpt lat="43.62068" lon="6.38434">
        <ele>575.97</ele>
        <time>2020-03-12T08:13:18Z</time>
      </trkpt>
      <trkpt lat="43.62083" lon="6.38431">
        <ele>575.91</ele>
        <time>2020-03-12T08:13:35Z</time>
      </trkpt>
      <trkpt lat="43.621" lon="6.38428">
        <ele>575.72</ele>
        <time>2020-03-12T08:13:51Z</time>
      </trkpt>
      <trkpt lat="43.62121" lon="6.38427">
        <ele>575.97</ele>
        <time>2020-03-12T08:14:09Z</time>
      </trkpt>
      <trkpt lat="43.62134" lon="6.38425">
        <ele>575.94</ele>
        <time>2020-03-12T08:14:20Z</time>
      </trkpt>
      <trkpt lat="43.62147" lon="6.38425">
        <ele>576.1</ele>
        <time>2020-03-12T08:14:36Z</time>
      </trkpt>
      <trkpt lat="43.6216" lon="6.38425">
        <ele>576.1</ele>
        <time>2020-03-12T08:14:48Z</time>
      </trkpt>
      <trkpt lat="43.62173" lon="6.38422">
        <ele>576.1</ele>
        <time>2020-03-12T08:15:05Z</time>
      </trkpt>
      <trkpt lat="43.62191" lon="6.38419">
        <ele>574.33</ele>
        <time>2020-03-12T08:15:24Z</time>
      </trkpt>
      <trkpt lat="43.62207" lon="6.38422">
        <ele>573.52</ele>
        <time>2020-03-12T08:15:39Z</time>
      </trkpt>
      <trkpt lat="43.62233" lon="6.38428">
        <ele>573.35</ele>
        <time>2020-03-12T08:16:00Z</time>
      </trkpt>
      <trkpt lat="43.62249" lon="6.38431">
        <ele>573.43</ele>
        <time>2020-03-12T08:16:17Z</time>
      </trkpt>
      <trkpt lat="43.62267" lon="6.38436">
        <ele>573.86</ele>
        <time>2020-03-12T08:16:34Z</time>
      </trkpt>
      <trkpt lat="43.62283" lon="6.38435">
        <ele>573.85</ele>
        <time>2020-03-12T08:16:52Z</time>
      </trkpt>
      <trkpt lat="43.62303" lon="6.38435">
        <ele>573.92</ele>
        <time>2020-03-12T08:17:08Z</time>
      </trkpt>
      <trkpt lat="43.62313" lon="6.38435">
        <ele>574.25</ele>
        <time>2020-03-12T08:17:18Z</time>
      </trkpt>
      <trkpt lat="43.62331" lon="6.3843">
        <ele>575.09</ele>
        <time>2020-03-12T08:17:36Z</time>
      </trkpt>
      <trkpt lat="43.62351" lon="6.38428">
        <ele>575.17</ele>
        <time>2020-03-12T08:17:52Z</time>
      </trkpt>
      <trkpt lat="43.62369" lon="6.38428">
        <ele>574.6</ele>
        <time>2020-03-12T08:18:08Z</time>
      </trkpt>
      <trkpt lat="43.62373" lon="6.38428">
        <ele>574.59</ele>
        <time>2020-03-12T08:18:11Z</time>
      </trkpt>
      <trkpt lat="43.62375" lon="6.38428">
        <ele>574.59</ele>
        <time>2020-03-12T08:18:13Z</time>
      </trkpt>
      <trkpt lat="43.62394" lon="6.3843">
        <ele>575.05</ele>
        <time>2020-03-12T08:18:31Z</time>
      </trkpt>
      <trkpt lat="43.62397" lon="6.38432">
        <ele>575.88</ele>
        <time>2020-03-12T08:18:41Z</time>
      </trkpt>
      <trkpt lat="43.62411" lon="6.38436">
        <ele>577.18</ele>
        <time>2020-03-12T08:18:58Z</time>
      </trkpt>
      <trkpt lat="43.62425" lon="6.38444">
        <ele>577.8</ele>
        <time>2020-03-12T08:19:11Z</time>
      </trkpt>
      <trkpt lat="43.62439" lon="6.38442">
        <ele>577.99</ele>
        <time>2020-03-12T08:19:27Z</time>
      </trkpt>
      <trkpt lat="43.62436" lon="6.38428">
        <ele>577.99</ele>
        <time>2020-03-12T08:19:38Z</time>
      </trkpt>
      <trkpt lat="43.6243" lon="6.38417">
        <ele>576.81</ele>
        <time>2020-03-12T08:19:50Z</time>
      </trkpt>
      <trkpt lat="43.62422" lon="6.38402">
        <ele>576.23</ele>
        <time>2020-03-12T08:20:07Z</time>
      </trkpt>
      <trkpt lat="43.62414" lon="6.38392">
        <ele>576.23</ele>
        <time>2020-03-12T08:20:23Z</time>
      </trkpt>
      <trkpt lat="43.62411" lon="6.38361">
        <ele>576.23</ele>
        <time>2020-03-12T08:20:40Z</time>
      </trkpt>
      <trkpt lat="43.6241" lon="6.38342">
        <ele>571.21</ele>
        <time>2020-03-12T08:20:53Z</time>
      </trkpt>
      <trkpt lat="43.62411" lon="6.38341">
        <ele>571.16</ele>
        <time>2020-03-12T08:20:54Z</time>
      </trkpt>
      <trkpt lat="43.62414" lon="6.38327">
        <ele>570.91</ele>
        <time>2020-03-12T08:21:09Z</time>
      </trkpt>
      <trkpt lat="43.62426" lon="6.38299">
        <ele>569.88</ele>
        <time>2020-03-12T08:21:29Z</time>
      </trkpt>
      <trkpt lat="43.62434" lon="6.38277">
        <ele>568.89</ele>
        <time>2020-03-12T08:21:46Z</time>
      </trkpt>
      <trkpt lat="43.62444" lon="6.38254">
        <ele>568.09</ele>
        <time>2020-03-12T08:22:03Z</time>
      </trkpt>
      <trkpt lat="43.62453" lon="6.38234">
        <ele>567.73</ele>
        <time>2020-03-12T08:22:19Z</time>
      </trkpt>
      <trkpt lat="43.62454" lon="6.38231">
        <ele>567.71</ele>
        <time>2020-03-12T08:22:21Z</time>
      </trkpt>
      <trkpt lat="43.62459" lon="6.38212">
        <ele>567.56</ele>
        <time>2020-03-12T08:22:34Z</time>
      </trkpt>
      <trkpt lat="43.62465" lon="6.38188">
        <ele>567.41</ele>
        <time>2020-03-12T08:22:50Z</time>
      </trkpt>
      <trkpt lat="43.62471" lon="6.38168">
        <ele>567.42</ele>
        <time>2020-03-12T08:23:04Z</time>
      </trkpt>
      <trkpt lat="43.62474" lon="6.38152">
        <ele>567.49</ele>
        <time>2020-03-12T08:23:18Z</time>
      </trkpt>
      <trkpt lat="43.62475" lon="6.38123">
        <ele>567.16</ele>
        <time>2020-03-12T08:23:37Z</time>
      </trkpt>
      <trkpt lat="43.62477" lon="6.38093">
        <ele>566.72</ele>
        <time>2020-03-12T08:23:58Z</time>
      </trkpt>
      <trkpt lat="43.62479" lon="6.38069">
        <ele>565.03</ele>
        <time>2020-03-12T08:24:15Z</time>
      </trkpt>
      <trkpt lat="43.62479" lon="6.38041">
        <ele>564.11</ele>
        <time>2020-03-12T08:24:35Z</time>
      </trkpt>
      <trkpt lat="43.62473" lon="6.38013">
        <ele>563.54</ele>
        <time>2020-03-12T08:24:53Z</time>
      </trkpt>
      <trkpt lat="43.62464" lon="6.37989">
        <ele>562.83</ele>
        <time>2020-03-12T08:25:09Z</time>
      </trkpt>
      <trkpt lat="43.62462" lon="6.37984">
        <ele>562.76</ele>
        <time>2020-03-12T08:25:10Z</time>
      </trkpt>
      <trkpt lat="43.62458" lon="6.37957">
        <ele>562.37</ele>
        <time>2020-03-12T08:25:26Z</time>
      </trkpt>
      <trkpt lat="43.62464" lon="6.37929">
        <ele>562.39</ele>
        <time>2020-03-12T08:25:44Z</time>
      </trkpt>
      <trkpt lat="43.62468" lon="6.37904">
        <ele>562.76</ele>
        <time>2020-03-12T08:26:01Z</time>
      </trkpt>
      <trkpt lat="43.62476" lon="6.37871">
        <ele>562.94</ele>
        <time>2020-03-12T08:26:23Z</time>
      </trkpt>
      <trkpt lat="43.62483" lon="6.37842">
        <ele>562.66</ele>
        <time>2020-03-12T08:26:42Z</time>
      </trkpt>
      <trkpt lat="43.62485" lon="6.37838">
        <ele>562.6</ele>
        <time>2020-03-12T08:26:45Z</time>
      </trkpt>
      <trkpt lat="43.62491" lon="6.37818">
        <ele>562.26</ele>
        <time>2020-03-12T08:26:59Z</time>
      </trkpt>
      <trkpt lat="43.62499" lon="6.37798">
        <ele>561.63</ele>
        <time>2020-03-12T08:27:12Z</time>
      </trkpt>
      <trkpt lat="43.62503" lon="6.37789">
        <ele>560.5</ele>
        <time>2020-03-12T08:27:23Z</time>
      </trkpt>
      <trkpt lat="43.62513" lon="6.37774">
        <ele>559.41</ele>
        <time>2020-03-12T08:27:38Z</time>
      </trkpt>
      <trkpt lat="43.62522" lon="6.3776">
        <ele>559.19</ele>
        <time>2020-03-12T08:27:51Z</time>
      </trkpt>
      <trkpt lat="43.62534" lon="6.37743">
        <ele>559.8</ele>
        <time>2020-03-12T08:28:07Z</time>
      </trkpt>
      <trkpt lat="43.62541" lon="6.37731">
        <ele>560.32</ele>
        <time>2020-03-12T08:28:17Z</time>
      </trkpt>
      <trkpt lat="43.62554" lon="6.37719">
        <ele>560.9</ele>
        <time>2020-03-12T08:28:30Z</time>
      </trkpt>
      <trkpt lat="43.62558" lon="6.37711">
        <ele>561.38</ele>
        <time>2020-03-12T08:28:38Z</time>
      </trkpt>
      <trkpt lat="43.62567" lon="6.37695">
        <ele>562.79</ele>
        <time>2020-03-12T08:28:54Z</time>
      </trkpt>
      <trkpt lat="43.62579" lon="6.37677">
        <ele>564.38</ele>
        <time>2020-03-12T08:29:12Z</time>
      </trkpt>
      <trkpt lat="43.62597" lon="6.37662">
        <ele>565.78</ele>
        <time>2020-03-12T08:29:30Z</time>
      </trkpt>
      <trkpt lat="43.62608" lon="6.37644">
        <ele>566.64</ele>
        <time>2020-03-12T08:29:48Z</time>
      </trkpt>
      <trkpt lat="43.62609" lon="6.37643">
        <ele>566.76</ele>
        <time>2020-03-12T08:29:50Z</time>
      </trkpt>
      <trkpt lat="43.62615" lon="6.37631">
        <ele>567.57</ele>
        <time>2020-03-12T08:30:00Z</time>
      </trkpt>
      <trkpt lat="43.62621" lon="6.37617">
        <ele>568.53</ele>
        <time>2020-03-12T08:30:12Z</time>
      </trkpt>
      <trkpt lat="43.62624" lon="6.37609">
        <ele>568.64</ele>
        <time>2020-03-12T08:30:17Z</time>
      </trkpt>
      <trkpt lat="43.6263" lon="6.37595">
        <ele>568.52</ele>
        <time>2020-03-12T08:30:30Z</time>
      </trkpt>
      <trkpt lat="43.62634" lon="6.37583">
        <ele>568.6</ele>
        <time>2020-03-12T08:30:48Z</time>
      </trkpt>
      <trkpt lat="43.62639" lon="6.3756">
        <ele>568.36</ele>
        <time>2020-03-12T08:31:05Z</time>
      </trkpt>
      <trkpt lat="43.62647" lon="6.37535">
        <ele>566.62</ele>
        <time>2020-03-12T08:31:25Z</time>
      </trkpt>
      <trkpt lat="43.62652" lon="6.37508">
        <ele>565.25</ele>
        <time>2020-03-12T08:31:45Z</time>
      </trkpt>
      <trkpt lat="43.62653" lon="6.37501">
        <ele>565.09</ele>
        <time>2020-03-12T08:31:49Z</time>
      </trkpt>
      <trkpt lat="43.62656" lon="6.37477">
        <ele>564.34</ele>
        <time>2020-03-12T08:32:05Z</time>
      </trkpt>
      <trkpt lat="43.62659" lon="6.3746">
        <ele>562.65</ele>
        <time>2020-03-12T08:32:19Z</time>
      </trkpt>
      <trkpt lat="43.62661" lon="6.37457">
        <ele>562.42</ele>
        <time>2020-03-12T08:32:21Z</time>
      </trkpt>
      <trkpt lat="43.62661" lon="6.37452">
        <ele>561.89</ele>
        <time>2020-03-12T08:32:39Z</time>
      </trkpt>
      <trkpt lat="43.62666" lon="6.37431">
        <ele>561.68</ele>
        <time>2020-03-12T08:32:48Z</time>
      </trkpt>
      <trkpt lat="43.62671" lon="6.37421">
        <ele>561.47</ele>
        <time>2020-03-12T08:33:01Z</time>
      </trkpt>
      <trkpt lat="43.62671" lon="6.37416">
        <ele>561.14</ele>
        <time>2020-03-12T08:33:18Z</time>
      </trkpt>
      <trkpt lat="43.62674" lon="6.37395">
        <ele>559.9</ele>
        <time>2020-03-12T08:33:34Z</time>
      </trkpt>
      <trkpt lat="43.62675" lon="6.37379">
        <ele>558</ele>
        <time>2020-03-12T08:33:46Z</time>
      </trkpt>
      <trkpt lat="43.62675" lon="6.37367">
        <ele>557.07</ele>
        <time>2020-03-12T08:33:55Z</time>
      </trkpt>
      <trkpt lat="43.62675" lon="6.37349">
        <ele>555.85</ele>
        <time>2020-03-12T08:34:07Z</time>
      </trkpt>
      <trkpt lat="43.62675" lon="6.37346">
        <ele>555.78</ele>
        <time>2020-03-12T08:34:09Z</time>
      </trkpt>
      <trkpt lat="43.62674" lon="6.37333">
        <ele>555.27</ele>
        <time>2020-03-12T08:34:17Z</time>
      </trkpt>
      <trkpt lat="43.62675" lon="6.37319">
        <ele>554.72</ele>
        <time>2020-03-12T08:34:25Z</time>
      </trkpt>
      <trkpt lat="43.62678" lon="6.37304">
        <ele>553.22</ele>
        <time>2020-03-12T08:34:38Z</time>
      </trkpt>
      <trkpt lat="43.62684" lon="6.37275">
        <ele>551.65</ele>
        <time>2020-03-12T08:34:57Z</time>
      </trkpt>
      <trkpt lat="43.62687" lon="6.37246">
        <ele>550.4</ele>
        <time>2020-03-12T08:35:15Z</time>
      </trkpt>
      <trkpt lat="43.6269" lon="6.37216">
        <ele>549.5</ele>
        <time>2020-03-12T08:35:33Z</time>
      </trkpt>
      <trkpt lat="43.6269" lon="6.37214">
        <ele>549.43</ele>
        <time>2020-03-12T08:35:34Z</time>
      </trkpt>
      <trkpt lat="43.62689" lon="6.37195">
        <ele>548.53</ele>
        <time>2020-03-12T08:35:49Z</time>
      </trkpt>
      <trkpt lat="43.62688" lon="6.3717">
        <ele>548.12</ele>
        <time>2020-03-12T08:36:05Z</time>
      </trkpt>
      <trkpt lat="43.62689" lon="6.37149">
        <ele>547.7</ele>
        <time>2020-03-12T08:36:20Z</time>
      </trkpt>
      <trkpt lat="43.62687" lon="6.37124">
        <ele>547.37</ele>
        <time>2020-03-12T08:36:38Z</time>
      </trkpt>
      <trkpt lat="43.62687" lon="6.37098">
        <ele>546.54</ele>
        <time>2020-03-12T08:36:54Z</time>
      </trkpt>
      <trkpt lat="43.62689" lon="6.37088">
        <ele>546.25</ele>
        <time>2020-03-12T08:37:09Z</time>
      </trkpt>
      <trkpt lat="43.62686" lon="6.37065">
        <ele>545.51</ele>
        <time>2020-03-12T08:37:24Z</time>
      </trkpt>
      <trkpt lat="43.62684" lon="6.37047">
        <ele>545</ele>
        <time>2020-03-12T08:37:36Z</time>
      </trkpt>
      <trkpt lat="43.62686" lon="6.37026">
        <ele>544.24</ele>
        <time>2020-03-12T08:37:50Z</time>
      </trkpt>
      <trkpt lat="43.62686" lon="6.37018">
        <ele>544.13</ele>
        <time>2020-03-12T08:37:54Z</time>
      </trkpt>
      <trkpt lat="43.62688" lon="6.36989">
        <ele>543.25</ele>
        <time>2020-03-12T08:38:12Z</time>
      </trkpt>
      <trkpt lat="43.62692" lon="6.36982">
        <ele>542.47</ele>
        <time>2020-03-12T08:38:24Z</time>
      </trkpt>
      <trkpt lat="43.62693" lon="6.36974">
        <ele>542.21</ele>
        <time>2020-03-12T08:38:29Z</time>
      </trkpt>
      <trkpt lat="43.62698" lon="6.36949">
        <ele>541.68</ele>
        <time>2020-03-12T08:38:45Z</time>
      </trkpt>
      <trkpt lat="43.62702" lon="6.36939">
        <ele>541.43</ele>
        <time>2020-03-12T08:38:55Z</time>
      </trkpt>
      <trkpt lat="43.62703" lon="6.36933">
        <ele>541.19</ele>
        <time>2020-03-12T08:39:00Z</time>
      </trkpt>
      <trkpt lat="43.62708" lon="6.36919">
        <ele>540.95</ele>
        <time>2020-03-12T08:39:10Z</time>
      </trkpt>
      <trkpt lat="43.62715" lon="6.36895">
        <ele>541.06</ele>
        <time>2020-03-12T08:39:26Z</time>
      </trkpt>
      <trkpt lat="43.62719" lon="6.36873">
        <ele>541.64</ele>
        <time>2020-03-12T08:39:43Z</time>
      </trkpt>
      <trkpt lat="43.62721" lon="6.36858">
        <ele>541.62</ele>
        <time>2020-03-12T08:39:52Z</time>
      </trkpt>
      <trkpt lat="43.62727" lon="6.36836">
        <ele>541.44</ele>
        <time>2020-03-12T08:40:05Z</time>
      </trkpt>
      <trkpt lat="43.62731" lon="6.36824">
        <ele>541.17</ele>
        <time>2020-03-12T08:40:16Z</time>
      </trkpt>
      <trkpt lat="43.6274" lon="6.36805">
        <ele>540.84</ele>
        <time>2020-03-12T08:40:31Z</time>
      </trkpt>
      <trkpt lat="43.62742" lon="6.36802">
        <ele>540.8</ele>
        <time>2020-03-12T08:40:33Z</time>
      </trkpt>
      <trkpt lat="43.6275" lon="6.36778">
        <ele>540.75</ele>
        <time>2020-03-12T08:40:52Z</time>
      </trkpt>
      <trkpt lat="43.62753" lon="6.36762">
        <ele>541.11</ele>
        <time>2020-03-12T08:41:05Z</time>
      </trkpt>
      <trkpt lat="43.6276" lon="6.36734">
        <ele>542.39</ele>
        <time>2020-03-12T08:41:24Z</time>
      </trkpt>
      <trkpt lat="43.62762" lon="6.36719">
        <ele>543.19</ele>
        <time>2020-03-12T08:41:34Z</time>
      </trkpt>
      <trkpt lat="43.62769" lon="6.36708">
        <ele>543.75</ele>
        <time>2020-03-12T08:41:43Z</time>
      </trkpt>
      <trkpt lat="43.6277" lon="6.36706">
        <ele>543.95</ele>
        <time>2020-03-12T08:41:45Z</time>
      </trkpt>
      <trkpt lat="43.62773" lon="6.36694">
        <ele>544.59</ele>
        <time>2020-03-12T08:41:55Z</time>
      </trkpt>
      <trkpt lat="43.62778" lon="6.36678">
        <ele>545.53</ele>
        <time>2020-03-12T08:42:10Z</time>
      </trkpt>
      <trkpt lat="43.62787" lon="6.36659">
        <ele>546.72</ele>
        <time>2020-03-12T08:42:30Z</time>
      </trkpt>
      <trkpt lat="43.62791" lon="6.36648">
        <ele>547.57</ele>
        <time>2020-03-12T08:42:39Z</time>
      </trkpt>
      <trkpt lat="43.62799" lon="6.36632">
        <ele>548.63</ele>
        <time>2020-03-12T08:42:54Z</time>
      </trkpt>
      <trkpt lat="43.62805" lon="6.36623">
        <ele>549.03</ele>
        <time>2020-03-12T08:43:03Z</time>
      </trkpt>
      <trkpt lat="43.62806" lon="6.3662">
        <ele>549.15</ele>
        <time>2020-03-12T08:43:05Z</time>
      </trkpt>
      <trkpt lat="43.62809" lon="6.36607">
        <ele>550.4</ele>
        <time>2020-03-12T08:43:17Z</time>
      </trkpt>
      <trkpt lat="43.62811" lon="6.36602">
        <ele>550.89</ele>
        <time>2020-03-12T08:43:24Z</time>
      </trkpt>
      <trkpt lat="43.62815" lon="6.36583">
        <ele>551.08</ele>
        <time>2020-03-12T08:43:39Z</time>
      </trkpt>
      <trkpt lat="43.62815" lon="6.36565">
        <ele>551.08</ele>
        <time>2020-03-12T08:43:51Z</time>
      </trkpt>
      <trkpt lat="43.62816" lon="6.36553">
        <ele>551.23</ele>
        <time>2020-03-12T08:44:05Z</time>
      </trkpt>
      <trkpt lat="43.62816" lon="6.3655">
        <ele>551.22</ele>
        <time>2020-03-12T08:44:28Z</time>
      </trkpt>
      <trkpt lat="43.62818" lon="6.36527">
        <ele>551.51</ele>
        <time>2020-03-12T08:44:40Z</time>
      </trkpt>
      <trkpt lat="43.62822" lon="6.36502">
        <ele>551.51</ele>
        <time>2020-03-12T08:44:56Z</time>
      </trkpt>
      <trkpt lat="43.62827" lon="6.36488">
        <ele>551.51</ele>
        <time>2020-03-12T08:45:12Z</time>
      </trkpt>
      <trkpt lat="43.62832" lon="6.36473">
        <ele>551.51</ele>
        <time>2020-03-12T08:45:26Z</time>
      </trkpt>
      <trkpt lat="43.62834" lon="6.36457">
        <ele>551.51</ele>
        <time>2020-03-12T08:45:36Z</time>
      </trkpt>
      <trkpt lat="43.62823" lon="6.36432">
        <ele>550.39</ele>
        <time>2020-03-12T08:45:54Z</time>
      </trkpt>
      <trkpt lat="43.62808" lon="6.36419">
        <ele>550.24</ele>
        <time>2020-03-12T08:46:08Z</time>
      </trkpt>
      <trkpt lat="43.62799" lon="6.3642">
        <ele>550.75</ele>
        <time>2020-03-12T08:46:16Z</time>
      </trkpt>
      <trkpt lat="43.62796" lon="6.36419">
        <ele>551.01</ele>
        <time>2020-03-12T08:46:19Z</time>
      </trkpt>
      <trkpt lat="43.62785" lon="6.36416">
        <ele>551.49</ele>
        <time>2020-03-12T08:46:29Z</time>
      </trkpt>
      <trkpt lat="43.62779" lon="6.36404">
        <ele>551.77</ele>
        <time>2020-03-12T08:46:40Z</time>
      </trkpt>
      <trkpt lat="43.62781" lon="6.36389">
        <ele>552.03</ele>
        <time>2020-03-12T08:46:52Z</time>
      </trkpt>
      <trkpt lat="43.62787" lon="6.36364">
        <ele>552.45</ele>
        <time>2020-03-12T08:47:08Z</time>
      </trkpt>
      <trkpt lat="43.62787" lon="6.36354">
        <ele>552.75</ele>
        <time>2020-03-12T08:47:24Z</time>
      </trkpt>
      <trkpt lat="43.6278" lon="6.36353">
        <ele>552.53</ele>
        <time>2020-03-12T08:47:45Z</time>
      </trkpt>
      <trkpt lat="43.6278" lon="6.36354">
        <ele>552.41</ele>
        <time>2020-03-12T08:48:08Z</time>
      </trkpt>
      <trkpt lat="43.62778" lon="6.36352">
        <ele>552.35</ele>
        <time>2020-03-12T08:48:20Z</time>
      </trkpt>
      <trkpt lat="43.62778" lon="6.36352">
        <ele>552.46</ele>
        <time>2020-03-12T08:48:42Z</time>
      </trkpt>
      <trkpt lat="43.6278" lon="6.36352">
        <ele>552.57</ele>
        <time>2020-03-12T08:49:04Z</time>
      </trkpt>
      <trkpt lat="43.62781" lon="6.3635">
        <ele>552.7</ele>
        <time>2020-03-12T08:49:25Z</time>
      </trkpt>
      <trkpt lat="43.62791" lon="6.36345">
        <ele>552.7</ele>
        <time>2020-03-12T08:49:42Z</time>
      </trkpt>
      <trkpt lat="43.62794" lon="6.3633">
        <ele>552.7</ele>
        <time>2020-03-12T08:49:56Z</time>
      </trkpt>
      <trkpt lat="43.62797" lon="6.36317">
        <ele>552.7</ele>
        <time>2020-03-12T08:50:07Z</time>
      </trkpt>
      <trkpt lat="43.62804" lon="6.36291">
        <ele>555.4</ele>
        <time>2020-03-12T08:50:26Z</time>
      </trkpt>
      <trkpt lat="43.62804" lon="6.36289">
        <ele>555.4</ele>
        <time>2020-03-12T08:50:27Z</time>
      </trkpt>
      <trkpt lat="43.62811" lon="6.36275">
        <ele>555.34</ele>
        <time>2020-03-12T08:50:43Z</time>
      </trkpt>
      <trkpt lat="43.62814" lon="6.36265">
        <ele>555.65</ele>
        <time>2020-03-12T08:50:57Z</time>
      </trkpt>
      <trkpt lat="43.62821" lon="6.36251">
        <ele>556.25</ele>
        <time>2020-03-12T08:51:08Z</time>
      </trkpt>
      <trkpt lat="43.62833" lon="6.36234">
        <ele>557.91</ele>
        <time>2020-03-12T08:51:26Z</time>
      </trkpt>
      <trkpt lat="43.6284" lon="6.36227">
        <ele>558.87</ele>
        <time>2020-03-12T08:51:35Z</time>
      </trkpt>
      <trkpt lat="43.62852" lon="6.36213">
        <ele>560.36</ele>
        <time>2020-03-12T08:51:51Z</time>
      </trkpt>
      <trkpt lat="43.62863" lon="6.362">
        <ele>561.17</ele>
        <time>2020-03-12T08:52:06Z</time>
      </trkpt>
      <trkpt lat="43.62878" lon="6.36184">
        <ele>562.43</ele>
        <time>2020-03-12T08:52:26Z</time>
      </trkpt>
      <trkpt lat="43.62892" lon="6.36169">
        <ele>563.7</ele>
        <time>2020-03-12T08:52:45Z</time>
      </trkpt>
      <trkpt lat="43.62911" lon="6.36159">
        <ele>565.09</ele>
        <time>2020-03-12T08:53:05Z</time>
      </trkpt>
      <trkpt lat="43.62921" lon="6.36151">
        <ele>566.52</ele>
        <time>2020-03-12T08:53:18Z</time>
      </trkpt>
      <trkpt lat="43.62928" lon="6.36138">
        <ele>567.41</ele>
        <time>2020-03-12T08:53:29Z</time>
      </trkpt>
      <trkpt lat="43.6293" lon="6.3613">
        <ele>567.56</ele>
        <time>2020-03-12T08:53:34Z</time>
      </trkpt>
      <trkpt lat="43.62929" lon="6.36108">
        <ele>568.09</ele>
        <time>2020-03-12T08:53:48Z</time>
      </trkpt>
      <trkpt lat="43.62926" lon="6.36097">
        <ele>567.81</ele>
        <time>2020-03-12T08:53:59Z</time>
      </trkpt>
      <trkpt lat="43.62929" lon="6.36094">
        <ele>567.53</ele>
        <time>2020-03-12T08:54:13Z</time>
      </trkpt>
      <trkpt lat="43.62931" lon="6.36083">
        <ele>568.2</ele>
        <time>2020-03-12T08:54:27Z</time>
      </trkpt>
      <trkpt lat="43.62937" lon="6.36072">
        <ele>568.36</ele>
        <time>2020-03-12T08:54:38Z</time>
      </trkpt>
      <trkpt lat="43.62939" lon="6.36061">
        <ele>568.29</ele>
        <time>2020-03-12T08:54:46Z</time>
      </trkpt>
      <trkpt lat="43.62941" lon="6.36047">
        <ele>568.1</ele>
        <time>2020-03-12T08:54:59Z</time>
      </trkpt>
      <trkpt lat="43.62944" lon="6.36029">
        <ele>567.97</ele>
        <time>2020-03-12T08:55:11Z</time>
      </trkpt>
      <trkpt lat="43.62947" lon="6.36016">
        <ele>567.97</ele>
        <time>2020-03-12T08:55:23Z</time>
      </trkpt>
      <trkpt lat="43.62949" lon="6.36002">
        <ele>567.97</ele>
        <time>2020-03-12T08:55:38Z</time>
      </trkpt>
      <trkpt lat="43.62953" lon="6.35982">
        <ele>567.97</ele>
        <time>2020-03-12T08:55:52Z</time>
      </trkpt>
      <trkpt lat="43.62956" lon="6.35972">
        <ele>567.97</ele>
        <time>2020-03-12T08:55:57Z</time>
      </trkpt>
      <trkpt lat="43.6296" lon="6.3596">
        <ele>567.97</ele>
        <time>2020-03-12T08:56:12Z</time>
      </trkpt>
      <trkpt lat="43.62968" lon="6.35939">
        <ele>567.97</ele>
        <time>2020-03-12T08:56:29Z</time>
      </trkpt>
      <trkpt lat="43.62976" lon="6.35911">
        <ele>567.97</ele>
        <time>2020-03-12T08:56:45Z</time>
      </trkpt>
      <trkpt lat="43.62982" lon="6.35898">
        <ele>567.97</ele>
        <time>2020-03-12T08:56:55Z</time>
      </trkpt>
      <trkpt lat="43.62984" lon="6.35876">
        <ele>567.97</ele>
        <time>2020-03-12T08:57:14Z</time>
      </trkpt>
      <trkpt lat="43.62987" lon="6.35867">
        <ele>567.97</ele>
        <time>2020-03-12T08:57:20Z</time>
      </trkpt>
      <trkpt lat="43.62995" lon="6.35846">
        <ele>567.97</ele>
        <time>2020-03-12T08:57:37Z</time>
      </trkpt>
      <trkpt lat="43.63003" lon="6.35825">
        <ele>567.97</ele>
        <time>2020-03-12T08:57:52Z</time>
      </trkpt>
      <trkpt lat="43.63007" lon="6.35811">
        <ele>567.97</ele>
        <time>2020-03-12T08:58:03Z</time>
      </trkpt>
      <trkpt lat="43.63009" lon="6.35808">
        <ele>564.75</ele>
        <time>2020-03-12T08:58:06Z</time>
      </trkpt>
      <trkpt lat="43.6301" lon="6.35806">
        <ele>564.75</ele>
        <time>2020-03-12T08:58:07Z</time>
      </trkpt>
      <trkpt lat="43.63016" lon="6.35796">
        <ele>564.71</ele>
        <time>2020-03-12T08:58:14Z</time>
      </trkpt>
      <trkpt lat="43.63023" lon="6.35785">
        <ele>564.68</ele>
        <time>2020-03-12T08:58:23Z</time>
      </trkpt>
      <trkpt lat="43.63024" lon="6.35783">
        <ele>564.63</ele>
        <time>2020-03-12T08:58:25Z</time>
      </trkpt>
      <trkpt lat="43.63028" lon="6.3578">
        <ele>564.46</ele>
        <time>2020-03-12T08:58:29Z</time>
      </trkpt>
      <trkpt lat="43.63035" lon="6.35767">
        <ele>564.27</ele>
        <time>2020-03-12T08:58:40Z</time>
      </trkpt>
      <trkpt lat="43.63041" lon="6.35759">
        <ele>564.35</ele>
        <time>2020-03-12T08:58:51Z</time>
      </trkpt>
      <trkpt lat="43.63044" lon="6.35746">
        <ele>564.79</ele>
        <time>2020-03-12T08:59:04Z</time>
      </trkpt>
      <trkpt lat="43.63044" lon="6.35735">
        <ele>565.14</ele>
        <time>2020-03-12T08:59:13Z</time>
      </trkpt>
      <trkpt lat="43.63045" lon="6.35733">
        <ele>565.14</ele>
        <time>2020-03-12T08:59:14Z</time>
      </trkpt>
      <trkpt lat="43.63048" lon="6.3572">
        <ele>565.17</ele>
        <time>2020-03-12T08:59:24Z</time>
      </trkpt>
      <trkpt lat="43.63053" lon="6.35709">
        <ele>565.67</ele>
        <time>2020-03-12T08:59:34Z</time>
      </trkpt>
      <trkpt lat="43.63055" lon="6.35706">
        <ele>565.67</ele>
        <time>2020-03-12T08:59:52Z</time>
      </trkpt>
      <trkpt lat="43.6306" lon="6.35685">
        <ele>566.47</ele>
        <time>2020-03-12T09:00:10Z</time>
      </trkpt>
      <trkpt lat="43.63066" lon="6.35664">
        <ele>567.3</ele>
        <time>2020-03-12T09:00:29Z</time>
      </trkpt>
      <trkpt lat="43.6307" lon="6.35648">
        <ele>567.99</ele>
        <time>2020-03-12T09:00:40Z</time>
      </trkpt>
      <trkpt lat="43.63075" lon="6.35639">
        <ele>568.59</ele>
        <time>2020-03-12T09:00:51Z</time>
      </trkpt>
      <trkpt lat="43.63081" lon="6.35625">
        <ele>568.94</ele>
        <time>2020-03-12T09:01:07Z</time>
      </trkpt>
      <trkpt lat="43.63084" lon="6.35623">
        <ele>569.84</ele>
        <time>2020-03-12T09:01:28Z</time>
      </trkpt>
      <trkpt lat="43.63085" lon="6.35619">
        <ele>569.84</ele>
        <time>2020-03-12T09:01:50Z</time>
      </trkpt>
      <trkpt lat="43.63085" lon="6.35619">
        <ele>569.34</ele>
        <time>2020-03-12T09:02:19Z</time>
      </trkpt>
      <trkpt lat="43.63082" lon="6.35618">
        <ele>569.7</ele>
        <time>2020-03-12T09:02:43Z</time>
      </trkpt>
      <trkpt lat="43.63077" lon="6.35622">
        <ele>569.7</ele>
        <time>2020-03-12T09:03:06Z</time>
      </trkpt>
      <trkpt lat="43.63078" lon="6.35616">
        <ele>569.7</ele>
        <time>2020-03-12T09:03:20Z</time>
      </trkpt>
      <trkpt lat="43.63079" lon="6.35617">
        <ele>569.7</ele>
        <time>2020-03-12T09:03:47Z</time>
      </trkpt>
      <trkpt lat="43.63079" lon="6.35617">
        <ele>569.7</ele>
        <time>2020-03-12T09:04:15Z</time>
      </trkpt>
      <trkpt lat="43.63078" lon="6.35619">
        <ele>569.7</ele>
        <time>2020-03-12T09:04:39Z</time>
      </trkpt>
      <trkpt lat="43.63077" lon="6.35617">
        <ele>569.7</ele>
        <time>2020-03-12T09:05:02Z</time>
      </trkpt>
      <trkpt lat="43.63078" lon="6.35616">
        <ele>569.7</ele>
        <time>2020-03-12T09:05:28Z</time>
      </trkpt>
      <trkpt lat="43.63078" lon="6.35616">
        <ele>569.7</ele>
        <time>2020-03-12T09:05:47Z</time>
      </trkpt>
      <trkpt lat="43.63078" lon="6.35618">
        <ele>569.7</ele>
        <time>2020-03-12T09:06:09Z</time>
      </trkpt>
      <trkpt lat="43.63078" lon="6.35618">
        <ele>569.7</ele>
        <time>2020-03-12T09:06:37Z</time>
      </trkpt>
      <trkpt lat="43.63076" lon="6.35616">
        <ele>569.7</ele>
        <time>2020-03-12T09:07:08Z</time>
      </trkpt>
      <trkpt lat="43.63077" lon="6.35618">
        <ele>569.7</ele>
        <time>2020-03-12T09:07:28Z</time>
      </trkpt>
      <trkpt lat="43.63077" lon="6.35618">
        <ele>569.7</ele>
        <time>2020-03-12T09:07:44Z</time>
      </trkpt>
      <trkpt lat="43.63077" lon="6.3562">
        <ele>569.7</ele>
        <time>2020-03-12T09:08:09Z</time>
      </trkpt>
      <trkpt lat="43.63081" lon="6.35621">
        <ele>569.7</ele>
        <time>2020-03-12T09:08:38Z</time>
      </trkpt>
      <trkpt lat="43.63082" lon="6.3562">
        <ele>569.7</ele>
        <time>2020-03-12T09:09:05Z</time>
      </trkpt>
      <trkpt lat="43.63078" lon="6.35617">
        <ele>569.7</ele>
        <time>2020-03-12T09:09:23Z</time>
      </trkpt>
      <trkpt lat="43.63077" lon="6.35615">
        <ele>569.7</ele>
        <time>2020-03-12T09:09:47Z</time>
      </trkpt>
      <trkpt lat="43.63079" lon="6.35616">
        <ele>569.7</ele>
        <time>2020-03-12T09:10:14Z</time>
      </trkpt>
      <trkpt lat="43.63077" lon="6.35613">
        <ele>569.7</ele>
        <time>2020-03-12T09:10:38Z</time>
      </trkpt>
      <trkpt lat="43.63077" lon="6.35613">
        <ele>569.7</ele>
        <time>2020-03-12T09:10:41Z</time>
      </trkpt>
      <trkpt lat="43.63076" lon="6.35612">
        <ele>569.7</ele>
        <time>2020-03-12T09:11:07Z</time>
      </trkpt>
      <trkpt lat="43.63077" lon="6.35616">
        <ele>569.7</ele>
        <time>2020-03-12T09:11:36Z</time>
      </trkpt>
      <trkpt lat="43.63077" lon="6.35615">
        <ele>569.7</ele>
        <time>2020-03-12T09:11:59Z</time>
      </trkpt>
      <trkpt lat="43.63074" lon="6.35611">
        <ele>569.7</ele>
        <time>2020-03-12T09:12:23Z</time>
      </trkpt>
      <trkpt lat="43.63075" lon="6.35614">
        <ele>569.7</ele>
        <time>2020-03-12T09:12:48Z</time>
      </trkpt>
      <trkpt lat="43.63075" lon="6.35619">
        <ele>569.7</ele>
        <time>2020-03-12T09:13:01Z</time>
      </trkpt>
      <trkpt lat="43.63077" lon="6.35621">
        <ele>569.7</ele>
        <time>2020-03-12T09:13:05Z</time>
      </trkpt>
      <trkpt lat="43.6308" lon="6.35616">
        <ele>569.91</ele>
        <time>2020-03-12T09:13:11Z</time>
      </trkpt>
      <trkpt lat="43.6309" lon="6.35604">
        <ele>571.62</ele>
        <time>2020-03-12T09:13:25Z</time>
      </trkpt>
      <trkpt lat="43.63092" lon="6.35602">
        <ele>571.83</ele>
        <time>2020-03-12T09:13:27Z</time>
      </trkpt>
      <trkpt lat="43.63104" lon="6.35582">
        <ele>572.54</ele>
        <time>2020-03-12T09:13:42Z</time>
      </trkpt>
      <trkpt lat="43.63107" lon="6.35574">
        <ele>572.66</ele>
        <time>2020-03-12T09:13:48Z</time>
      </trkpt>
      <trkpt lat="43.63113" lon="6.35558">
        <ele>573.11</ele>
        <time>2020-03-12T09:14:00Z</time>
      </trkpt>
      <trkpt lat="43.63115" lon="6.35554">
        <ele>573.23</ele>
        <time>2020-03-12T09:14:03Z</time>
      </trkpt>
      <trkpt lat="43.63121" lon="6.35547">
        <ele>573.92</ele>
        <time>2020-03-12T09:14:10Z</time>
      </trkpt>
      <trkpt lat="43.63129" lon="6.35533">
        <ele>575.06</ele>
        <time>2020-03-12T09:14:23Z</time>
      </trkpt>
      <trkpt lat="43.63131" lon="6.35516">
        <ele>575.33</ele>
        <time>2020-03-12T09:14:36Z</time>
      </trkpt>
      <trkpt lat="43.63129" lon="6.3551">
        <ele>575.32</ele>
        <time>2020-03-12T09:14:48Z</time>
      </trkpt>
      <trkpt lat="43.63131" lon="6.3551">
        <ele>575.1</ele>
        <time>2020-03-12T09:15:05Z</time>
      </trkpt>
      <trkpt lat="43.63129" lon="6.35508">
        <ele>575.13</ele>
        <time>2020-03-12T09:15:19Z</time>
      </trkpt>
      <trkpt lat="43.63114" lon="6.35506">
        <ele>573.8</ele>
        <time>2020-03-12T09:15:33Z</time>
      </trkpt>
      <trkpt lat="43.631" lon="6.35501">
        <ele>571.54</ele>
        <time>2020-03-12T09:15:48Z</time>
      </trkpt>
      <trkpt lat="43.63097" lon="6.35501">
        <ele>571.25</ele>
        <time>2020-03-12T09:15:50Z</time>
      </trkpt>
      <trkpt lat="43.63091" lon="6.35505">
        <ele>570.16</ele>
        <time>2020-03-12T09:15:57Z</time>
      </trkpt>
      <trkpt lat="43.63093" lon="6.35519">
        <ele>569.12</ele>
        <time>2020-03-12T09:16:09Z</time>
      </trkpt>
      <trkpt lat="43.63079" lon="6.3552">
        <ele>567.89</ele>
        <time>2020-03-12T09:16:20Z</time>
      </trkpt>
      <trkpt lat="43.63074" lon="6.35519">
        <ele>566.78</ele>
        <time>2020-03-12T09:16:32Z</time>
      </trkpt>
      <trkpt lat="43.63069" lon="6.3552">
        <ele>566.81</ele>
        <time>2020-03-12T09:16:36Z</time>
      </trkpt>
      <trkpt lat="43.63062" lon="6.35519">
        <ele>566.28</ele>
        <time>2020-03-12T09:16:43Z</time>
      </trkpt>
      <trkpt lat="43.63053" lon="6.35518">
        <ele>565.67</ele>
        <time>2020-03-12T09:16:50Z</time>
      </trkpt>
      <trkpt lat="43.63038" lon="6.35515">
        <ele>564.73</ele>
        <time>2020-03-12T09:17:03Z</time>
      </trkpt>
      <trkpt lat="43.63035" lon="6.35513">
        <ele>564.39</ele>
        <time>2020-03-12T09:17:13Z</time>
      </trkpt>
      <trkpt lat="43.63038" lon="6.35511">
        <ele>564.39</ele>
        <time>2020-03-12T09:17:33Z</time>
      </trkpt>
      <trkpt lat="43.6303" lon="6.3551">
        <ele>564.27</ele>
        <time>2020-03-12T09:17:49Z</time>
      </trkpt>
      <trkpt lat="43.63029" lon="6.35509">
        <ele>564.09</ele>
        <time>2020-03-12T09:18:09Z</time>
      </trkpt>
      <trkpt lat="43.63029" lon="6.35509">
        <ele>563.78</ele>
        <time>2020-03-12T09:18:33Z</time>
      </trkpt>
      <trkpt lat="43.6303" lon="6.35511">
        <ele>563.8</ele>
        <time>2020-03-12T09:18:58Z</time>
      </trkpt>
      <trkpt lat="43.63031" lon="6.3551">
        <ele>563.64</ele>
        <time>2020-03-12T09:19:25Z</time>
      </trkpt>
      <trkpt lat="43.63033" lon="6.35511">
        <ele>563.5</ele>
        <time>2020-03-12T09:19:48Z</time>
      </trkpt>
      <trkpt lat="43.63032" lon="6.35512">
        <ele>563.5</ele>
        <time>2020-03-12T09:20:08Z</time>
      </trkpt>
      <trkpt lat="43.63029" lon="6.3551">
        <ele>563.5</ele>
        <time>2020-03-12T09:20:34Z</time>
      </trkpt>
      <trkpt lat="43.63029" lon="6.35509">
        <ele>563.5</ele>
        <time>2020-03-12T09:20:57Z</time>
      </trkpt>
      <trkpt lat="43.63025" lon="6.35509">
        <ele>563.5</ele>
        <time>2020-03-12T09:21:15Z</time>
      </trkpt>
      <trkpt lat="43.63024" lon="6.35508">
        <ele>563.5</ele>
        <time>2020-03-12T09:21:39Z</time>
      </trkpt>
      <trkpt lat="43.63009" lon="6.35506">
        <ele>562.63</ele>
        <time>2020-03-12T09:21:53Z</time>
      </trkpt>
      <trkpt lat="43.62994" lon="6.35503">
        <ele>561.58</ele>
        <time>2020-03-12T09:22:07Z</time>
      </trkpt>
      <trkpt lat="43.62975" lon="6.35499">
        <ele>560.43</ele>
        <time>2020-03-12T09:22:24Z</time>
      </trkpt>
      <trkpt lat="43.62969" lon="6.35496">
        <ele>559.3</ele>
        <time>2020-03-12T09:22:36Z</time>
      </trkpt>
      <trkpt lat="43.62968" lon="6.35494">
        <ele>558.89</ele>
        <time>2020-03-12T09:22:49Z</time>
      </trkpt>
      <trkpt lat="43.62968" lon="6.35493">
        <ele>559.06</ele>
        <time>2020-03-12T09:23:16Z</time>
      </trkpt>
      <trkpt lat="43.62969" lon="6.35493">
        <ele>559.43</ele>
        <time>2020-03-12T09:23:34Z</time>
      </trkpt>
      <trkpt lat="43.62969" lon="6.35493">
        <ele>559.43</ele>
        <time>2020-03-12T09:23:52Z</time>
      </trkpt>
      <trkpt lat="43.62968" lon="6.35496">
        <ele>559.43</ele>
        <time>2020-03-12T09:24:11Z</time>
      </trkpt>
      <trkpt lat="43.62965" lon="6.35496">
        <ele>559.43</ele>
        <time>2020-03-12T09:24:29Z</time>
      </trkpt>
      <trkpt lat="43.62962" lon="6.35496">
        <ele>559.43</ele>
        <time>2020-03-12T09:24:54Z</time>
      </trkpt>
      <trkpt lat="43.62953" lon="6.35494">
        <ele>559.43</ele>
        <time>2020-03-12T09:25:37Z</time>
      </trkpt>
      <trkpt lat="43.6295" lon="6.35492">
        <ele>559.43</ele>
        <time>2020-03-12T09:26:00Z</time>
      </trkpt>
      <trkpt lat="43.6295" lon="6.35491">
        <ele>559.43</ele>
        <time>2020-03-12T09:26:27Z</time>
      </trkpt>
      <trkpt lat="43.62951" lon="6.35492">
        <ele>559.43</ele>
        <time>2020-03-12T09:26:53Z</time>
      </trkpt>
      <trkpt lat="43.62937" lon="6.35491">
        <ele>557.71</ele>
        <time>2020-03-12T09:27:07Z</time>
      </trkpt>
      <trkpt lat="43.62936" lon="6.35491">
        <ele>557.43</ele>
        <time>2020-03-12T09:27:08Z</time>
      </trkpt>
      <trkpt lat="43.62924" lon="6.35487">
        <ele>555.71</ele>
        <time>2020-03-12T09:27:24Z</time>
      </trkpt>
      <trkpt lat="43.62909" lon="6.35485">
        <ele>554.22</ele>
        <time>2020-03-12T09:27:40Z</time>
      </trkpt>
      <trkpt lat="43.62893" lon="6.3548">
        <ele>552.8</ele>
        <time>2020-03-12T09:27:56Z</time>
      </trkpt>
      <trkpt lat="43.62877" lon="6.35475">
        <ele>551.7</ele>
        <time>2020-03-12T09:28:12Z</time>
      </trkpt>
      <trkpt lat="43.62863" lon="6.35471">
        <ele>550.87</ele>
        <time>2020-03-12T09:28:25Z</time>
      </trkpt>
      <trkpt lat="43.6285" lon="6.35476">
        <ele>550.06</ele>
        <time>2020-03-12T09:28:38Z</time>
      </trkpt>
      <trkpt lat="43.62834" lon="6.35484">
        <ele>548.92</ele>
        <time>2020-03-12T09:28:56Z</time>
      </trkpt>
      <trkpt lat="43.62817" lon="6.35494">
        <ele>547.92</ele>
        <time>2020-03-12T09:29:12Z</time>
      </trkpt>
      <trkpt lat="43.628" lon="6.35504">
        <ele>547.16</ele>
        <time>2020-03-12T09:29:28Z</time>
      </trkpt>
      <trkpt lat="43.62786" lon="6.3551">
        <ele>546.45</ele>
        <time>2020-03-12T09:29:42Z</time>
      </trkpt>
      <trkpt lat="43.6277" lon="6.35517">
        <ele>545.81</ele>
        <time>2020-03-12T09:29:59Z</time>
      </trkpt>
      <trkpt lat="43.62765" lon="6.35518">
        <ele>545.53</ele>
        <time>2020-03-12T09:30:04Z</time>
      </trkpt>
      <trkpt lat="43.62747" lon="6.35525">
        <ele>544.97</ele>
        <time>2020-03-12T09:30:21Z</time>
      </trkpt>
      <trkpt lat="43.62732" lon="6.35531">
        <ele>544.27</ele>
        <time>2020-03-12T09:30:36Z</time>
      </trkpt>
      <trkpt lat="43.62715" lon="6.35538">
        <ele>543.56</ele>
        <time>2020-03-12T09:30:52Z</time>
      </trkpt>
      <trkpt lat="43.62701" lon="6.35549">
        <ele>543.17</ele>
        <time>2020-03-12T09:31:07Z</time>
      </trkpt>
      <trkpt lat="43.62688" lon="6.35559">
        <ele>542.39</ele>
        <time>2020-03-12T09:31:21Z</time>
      </trkpt>
      <trkpt lat="43.62675" lon="6.35569">
        <ele>542.07</ele>
        <time>2020-03-12T09:31:34Z</time>
      </trkpt>
      <trkpt lat="43.62664" lon="6.35577">
        <ele>541.87</ele>
        <time>2020-03-12T09:31:47Z</time>
      </trkpt>
      <trkpt lat="43.62671" lon="6.35585">
        <ele>541.89</ele>
        <time>2020-03-12T09:32:00Z</time>
      </trkpt>
      <trkpt lat="43.62675" lon="6.35591">
        <ele>541.88</ele>
        <time>2020-03-12T09:32:11Z</time>
      </trkpt>
      <trkpt lat="43.62683" lon="6.35606">
        <ele>542.19</ele>
        <time>2020-03-12T09:32:25Z</time>
      </trkpt>
      <trkpt lat="43.62686" lon="6.35615">
        <ele>542.46</ele>
        <time>2020-03-12T09:32:32Z</time>
      </trkpt>
      <trkpt lat="43.62698" lon="6.35634">
        <ele>543.23</ele>
        <time>2020-03-12T09:32:49Z</time>
      </trkpt>
      <trkpt lat="43.62707" lon="6.35646">
        <ele>544.1</ele>
        <time>2020-03-12T09:33:02Z</time>
      </trkpt>
      <trkpt lat="43.62717" lon="6.35663">
        <ele>545.22</ele>
        <time>2020-03-12T09:33:18Z</time>
      </trkpt>
      <trkpt lat="43.62727" lon="6.35681">
        <ele>546.46</ele>
        <time>2020-03-12T09:33:35Z</time>
      </trkpt>
      <trkpt lat="43.62734" lon="6.35697">
        <ele>547.74</ele>
        <time>2020-03-12T09:33:50Z</time>
      </trkpt>
      <trkpt lat="43.62738" lon="6.35702">
        <ele>548.17</ele>
        <time>2020-03-12T09:34:03Z</time>
      </trkpt>
      <trkpt lat="43.62739" lon="6.35705">
        <ele>548.26</ele>
        <time>2020-03-12T09:34:05Z</time>
      </trkpt>
      <trkpt lat="43.62743" lon="6.35714">
        <ele>549.6</ele>
        <time>2020-03-12T09:34:20Z</time>
      </trkpt>
      <trkpt lat="43.62744" lon="6.35713">
        <ele>549.5</ele>
        <time>2020-03-12T09:34:32Z</time>
      </trkpt>
      <trkpt lat="43.62745" lon="6.35714">
        <ele>549.44</ele>
        <time>2020-03-12T09:34:55Z</time>
      </trkpt>
      <trkpt lat="43.62747" lon="6.35713">
        <ele>549.36</ele>
        <time>2020-03-12T09:35:20Z</time>
      </trkpt>
      <trkpt lat="43.62746" lon="6.35713">
        <ele>549.38</ele>
        <time>2020-03-12T09:35:41Z</time>
      </trkpt>
      <trkpt lat="43.62747" lon="6.35713">
        <ele>549.35</ele>
        <time>2020-03-12T09:36:16Z</time>
      </trkpt>
      <trkpt lat="43.62745" lon="6.35713">
        <ele>549.35</ele>
        <time>2020-03-12T09:36:59Z</time>
      </trkpt>
      <trkpt lat="43.62745" lon="6.35711">
        <ele>549.35</ele>
        <time>2020-03-12T09:37:27Z</time>
      </trkpt>
      <trkpt lat="43.62742" lon="6.3571">
        <ele>549.35</ele>
        <time>2020-03-12T09:37:37Z</time>
      </trkpt>
      <trkpt lat="43.62739" lon="6.35707">
        <ele>549.35</ele>
        <time>2020-03-12T09:37:58Z</time>
      </trkpt>
      <trkpt lat="43.62738" lon="6.35706">
        <ele>549.35</ele>
        <time>2020-03-12T09:37:59Z</time>
      </trkpt>
      <trkpt lat="43.6273" lon="6.35684">
        <ele>547.89</ele>
        <time>2020-03-12T09:38:17Z</time>
      </trkpt>
      <trkpt lat="43.62727" lon="6.35678">
        <ele>547.52</ele>
        <time>2020-03-12T09:38:22Z</time>
      </trkpt>
      <trkpt lat="43.62722" lon="6.35673">
        <ele>547.1</ele>
        <time>2020-03-12T09:38:28Z</time>
      </trkpt>
      <trkpt lat="43.62718" lon="6.35664">
        <ele>546.48</ele>
        <time>2020-03-12T09:38:36Z</time>
      </trkpt>
      <trkpt lat="43.62712" lon="6.35652">
        <ele>545.66</ele>
        <time>2020-03-12T09:38:50Z</time>
      </trkpt>
      <trkpt lat="43.62709" lon="6.35648">
        <ele>545.06</ele>
        <time>2020-03-12T09:38:55Z</time>
      </trkpt>
      <trkpt lat="43.62703" lon="6.3564">
        <ele>544.68</ele>
        <time>2020-03-12T09:39:02Z</time>
      </trkpt>
      <trkpt lat="43.62696" lon="6.35629">
        <ele>544.1</ele>
        <time>2020-03-12T09:39:11Z</time>
      </trkpt>
      <trkpt lat="43.62691" lon="6.35622">
        <ele>543.64</ele>
        <time>2020-03-12T09:39:18Z</time>
      </trkpt>
      <trkpt lat="43.62682" lon="6.35608">
        <ele>543.02</ele>
        <time>2020-03-12T09:39:30Z</time>
      </trkpt>
      <trkpt lat="43.62673" lon="6.35593">
        <ele>542.85</ele>
        <time>2020-03-12T09:39:42Z</time>
      </trkpt>
      <trkpt lat="43.62668" lon="6.35586">
        <ele>542.34</ele>
        <time>2020-03-12T09:39:52Z</time>
      </trkpt>
      <trkpt lat="43.62668" lon="6.35585">
        <ele>542.15</ele>
        <time>2020-03-12T09:40:00Z</time>
      </trkpt>
      <trkpt lat="43.62665" lon="6.35579">
        <ele>542.15</ele>
        <time>2020-03-12T09:40:09Z</time>
      </trkpt>
      <trkpt lat="43.62665" lon="6.35578">
        <ele>542.15</ele>
        <time>2020-03-12T09:40:24Z</time>
      </trkpt>
      <trkpt lat="43.62659" lon="6.35574">
        <ele>542.27</ele>
        <time>2020-03-12T09:40:31Z</time>
      </trkpt>
      <trkpt lat="43.62652" lon="6.35571">
        <ele>542.4</ele>
        <time>2020-03-12T09:40:38Z</time>
      </trkpt>
      <trkpt lat="43.62635" lon="6.35566">
        <ele>542.41</ele>
        <time>2020-03-12T09:40:55Z</time>
      </trkpt>
      <trkpt lat="43.62626" lon="6.35563">
        <ele>542.74</ele>
        <time>2020-03-12T09:41:06Z</time>
      </trkpt>
      <trkpt lat="43.62624" lon="6.35561">
        <ele>542.89</ele>
        <time>2020-03-12T09:41:12Z</time>
      </trkpt>
      <trkpt lat="43.62607" lon="6.35553">
        <ele>542.97</ele>
        <time>2020-03-12T09:41:28Z</time>
      </trkpt>
      <trkpt lat="43.62592" lon="6.35545">
        <ele>542.84</ele>
        <time>2020-03-12T09:41:42Z</time>
      </trkpt>
      <trkpt lat="43.62577" lon="6.35538">
        <ele>542.43</ele>
        <time>2020-03-12T09:41:55Z</time>
      </trkpt>
      <trkpt lat="43.62564" lon="6.35531">
        <ele>542.15</ele>
        <time>2020-03-12T09:42:09Z</time>
      </trkpt>
      <trkpt lat="43.62545" lon="6.35521">
        <ele>541.14</ele>
        <time>2020-03-12T09:42:26Z</time>
      </trkpt>
      <trkpt lat="43.62531" lon="6.35514">
        <ele>540.62</ele>
        <time>2020-03-12T09:42:39Z</time>
      </trkpt>
      <trkpt lat="43.62519" lon="6.35511">
        <ele>540.5</ele>
        <time>2020-03-12T09:42:51Z</time>
      </trkpt>
      <trkpt lat="43.62506" lon="6.35507">
        <ele>540.62</ele>
        <time>2020-03-12T09:43:02Z</time>
      </trkpt>
      <trkpt lat="43.62494" lon="6.35497">
        <ele>540.42</ele>
        <time>2020-03-12T09:43:14Z</time>
      </trkpt>
      <trkpt lat="43.62478" lon="6.3549">
        <ele>539.94</ele>
        <time>2020-03-12T09:43:27Z</time>
      </trkpt>
      <trkpt lat="43.62466" lon="6.35484">
        <ele>539.78</ele>
        <time>2020-03-12T09:43:39Z</time>
      </trkpt>
      <trkpt lat="43.62453" lon="6.35482">
        <ele>539.4</ele>
        <time>2020-03-12T09:43:50Z</time>
      </trkpt>
      <trkpt lat="43.62439" lon="6.35481">
        <ele>539.09</ele>
        <time>2020-03-12T09:44:03Z</time>
      </trkpt>
      <trkpt lat="43.62424" lon="6.3548">
        <ele>538.58</ele>
        <time>2020-03-12T09:44:17Z</time>
      </trkpt>
      <trkpt lat="43.62406" lon="6.35482">
        <ele>538.15</ele>
        <time>2020-03-12T09:44:33Z</time>
      </trkpt>
      <trkpt lat="43.62392" lon="6.35482">
        <ele>537.81</ele>
        <time>2020-03-12T09:44:45Z</time>
      </trkpt>
      <trkpt lat="43.62384" lon="6.35484">
        <ele>537.59</ele>
        <time>2020-03-12T09:44:53Z</time>
      </trkpt>
      <trkpt lat="43.62367" lon="6.35481">
        <ele>537.34</ele>
        <time>2020-03-12T09:45:07Z</time>
      </trkpt>
      <trkpt lat="43.62363" lon="6.3548">
        <ele>537.33</ele>
        <time>2020-03-12T09:45:11Z</time>
      </trkpt>
      <trkpt lat="43.62356" lon="6.35482">
        <ele>537.33</ele>
        <time>2020-03-12T09:45:18Z</time>
      </trkpt>
      <trkpt lat="43.62347" lon="6.35493">
        <ele>537.37</ele>
        <time>2020-03-12T09:45:30Z</time>
      </trkpt>
      <trkpt lat="43.62347" lon="6.35497">
        <ele>537.19</ele>
        <time>2020-03-12T09:45:36Z</time>
      </trkpt>
      <trkpt lat="43.6234" lon="6.35513">
        <ele>537.35</ele>
        <time>2020-03-12T09:45:48Z</time>
      </trkpt>
      <trkpt lat="43.62332" lon="6.35533">
        <ele>537.81</ele>
        <time>2020-03-12T09:46:02Z</time>
      </trkpt>
      <trkpt lat="43.62333" lon="6.35552">
        <ele>538.17</ele>
        <time>2020-03-12T09:46:13Z</time>
      </trkpt>
      <trkpt lat="43.62331" lon="6.3557">
        <ele>538.34</ele>
        <time>2020-03-12T09:46:25Z</time>
      </trkpt>
      <trkpt lat="43.62324" lon="6.35583">
        <ele>538.42</ele>
        <time>2020-03-12T09:46:36Z</time>
      </trkpt>
      <trkpt lat="43.62317" lon="6.35602">
        <ele>538.43</ele>
        <time>2020-03-12T09:46:49Z</time>
      </trkpt>
      <trkpt lat="43.62315" lon="6.35616">
        <ele>538.2</ele>
        <time>2020-03-12T09:47:00Z</time>
      </trkpt>
      <trkpt lat="43.62315" lon="6.35626">
        <ele>538.05</ele>
        <time>2020-03-12T09:47:07Z</time>
      </trkpt>
      <trkpt lat="43.62315" lon="6.35647">
        <ele>537.75</ele>
        <time>2020-03-12T09:47:19Z</time>
      </trkpt>
      <trkpt lat="43.62318" lon="6.35662">
        <ele>537.61</ele>
        <time>2020-03-12T09:47:30Z</time>
      </trkpt>
      <trkpt lat="43.62321" lon="6.35681">
        <ele>537.6</ele>
        <time>2020-03-12T09:47:42Z</time>
      </trkpt>
      <trkpt lat="43.62325" lon="6.35701">
        <ele>537.38</ele>
        <time>2020-03-12T09:47:55Z</time>
      </trkpt>
      <trkpt lat="43.62328" lon="6.35719">
        <ele>537.22</ele>
        <time>2020-03-12T09:48:07Z</time>
      </trkpt>
      <trkpt lat="43.6233" lon="6.35741">
        <ele>536.86</ele>
        <time>2020-03-12T09:48:20Z</time>
      </trkpt>
      <trkpt lat="43.62334" lon="6.35753">
        <ele>536.65</ele>
        <time>2020-03-12T09:48:29Z</time>
      </trkpt>
      <trkpt lat="43.62338" lon="6.35765">
        <ele>536.55</ele>
        <time>2020-03-12T09:48:38Z</time>
      </trkpt>
      <trkpt lat="43.62339" lon="6.35768">
        <ele>536.55</ele>
        <time>2020-03-12T09:48:40Z</time>
      </trkpt>
      <trkpt lat="43.62349" lon="6.35786">
        <ele>536.3</ele>
        <time>2020-03-12T09:48:54Z</time>
      </trkpt>
      <trkpt lat="43.62352" lon="6.35791">
        <ele>536.19</ele>
        <time>2020-03-12T09:48:58Z</time>
      </trkpt>
      <trkpt lat="43.6236" lon="6.35806">
        <ele>536.13</ele>
        <time>2020-03-12T09:49:09Z</time>
      </trkpt>
      <trkpt lat="43.62365" lon="6.35824">
        <ele>536.69</ele>
        <time>2020-03-12T09:49:21Z</time>
      </trkpt>
      <trkpt lat="43.62366" lon="6.35838">
        <ele>537</ele>
        <time>2020-03-12T09:49:31Z</time>
      </trkpt>
      <trkpt lat="43.62366" lon="6.35849">
        <ele>537.06</ele>
        <time>2020-03-12T09:49:46Z</time>
      </trkpt>
      <trkpt lat="43.62368" lon="6.35861">
        <ele>537.06</ele>
        <time>2020-03-12T09:49:56Z</time>
      </trkpt>
      <trkpt lat="43.62368" lon="6.35868">
        <ele>537.06</ele>
        <time>2020-03-12T09:50:01Z</time>
      </trkpt>
      <trkpt lat="43.62363" lon="6.35888">
        <ele>537.28</ele>
        <time>2020-03-12T09:50:15Z</time>
      </trkpt>
      <trkpt lat="43.62362" lon="6.35901">
        <ele>537.31</ele>
        <time>2020-03-12T09:50:26Z</time>
      </trkpt>
      <trkpt lat="43.62361" lon="6.35917">
        <ele>537.07</ele>
        <time>2020-03-12T09:50:39Z</time>
      </trkpt>
      <trkpt lat="43.6236" lon="6.35925">
        <ele>537.02</ele>
        <time>2020-03-12T09:50:46Z</time>
      </trkpt>
      <trkpt lat="43.62363" lon="6.35941">
        <ele>536.99</ele>
        <time>2020-03-12T09:50:58Z</time>
      </trkpt>
      <trkpt lat="43.62362" lon="6.35955">
        <ele>536.92</ele>
        <time>2020-03-12T09:51:09Z</time>
      </trkpt>
      <trkpt lat="43.62361" lon="6.35958">
        <ele>536.87</ele>
        <time>2020-03-12T09:51:11Z</time>
      </trkpt>
      <trkpt lat="43.62362" lon="6.35977">
        <ele>536.72</ele>
        <time>2020-03-12T09:51:23Z</time>
      </trkpt>
      <trkpt lat="43.62362" lon="6.35989">
        <ele>536.3</ele>
        <time>2020-03-12T09:51:31Z</time>
      </trkpt>
      <trkpt lat="43.62365" lon="6.35998">
        <ele>535.89</ele>
        <time>2020-03-12T09:51:39Z</time>
      </trkpt>
      <trkpt lat="43.62375" lon="6.36002">
        <ele>534.47</ele>
        <time>2020-03-12T09:51:51Z</time>
      </trkpt>
      <trkpt lat="43.62377" lon="6.36004">
        <ele>534.17</ele>
        <time>2020-03-12T09:51:55Z</time>
      </trkpt>
      <trkpt lat="43.6238" lon="6.36007">
        <ele>533.87</ele>
        <time>2020-03-12T09:51:58Z</time>
      </trkpt>
      <trkpt lat="43.62391" lon="6.36017">
        <ele>532.97</ele>
        <time>2020-03-12T09:52:10Z</time>
      </trkpt>
      <trkpt lat="43.62396" lon="6.36026">
        <ele>532.46</ele>
        <time>2020-03-12T09:52:20Z</time>
      </trkpt>
      <trkpt lat="43.62395" lon="6.36041">
        <ele>532.16</ele>
        <time>2020-03-12T09:52:32Z</time>
      </trkpt>
      <trkpt lat="43.62395" lon="6.36043">
        <ele>532.14</ele>
        <time>2020-03-12T09:52:34Z</time>
      </trkpt>
      <trkpt lat="43.6239" lon="6.36056">
        <ele>531.99</ele>
        <time>2020-03-12T09:52:44Z</time>
      </trkpt>
      <trkpt lat="43.62386" lon="6.36064">
        <ele>531.99</ele>
        <time>2020-03-12T09:52:52Z</time>
      </trkpt>
      <trkpt lat="43.62386" lon="6.36072">
        <ele>531.84</ele>
        <time>2020-03-12T09:52:58Z</time>
      </trkpt>
      <trkpt lat="43.62389" lon="6.36092">
        <ele>531.46</ele>
        <time>2020-03-12T09:53:10Z</time>
      </trkpt>
      <trkpt lat="43.62388" lon="6.36103">
        <ele>531.35</ele>
        <time>2020-03-12T09:53:17Z</time>
      </trkpt>
      <trkpt lat="43.62386" lon="6.36114">
        <ele>531.02</ele>
        <time>2020-03-12T09:53:24Z</time>
      </trkpt>
      <trkpt lat="43.62383" lon="6.36135">
        <ele>530.61</ele>
        <time>2020-03-12T09:53:37Z</time>
      </trkpt>
      <trkpt lat="43.62374" lon="6.36151">
        <ele>530.3</ele>
        <time>2020-03-12T09:53:49Z</time>
      </trkpt>
      <trkpt lat="43.62365" lon="6.36165">
        <ele>530.28</ele>
        <time>2020-03-12T09:54:01Z</time>
      </trkpt>
      <trkpt lat="43.62362" lon="6.36168">
        <ele>530.44</ele>
        <time>2020-03-12T09:54:04Z</time>
      </trkpt>
      <trkpt lat="43.6236" lon="6.36173">
        <ele>530.42</ele>
        <time>2020-03-12T09:54:08Z</time>
      </trkpt>
      <trkpt lat="43.62352" lon="6.36189">
        <ele>530.13</ele>
        <time>2020-03-12T09:54:20Z</time>
      </trkpt>
      <trkpt lat="43.62344" lon="6.36204">
        <ele>530.06</ele>
        <time>2020-03-12T09:54:32Z</time>
      </trkpt>
      <trkpt lat="43.6234" lon="6.36213">
        <ele>529.88</ele>
        <time>2020-03-12T09:54:39Z</time>
      </trkpt>
      <trkpt lat="43.6233" lon="6.36229">
        <ele>529.83</ele>
        <time>2020-03-12T09:54:52Z</time>
      </trkpt>
      <trkpt lat="43.62322" lon="6.36249">
        <ele>529.57</ele>
        <time>2020-03-12T09:55:06Z</time>
      </trkpt>
      <trkpt lat="43.62315" lon="6.36267">
        <ele>529.37</ele>
        <time>2020-03-12T09:55:19Z</time>
      </trkpt>
      <trkpt lat="43.62309" lon="6.36286">
        <ele>529.19</ele>
        <time>2020-03-12T09:55:33Z</time>
      </trkpt>
      <trkpt lat="43.62306" lon="6.36296">
        <ele>529.11</ele>
        <time>2020-03-12T09:55:40Z</time>
      </trkpt>
      <trkpt lat="43.62305" lon="6.36305">
        <ele>529.05</ele>
        <time>2020-03-12T09:55:46Z</time>
      </trkpt>
      <trkpt lat="43.62302" lon="6.36326">
        <ele>528.75</ele>
        <time>2020-03-12T09:55:59Z</time>
      </trkpt>
      <trkpt lat="43.623" lon="6.36341">
        <ele>528.65</ele>
        <time>2020-03-12T09:56:10Z</time>
      </trkpt>
      <trkpt lat="43.62301" lon="6.3635">
        <ele>528.47</ele>
        <time>2020-03-12T09:56:17Z</time>
      </trkpt>
      <trkpt lat="43.6231" lon="6.36366">
        <ele>527.93</ele>
        <time>2020-03-12T09:56:30Z</time>
      </trkpt>
      <trkpt lat="43.62319" lon="6.36373">
        <ele>526.71</ele>
        <time>2020-03-12T09:56:42Z</time>
      </trkpt>
      <trkpt lat="43.6232" lon="6.36375">
        <ele>526.55</ele>
        <time>2020-03-12T09:56:44Z</time>
      </trkpt>
      <trkpt lat="43.62326" lon="6.36381">
        <ele>525.56</ele>
        <time>2020-03-12T09:56:55Z</time>
      </trkpt>
      <trkpt lat="43.62327" lon="6.36378">
        <ele>525.22</ele>
        <time>2020-03-12T09:57:06Z</time>
      </trkpt>
      <trkpt lat="43.62326" lon="6.36373">
        <ele>525.59</ele>
        <time>2020-03-12T09:57:19Z</time>
      </trkpt>
      <trkpt lat="43.62328" lon="6.36374">
        <ele>525.4</ele>
        <time>2020-03-12T09:57:33Z</time>
      </trkpt>
      <trkpt lat="43.62333" lon="6.36379">
        <ele>525.41</ele>
        <time>2020-03-12T09:57:48Z</time>
      </trkpt>
      <trkpt lat="43.62334" lon="6.36375">
        <ele>525.35</ele>
        <time>2020-03-12T09:58:05Z</time>
      </trkpt>
      <trkpt lat="43.62331" lon="6.36373">
        <ele>525.35</ele>
        <time>2020-03-12T09:58:23Z</time>
      </trkpt>
      <trkpt lat="43.62327" lon="6.36373">
        <ele>525.35</ele>
        <time>2020-03-12T09:58:37Z</time>
      </trkpt>
      <trkpt lat="43.62323" lon="6.36375">
        <ele>525.35</ele>
        <time>2020-03-12T09:58:55Z</time>
      </trkpt>
      <trkpt lat="43.62316" lon="6.36376">
        <ele>525.71</ele>
        <time>2020-03-12T09:59:01Z</time>
      </trkpt>
      <trkpt lat="43.62307" lon="6.36379">
        <ele>527.01</ele>
        <time>2020-03-12T09:59:09Z</time>
      </trkpt>
      <trkpt lat="43.62295" lon="6.36386">
        <ele>527.13</ele>
        <time>2020-03-12T09:59:20Z</time>
      </trkpt>
      <trkpt lat="43.62282" lon="6.36398">
        <ele>527.45</ele>
        <time>2020-03-12T09:59:34Z</time>
      </trkpt>
      <trkpt lat="43.62278" lon="6.36405">
        <ele>527.49</ele>
        <time>2020-03-12T09:59:40Z</time>
      </trkpt>
      <trkpt lat="43.62271" lon="6.36417">
        <ele>527.52</ele>
        <time>2020-03-12T09:59:52Z</time>
      </trkpt>
      <trkpt lat="43.62263" lon="6.36428">
        <ele>527.46</ele>
        <time>2020-03-12T10:00:04Z</time>
      </trkpt>
      <trkpt lat="43.62254" lon="6.36439">
        <ele>527.46</ele>
        <time>2020-03-12T10:00:17Z</time>
      </trkpt>
      <trkpt lat="43.62243" lon="6.36444">
        <ele>527.65</ele>
        <time>2020-03-12T10:00:30Z</time>
      </trkpt>
      <trkpt lat="43.62245" lon="6.36441">
        <ele>527.77</ele>
        <time>2020-03-12T10:00:51Z</time>
      </trkpt>
      <trkpt lat="43.62247" lon="6.3644">
        <ele>527.83</ele>
        <time>2020-03-12T10:01:10Z</time>
      </trkpt>
      <trkpt lat="43.62249" lon="6.36444">
        <ele>527.94</ele>
        <time>2020-03-12T10:01:33Z</time>
      </trkpt>
      <trkpt lat="43.62239" lon="6.36446">
        <ele>527.94</ele>
        <time>2020-03-12T10:01:46Z</time>
      </trkpt>
      <trkpt lat="43.6223" lon="6.36446">
        <ele>527.94</ele>
        <time>2020-03-12T10:02:02Z</time>
      </trkpt>
      <trkpt lat="43.62226" lon="6.36442">
        <ele>527.94</ele>
        <time>2020-03-12T10:02:24Z</time>
      </trkpt>
      <trkpt lat="43.62218" lon="6.36444">
        <ele>527.94</ele>
        <time>2020-03-12T10:02:48Z</time>
      </trkpt>
      <trkpt lat="43.62201" lon="6.36443">
        <ele>527.94</ele>
        <time>2020-03-12T10:03:06Z</time>
      </trkpt>
      <trkpt lat="43.62192" lon="6.36441">
        <ele>530.79</ele>
        <time>2020-03-12T10:03:15Z</time>
      </trkpt>
      <trkpt lat="43.62182" lon="6.36422">
        <ele>531.97</ele>
        <time>2020-03-12T10:03:34Z</time>
      </trkpt>
      <trkpt lat="43.62172" lon="6.36406">
        <ele>532.76</ele>
        <time>2020-03-12T10:03:48Z</time>
      </trkpt>
      <trkpt lat="43.6217" lon="6.36404">
        <ele>532.86</ele>
        <time>2020-03-12T10:03:50Z</time>
      </trkpt>
      <trkpt lat="43.62155" lon="6.3639">
        <ele>533.99</ele>
        <time>2020-03-12T10:04:07Z</time>
      </trkpt>
      <trkpt lat="43.62142" lon="6.3638">
        <ele>535.1</ele>
        <time>2020-03-12T10:04:23Z</time>
      </trkpt>
      <trkpt lat="43.62133" lon="6.36376">
        <ele>535.61</ele>
        <time>2020-03-12T10:04:31Z</time>
      </trkpt>
      <trkpt lat="43.62116" lon="6.36371">
        <ele>536.42</ele>
        <time>2020-03-12T10:04:46Z</time>
      </trkpt>
      <trkpt lat="43.62103" lon="6.36374">
        <ele>536.7</ele>
        <time>2020-03-12T10:04:59Z</time>
      </trkpt>
      <trkpt lat="43.62096" lon="6.36376">
        <ele>536.72</ele>
        <time>2020-03-12T10:05:05Z</time>
      </trkpt>
      <trkpt lat="43.62079" lon="6.36376">
        <ele>536.83</ele>
        <time>2020-03-12T10:05:21Z</time>
      </trkpt>
      <trkpt lat="43.62067" lon="6.36372">
        <ele>536.98</ele>
        <time>2020-03-12T10:05:33Z</time>
      </trkpt>
      <trkpt lat="43.62051" lon="6.36365">
        <ele>537.41</ele>
        <time>2020-03-12T10:05:48Z</time>
      </trkpt>
      <trkpt lat="43.6205" lon="6.36365">
        <ele>537.47</ele>
        <time>2020-03-12T10:05:49Z</time>
      </trkpt>
      <trkpt lat="43.62036" lon="6.36359">
        <ele>537.53</ele>
        <time>2020-03-12T10:06:03Z</time>
      </trkpt>
      <trkpt lat="43.6202" lon="6.36355">
        <ele>537.59</ele>
        <time>2020-03-12T10:06:18Z</time>
      </trkpt>
      <trkpt lat="43.62008" lon="6.36349">
        <ele>538.06</ele>
        <time>2020-03-12T10:06:30Z</time>
      </trkpt>
      <trkpt lat="43.61997" lon="6.36339">
        <ele>538.6</ele>
        <time>2020-03-12T10:06:43Z</time>
      </trkpt>
      <trkpt lat="43.61986" lon="6.36325">
        <ele>539.17</ele>
        <time>2020-03-12T10:06:56Z</time>
      </trkpt>
      <trkpt lat="43.61974" lon="6.36314">
        <ele>539.86</ele>
        <time>2020-03-12T10:07:10Z</time>
      </trkpt>
      <trkpt lat="43.61972" lon="6.36308">
        <ele>540.16</ele>
        <time>2020-03-12T10:07:14Z</time>
      </trkpt>
      <trkpt lat="43.61961" lon="6.3629">
        <ele>540.75</ele>
        <time>2020-03-12T10:07:29Z</time>
      </trkpt>
      <trkpt lat="43.61953" lon="6.36279">
        <ele>541.14</ele>
        <time>2020-03-12T10:07:42Z</time>
      </trkpt>
      <trkpt lat="43.61942" lon="6.36268">
        <ele>541.28</ele>
        <time>2020-03-12T10:07:56Z</time>
      </trkpt>
      <trkpt lat="43.61927" lon="6.36259">
        <ele>541.91</ele>
        <time>2020-03-12T10:08:10Z</time>
      </trkpt>
      <trkpt lat="43.61918" lon="6.36246">
        <ele>542.31</ele>
        <time>2020-03-12T10:08:24Z</time>
      </trkpt>
      <trkpt lat="43.61905" lon="6.36243">
        <ele>542.58</ele>
        <time>2020-03-12T10:08:37Z</time>
      </trkpt>
      <trkpt lat="43.61895" lon="6.36245">
        <ele>542.97</ele>
        <time>2020-03-12T10:08:49Z</time>
      </trkpt>
      <trkpt lat="43.61882" lon="6.36247">
        <ele>543.44</ele>
        <time>2020-03-12T10:09:04Z</time>
      </trkpt>
      <trkpt lat="43.61876" lon="6.36248">
        <ele>543.58</ele>
        <time>2020-03-12T10:09:10Z</time>
      </trkpt>
      <trkpt lat="43.61862" lon="6.3625">
        <ele>544.05</ele>
        <time>2020-03-12T10:09:23Z</time>
      </trkpt>
      <trkpt lat="43.61852" lon="6.36246">
        <ele>544.62</ele>
        <time>2020-03-12T10:09:34Z</time>
      </trkpt>
      <trkpt lat="43.61846" lon="6.36235">
        <ele>544.77</ele>
        <time>2020-03-12T10:09:44Z</time>
      </trkpt>
      <trkpt lat="43.61842" lon="6.36222">
        <ele>545.36</ele>
        <time>2020-03-12T10:09:55Z</time>
      </trkpt>
      <trkpt lat="43.61836" lon="6.3621">
        <ele>545.36</ele>
        <time>2020-03-12T10:10:06Z</time>
      </trkpt>
      <trkpt lat="43.61829" lon="6.36198">
        <ele>545.19</ele>
        <time>2020-03-12T10:10:17Z</time>
      </trkpt>
      <trkpt lat="43.61822" lon="6.36183">
        <ele>545.08</ele>
        <time>2020-03-12T10:10:29Z</time>
      </trkpt>
      <trkpt lat="43.61814" lon="6.36172">
        <ele>545.16</ele>
        <time>2020-03-12T10:10:40Z</time>
      </trkpt>
      <trkpt lat="43.61811" lon="6.36172">
        <ele>545.21</ele>
        <time>2020-03-12T10:10:43Z</time>
      </trkpt>
      <trkpt lat="43.61801" lon="6.36174">
        <ele>544.94</ele>
        <time>2020-03-12T10:10:55Z</time>
      </trkpt>
      <trkpt lat="43.618" lon="6.36175">
        <ele>544.94</ele>
        <time>2020-03-12T10:10:56Z</time>
      </trkpt>
      <trkpt lat="43.61789" lon="6.36183">
        <ele>544.82</ele>
        <time>2020-03-12T10:11:09Z</time>
      </trkpt>
      <trkpt lat="43.61784" lon="6.36182">
        <ele>544.87</ele>
        <time>2020-03-12T10:11:15Z</time>
      </trkpt>
      <trkpt lat="43.61774" lon="6.36176">
        <ele>544.76</ele>
        <time>2020-03-12T10:11:25Z</time>
      </trkpt>
      <trkpt lat="43.61768" lon="6.36177">
        <ele>544.84</ele>
        <time>2020-03-12T10:11:31Z</time>
      </trkpt>
      <trkpt lat="43.6176" lon="6.36179">
        <ele>544.7</ele>
        <time>2020-03-12T10:11:43Z</time>
      </trkpt>
      <trkpt lat="43.61761" lon="6.36179">
        <ele>544.86</ele>
        <time>2020-03-12T10:11:59Z</time>
      </trkpt>
      <trkpt lat="43.61761" lon="6.36178">
        <ele>544.66</ele>
        <time>2020-03-12T10:12:15Z</time>
      </trkpt>
      <trkpt lat="43.61765" lon="6.36177">
        <ele>544.33</ele>
        <time>2020-03-12T10:12:21Z</time>
      </trkpt>
      <trkpt lat="43.61767" lon="6.36174">
        <ele>544.25</ele>
        <time>2020-03-12T10:12:24Z</time>
      </trkpt>
      <trkpt lat="43.61769" lon="6.36156">
        <ele>545.03</ele>
        <time>2020-03-12T10:12:37Z</time>
      </trkpt>
      <trkpt lat="43.61771" lon="6.36138">
        <ele>545.35</ele>
        <time>2020-03-12T10:12:49Z</time>
      </trkpt>
      <trkpt lat="43.6177" lon="6.36131">
        <ele>545.37</ele>
        <time>2020-03-12T10:12:59Z</time>
      </trkpt>
      <trkpt lat="43.6177" lon="6.36132">
        <ele>545.38</ele>
        <time>2020-03-12T10:13:00Z</time>
      </trkpt>
      <trkpt lat="43.61767" lon="6.36137">
        <ele>545.42</ele>
        <time>2020-03-12T10:13:12Z</time>
      </trkpt>
      <trkpt lat="43.61768" lon="6.36141">
        <ele>545.41</ele>
        <time>2020-03-12T10:13:23Z</time>
      </trkpt>
      <trkpt lat="43.61771" lon="6.36133">
        <ele>545.34</ele>
        <time>2020-03-12T10:13:34Z</time>
      </trkpt>
      <trkpt lat="43.61778" lon="6.36126">
        <ele>545.4</ele>
        <time>2020-03-12T10:13:45Z</time>
      </trkpt>
      <trkpt lat="43.61789" lon="6.36115">
        <ele>545</ele>
        <time>2020-03-12T10:13:59Z</time>
      </trkpt>
      <trkpt lat="43.61794" lon="6.36106">
        <ele>544.98</ele>
        <time>2020-03-12T10:14:09Z</time>
      </trkpt>
      <trkpt lat="43.61797" lon="6.36102">
        <ele>545.2</ele>
        <time>2020-03-12T10:14:21Z</time>
      </trkpt>
      <trkpt lat="43.61798" lon="6.36099">
        <ele>545.2</ele>
        <time>2020-03-12T10:14:25Z</time>
      </trkpt>
      <trkpt lat="43.61807" lon="6.36089">
        <ele>544.72</ele>
        <time>2020-03-12T10:14:38Z</time>
      </trkpt>
      <trkpt lat="43.61808" lon="6.36086">
        <ele>544.76</ele>
        <time>2020-03-12T10:14:41Z</time>
      </trkpt>
      <trkpt lat="43.6181" lon="6.36081">
        <ele>545</ele>
        <time>2020-03-12T10:14:45Z</time>
      </trkpt>
      <trkpt lat="43.61812" lon="6.36081">
        <ele>544.83</ele>
        <time>2020-03-12T10:14:54Z</time>
      </trkpt>
      <trkpt lat="43.61808" lon="6.36086">
        <ele>544.81</ele>
        <time>2020-03-12T10:14:58Z</time>
      </trkpt>
      <trkpt lat="43.61807" lon="6.36089">
        <ele>544.86</ele>
        <time>2020-03-12T10:15:01Z</time>
      </trkpt>
      <trkpt lat="43.618" lon="6.36098">
        <ele>544.94</ele>
        <time>2020-03-12T10:15:09Z</time>
      </trkpt>
      <trkpt lat="43.61792" lon="6.36109">
        <ele>545.29</ele>
        <time>2020-03-12T10:15:20Z</time>
      </trkpt>
      <trkpt lat="43.61783" lon="6.36124">
        <ele>545.29</ele>
        <time>2020-03-12T10:15:32Z</time>
      </trkpt>
      <trkpt lat="43.61773" lon="6.36135">
        <ele>545.07</ele>
        <time>2020-03-12T10:15:43Z</time>
      </trkpt>
      <trkpt lat="43.61769" lon="6.36138">
        <ele>545.1</ele>
        <time>2020-03-12T10:15:48Z</time>
      </trkpt>
      <trkpt lat="43.61769" lon="6.36143">
        <ele>545.16</ele>
        <time>2020-03-12T10:15:52Z</time>
      </trkpt>
      <trkpt lat="43.61771" lon="6.36158">
        <ele>544.9</ele>
        <time>2020-03-12T10:16:03Z</time>
      </trkpt>
      <trkpt lat="43.6177" lon="6.36172">
        <ele>544.58</ele>
        <time>2020-03-12T10:16:14Z</time>
      </trkpt>
      <trkpt lat="43.6177" lon="6.36176">
        <ele>544.29</ele>
        <time>2020-03-12T10:16:26Z</time>
      </trkpt>
      <trkpt lat="43.61769" lon="6.36175">
        <ele>544.09</ele>
        <time>2020-03-12T10:16:48Z</time>
      </trkpt>
      <trkpt lat="43.61769" lon="6.36174">
        <ele>544.37</ele>
        <time>2020-03-12T10:17:13Z</time>
      </trkpt>
      <trkpt lat="43.61769" lon="6.36175">
        <ele>544.22</ele>
        <time>2020-03-12T10:17:47Z</time>
      </trkpt>
      <trkpt lat="43.61774" lon="6.36174">
        <ele>544.22</ele>
        <time>2020-03-12T10:18:09Z</time>
      </trkpt>
      <trkpt lat="43.61778" lon="6.36175">
        <ele>544.22</ele>
        <time>2020-03-12T10:18:13Z</time>
      </trkpt>
      <trkpt lat="43.6178" lon="6.36176">
        <ele>544.22</ele>
        <time>2020-03-12T10:18:16Z</time>
      </trkpt>
      <trkpt lat="43.61784" lon="6.36179">
        <ele>544.22</ele>
        <time>2020-03-12T10:18:20Z</time>
      </trkpt>
      <trkpt lat="43.61792" lon="6.36181">
        <ele>544.35</ele>
        <time>2020-03-12T10:18:31Z</time>
      </trkpt>
      <trkpt lat="43.61803" lon="6.36167">
        <ele>544.64</ele>
        <time>2020-03-12T10:18:44Z</time>
      </trkpt>
      <trkpt lat="43.61808" lon="6.36157">
        <ele>544.85</ele>
        <time>2020-03-12T10:18:53Z</time>
      </trkpt>
      <trkpt lat="43.61811" lon="6.36152">
        <ele>544.78</ele>
        <time>2020-03-12T10:19:06Z</time>
      </trkpt>
      <trkpt lat="43.61812" lon="6.36153">
        <ele>544.76</ele>
        <time>2020-03-12T10:19:07Z</time>
      </trkpt>
      <trkpt lat="43.61813" lon="6.36156">
        <ele>544.75</ele>
        <time>2020-03-12T10:19:10Z</time>
      </trkpt>
      <trkpt lat="43.61816" lon="6.36162">
        <ele>544.78</ele>
        <time>2020-03-12T10:19:17Z</time>
      </trkpt>
      <trkpt lat="43.6182" lon="6.36169">
        <ele>544.77</ele>
        <time>2020-03-12T10:19:32Z</time>
      </trkpt>
      <trkpt lat="43.61822" lon="6.36172">
        <ele>544.81</ele>
        <time>2020-03-12T10:19:43Z</time>
      </trkpt>
      <trkpt lat="43.61817" lon="6.3617">
        <ele>544.65</ele>
        <time>2020-03-12T10:19:56Z</time>
      </trkpt>
      <trkpt lat="43.61817" lon="6.36168">
        <ele>544.74</ele>
        <time>2020-03-12T10:20:18Z</time>
      </trkpt>
      <trkpt lat="43.61816" lon="6.36159">
        <ele>544.72</ele>
        <time>2020-03-12T10:20:28Z</time>
      </trkpt>
      <trkpt lat="43.61822" lon="6.36171">
        <ele>544.44</ele>
        <time>2020-03-12T10:20:40Z</time>
      </trkpt>
      <trkpt lat="43.61819" lon="6.36165">
        <ele>544.51</ele>
        <time>2020-03-12T10:20:54Z</time>
      </trkpt>
      <trkpt lat="43.61819" lon="6.36163">
        <ele>544.29</ele>
        <time>2020-03-12T10:21:15Z</time>
      </trkpt>
      <trkpt lat="43.61821" lon="6.36172">
        <ele>544.59</ele>
        <time>2020-03-12T10:21:27Z</time>
      </trkpt>
      <trkpt lat="43.61817" lon="6.36165">
        <ele>544.44</ele>
        <time>2020-03-12T10:21:39Z</time>
      </trkpt>
      <trkpt lat="43.61814" lon="6.36161">
        <ele>544.34</ele>
        <time>2020-03-12T10:21:54Z</time>
      </trkpt>
      <trkpt lat="43.61814" lon="6.3616">
        <ele>544.73</ele>
        <time>2020-03-12T10:22:17Z</time>
      </trkpt>
      <trkpt lat="43.61815" lon="6.36161">
        <ele>544.73</ele>
        <time>2020-03-12T10:22:36Z</time>
      </trkpt>
      <trkpt lat="43.61811" lon="6.36152">
        <ele>544.73</ele>
        <time>2020-03-12T10:22:59Z</time>
      </trkpt>
      <trkpt lat="43.61804" lon="6.36138">
        <ele>544.38</ele>
        <time>2020-03-12T10:23:13Z</time>
      </trkpt>
      <trkpt lat="43.61801" lon="6.36127">
        <ele>544.4</ele>
        <time>2020-03-12T10:23:28Z</time>
      </trkpt>
      <trkpt lat="43.61797" lon="6.36114">
        <ele>544.37</ele>
        <time>2020-03-12T10:23:40Z</time>
      </trkpt>
      <trkpt lat="43.61794" lon="6.36109">
        <ele>544.92</ele>
        <time>2020-03-12T10:23:51Z</time>
      </trkpt>
      <trkpt lat="43.61793" lon="6.36109">
        <ele>545.1</ele>
        <time>2020-03-12T10:24:13Z</time>
      </trkpt>
      <trkpt lat="43.61792" lon="6.36107">
        <ele>545.03</ele>
        <time>2020-03-12T10:24:27Z</time>
      </trkpt>
      <trkpt lat="43.61791" lon="6.36098">
        <ele>544.96</ele>
        <time>2020-03-12T10:24:33Z</time>
      </trkpt>
      <trkpt lat="43.61784" lon="6.36081">
        <ele>545.31</ele>
        <time>2020-03-12T10:24:46Z</time>
      </trkpt>
      <trkpt lat="43.61783" lon="6.36076">
        <ele>545.62</ele>
        <time>2020-03-12T10:24:57Z</time>
      </trkpt>
      <trkpt lat="43.61782" lon="6.36074">
        <ele>545.39</ele>
        <time>2020-03-12T10:25:20Z</time>
      </trkpt>
      <trkpt lat="43.61776" lon="6.36066">
        <ele>545.35</ele>
        <time>2020-03-12T10:25:31Z</time>
      </trkpt>
      <trkpt lat="43.6177" lon="6.3606">
        <ele>545.28</ele>
        <time>2020-03-12T10:25:40Z</time>
      </trkpt>
      <trkpt lat="43.61765" lon="6.36054">
        <ele>545.3</ele>
        <time>2020-03-12T10:25:52Z</time>
      </trkpt>
      <trkpt lat="43.61769" lon="6.3606">
        <ele>545.69</ele>
        <time>2020-03-12T10:26:09Z</time>
      </trkpt>
      <trkpt lat="43.61762" lon="6.36049">
        <ele>545.69</ele>
        <time>2020-03-12T10:26:25Z</time>
      </trkpt>
      <trkpt lat="43.61753" lon="6.36044">
        <ele>545.69</ele>
        <time>2020-03-12T10:26:39Z</time>
      </trkpt>
      <trkpt lat="43.61743" lon="6.36037">
        <ele>545.69</ele>
        <time>2020-03-12T10:26:57Z</time>
      </trkpt>
      <trkpt lat="43.61731" lon="6.36031">
        <ele>545.85</ele>
        <time>2020-03-12T10:27:13Z</time>
      </trkpt>
      <trkpt lat="43.61724" lon="6.36028">
        <ele>545.79</ele>
        <time>2020-03-12T10:27:28Z</time>
      </trkpt>
      <trkpt lat="43.61713" lon="6.36022">
        <ele>545.97</ele>
        <time>2020-03-12T10:27:43Z</time>
      </trkpt>
      <trkpt lat="43.61708" lon="6.36021">
        <ele>546.11</ele>
        <time>2020-03-12T10:27:51Z</time>
      </trkpt>
      <trkpt lat="43.61693" lon="6.3601">
        <ele>546.18</ele>
        <time>2020-03-12T10:28:06Z</time>
      </trkpt>
      <trkpt lat="43.61684" lon="6.36">
        <ele>546.46</ele>
        <time>2020-03-12T10:28:20Z</time>
      </trkpt>
      <trkpt lat="43.61672" lon="6.35988">
        <ele>546.68</ele>
        <time>2020-03-12T10:28:34Z</time>
      </trkpt>
      <trkpt lat="43.6166" lon="6.35978">
        <ele>546.72</ele>
        <time>2020-03-12T10:28:46Z</time>
      </trkpt>
      <trkpt lat="43.6165" lon="6.35967">
        <ele>546.84</ele>
        <time>2020-03-12T10:28:59Z</time>
      </trkpt>
      <trkpt lat="43.61649" lon="6.35966">
        <ele>546.84</ele>
        <time>2020-03-12T10:29:00Z</time>
      </trkpt>
      <trkpt lat="43.61636" lon="6.35956">
        <ele>546.88</ele>
        <time>2020-03-12T10:29:13Z</time>
      </trkpt>
      <trkpt lat="43.61624" lon="6.35947">
        <ele>547.04</ele>
        <time>2020-03-12T10:29:28Z</time>
      </trkpt>
      <trkpt lat="43.61623" lon="6.35946">
        <ele>547.21</ele>
        <time>2020-03-12T10:29:48Z</time>
      </trkpt>
      <trkpt lat="43.61624" lon="6.35947">
        <ele>547.24</ele>
        <time>2020-03-12T10:30:15Z</time>
      </trkpt>
      <trkpt lat="43.61625" lon="6.35946">
        <ele>547.23</ele>
        <time>2020-03-12T10:30:50Z</time>
      </trkpt>
      <trkpt lat="43.61625" lon="6.35947">
        <ele>547.23</ele>
        <time>2020-03-12T10:31:15Z</time>
      </trkpt>
      <trkpt lat="43.61623" lon="6.35945">
        <ele>547.23</ele>
        <time>2020-03-12T10:31:43Z</time>
      </trkpt>
      <trkpt lat="43.61617" lon="6.35943">
        <ele>547.23</ele>
        <time>2020-03-12T10:32:06Z</time>
      </trkpt>
      <trkpt lat="43.61605" lon="6.35936">
        <ele>547.2</ele>
        <time>2020-03-12T10:32:20Z</time>
      </trkpt>
      <trkpt lat="43.61596" lon="6.3593">
        <ele>547.35</ele>
        <time>2020-03-12T10:32:33Z</time>
      </trkpt>
      <trkpt lat="43.61592" lon="6.35925">
        <ele>547.35</ele>
        <time>2020-03-12T10:32:39Z</time>
      </trkpt>
      <trkpt lat="43.61578" lon="6.35912">
        <ele>547.41</ele>
        <time>2020-03-12T10:32:56Z</time>
      </trkpt>
      <trkpt lat="43.61568" lon="6.35904">
        <ele>547.43</ele>
        <time>2020-03-12T10:33:10Z</time>
      </trkpt>
      <trkpt lat="43.61554" lon="6.35891">
        <ele>547.33</ele>
        <time>2020-03-12T10:33:25Z</time>
      </trkpt>
      <trkpt lat="43.61547" lon="6.35886">
        <ele>547.27</ele>
        <time>2020-03-12T10:33:33Z</time>
      </trkpt>
      <trkpt lat="43.61537" lon="6.3588">
        <ele>547.44</ele>
        <time>2020-03-12T10:33:42Z</time>
      </trkpt>
      <trkpt lat="43.6153" lon="6.35876">
        <ele>547.52</ele>
        <time>2020-03-12T10:33:47Z</time>
      </trkpt>
      <trkpt lat="43.61519" lon="6.35864">
        <ele>547.83</ele>
        <time>2020-03-12T10:34:02Z</time>
      </trkpt>
      <trkpt lat="43.61506" lon="6.35854">
        <ele>547.94</ele>
        <time>2020-03-12T10:34:15Z</time>
      </trkpt>
      <trkpt lat="43.61503" lon="6.35851">
        <ele>547.92</ele>
        <time>2020-03-12T10:34:19Z</time>
      </trkpt>
      <trkpt lat="43.61497" lon="6.35849">
        <ele>547.91</ele>
        <time>2020-03-12T10:34:27Z</time>
      </trkpt>
      <trkpt lat="43.61494" lon="6.35848">
        <ele>547.9</ele>
        <time>2020-03-12T10:34:30Z</time>
      </trkpt>
      <trkpt lat="43.61481" lon="6.35836">
        <ele>548.19</ele>
        <time>2020-03-12T10:34:44Z</time>
      </trkpt>
      <trkpt lat="43.61465" lon="6.35822">
        <ele>548.45</ele>
        <time>2020-03-12T10:35:02Z</time>
      </trkpt>
      <trkpt lat="43.61459" lon="6.35817">
        <ele>548.5</ele>
        <time>2020-03-12T10:35:11Z</time>
      </trkpt>
      <trkpt lat="43.61458" lon="6.35817">
        <ele>548.5</ele>
        <time>2020-03-12T10:35:12Z</time>
      </trkpt>
      <trkpt lat="43.61452" lon="6.35814">
        <ele>548.34</ele>
        <time>2020-03-12T10:35:18Z</time>
      </trkpt>
      <trkpt lat="43.61442" lon="6.35804">
        <ele>548.15</ele>
        <time>2020-03-12T10:35:30Z</time>
      </trkpt>
      <trkpt lat="43.6144" lon="6.35802">
        <ele>548.19</ele>
        <time>2020-03-12T10:35:33Z</time>
      </trkpt>
      <trkpt lat="43.61431" lon="6.35793">
        <ele>548.33</ele>
        <time>2020-03-12T10:35:44Z</time>
      </trkpt>
      <trkpt lat="43.61427" lon="6.35783">
        <ele>548.2</ele>
        <time>2020-03-12T10:35:51Z</time>
      </trkpt>
      <trkpt lat="43.61424" lon="6.35766">
        <ele>548.22</ele>
        <time>2020-03-12T10:36:03Z</time>
      </trkpt>
      <trkpt lat="43.61422" lon="6.35759">
        <ele>547.97</ele>
        <time>2020-03-12T10:36:16Z</time>
      </trkpt>
      <trkpt lat="43.61415" lon="6.35747">
        <ele>547.97</ele>
        <time>2020-03-12T10:36:35Z</time>
      </trkpt>
      <trkpt lat="43.61409" lon="6.35738">
        <ele>548.01</ele>
        <time>2020-03-12T10:36:47Z</time>
      </trkpt>
      <trkpt lat="43.61407" lon="6.35736">
        <ele>548.01</ele>
        <time>2020-03-12T10:36:49Z</time>
      </trkpt>
      <trkpt lat="43.614" lon="6.35722">
        <ele>548.45</ele>
        <time>2020-03-12T10:37:01Z</time>
      </trkpt>
      <trkpt lat="43.61398" lon="6.35716">
        <ele>548.74</ele>
        <time>2020-03-12T10:37:06Z</time>
      </trkpt>
      <trkpt lat="43.61393" lon="6.3571">
        <ele>548.87</ele>
        <time>2020-03-12T10:37:12Z</time>
      </trkpt>
      <trkpt lat="43.61389" lon="6.35699">
        <ele>549.05</ele>
        <time>2020-03-12T10:37:23Z</time>
      </trkpt>
      <trkpt lat="43.61385" lon="6.35686">
        <ele>549.22</ele>
        <time>2020-03-12T10:37:36Z</time>
      </trkpt>
      <trkpt lat="43.61381" lon="6.35679">
        <ele>549.3</ele>
        <time>2020-03-12T10:37:50Z</time>
      </trkpt>
      <trkpt lat="43.61373" lon="6.35667">
        <ele>549.4</ele>
        <time>2020-03-12T10:38:05Z</time>
      </trkpt>
      <trkpt lat="43.61362" lon="6.35653">
        <ele>549.56</ele>
        <time>2020-03-12T10:38:21Z</time>
      </trkpt>
      <trkpt lat="43.61349" lon="6.35647">
        <ele>549.9</ele>
        <time>2020-03-12T10:38:36Z</time>
      </trkpt>
      <trkpt lat="43.61331" lon="6.35639">
        <ele>549.99</ele>
        <time>2020-03-12T10:38:53Z</time>
      </trkpt>
      <trkpt lat="43.61325" lon="6.3564">
        <ele>550.38</ele>
        <time>2020-03-12T10:39:11Z</time>
      </trkpt>
      <trkpt lat="43.61324" lon="6.35639">
        <ele>550.34</ele>
        <time>2020-03-12T10:39:31Z</time>
      </trkpt>
      <trkpt lat="43.61325" lon="6.35638">
        <ele>550.39</ele>
        <time>2020-03-12T10:39:52Z</time>
      </trkpt>
      <trkpt lat="43.6132" lon="6.35635">
        <ele>550.46</ele>
        <time>2020-03-12T10:40:09Z</time>
      </trkpt>
      <trkpt lat="43.61304" lon="6.35626">
        <ele>550.54</ele>
        <time>2020-03-12T10:40:23Z</time>
      </trkpt>
      <trkpt lat="43.61291" lon="6.35616">
        <ele>550.62</ele>
        <time>2020-03-12T10:40:38Z</time>
      </trkpt>
      <trkpt lat="43.61287" lon="6.35613">
        <ele>550.91</ele>
        <time>2020-03-12T10:40:42Z</time>
      </trkpt>
      <trkpt lat="43.61279" lon="6.35599">
        <ele>550.79</ele>
        <time>2020-03-12T10:40:54Z</time>
      </trkpt>
      <trkpt lat="43.61272" lon="6.35586">
        <ele>551.08</ele>
        <time>2020-03-12T10:41:07Z</time>
      </trkpt>
      <trkpt lat="43.61267" lon="6.35576">
        <ele>551.09</ele>
        <time>2020-03-12T10:41:16Z</time>
      </trkpt>
      <trkpt lat="43.61263" lon="6.35571">
        <ele>551.21</ele>
        <time>2020-03-12T10:41:21Z</time>
      </trkpt>
      <trkpt lat="43.61251" lon="6.35554">
        <ele>551.7</ele>
        <time>2020-03-12T10:41:36Z</time>
      </trkpt>
      <trkpt lat="43.61244" lon="6.35539">
        <ele>551.91</ele>
        <time>2020-03-12T10:41:47Z</time>
      </trkpt>
      <trkpt lat="43.61237" lon="6.35523">
        <ele>551.54</ele>
        <time>2020-03-12T10:41:59Z</time>
      </trkpt>
      <trkpt lat="43.6123" lon="6.35508">
        <ele>552.01</ele>
        <time>2020-03-12T10:42:12Z</time>
      </trkpt>
      <trkpt lat="43.61218" lon="6.355">
        <ele>551.91</ele>
        <time>2020-03-12T10:42:25Z</time>
      </trkpt>
      <trkpt lat="43.6121" lon="6.35498">
        <ele>551.87</ele>
        <time>2020-03-12T10:42:37Z</time>
      </trkpt>
      <trkpt lat="43.61205" lon="6.35505">
        <ele>552.1</ele>
        <time>2020-03-12T10:42:48Z</time>
      </trkpt>
      <trkpt lat="43.61192" lon="6.35513">
        <ele>552.34</ele>
        <time>2020-03-12T10:43:01Z</time>
      </trkpt>
      <trkpt lat="43.61185" lon="6.35512">
        <ele>552.57</ele>
        <time>2020-03-12T10:43:08Z</time>
      </trkpt>
      <trkpt lat="43.61182" lon="6.35511">
        <ele>552.58</ele>
        <time>2020-03-12T10:43:11Z</time>
      </trkpt>
      <trkpt lat="43.61169" lon="6.35501">
        <ele>552.72</ele>
        <time>2020-03-12T10:43:25Z</time>
      </trkpt>
      <trkpt lat="43.61158" lon="6.3549">
        <ele>553.07</ele>
        <time>2020-03-12T10:43:37Z</time>
      </trkpt>
      <trkpt lat="43.61146" lon="6.35477">
        <ele>553.58</ele>
        <time>2020-03-12T10:43:51Z</time>
      </trkpt>
      <trkpt lat="43.61137" lon="6.35463">
        <ele>554.08</ele>
        <time>2020-03-12T10:44:03Z</time>
      </trkpt>
      <trkpt lat="43.61127" lon="6.35448">
        <ele>554.59</ele>
        <time>2020-03-12T10:44:16Z</time>
      </trkpt>
      <trkpt lat="43.61126" lon="6.35444">
        <ele>554.77</ele>
        <time>2020-03-12T10:44:23Z</time>
      </trkpt>
      <trkpt lat="43.61124" lon="6.3544">
        <ele>555</ele>
        <time>2020-03-12T10:44:27Z</time>
      </trkpt>
      <trkpt lat="43.61114" lon="6.35427">
        <ele>555.4</ele>
        <time>2020-03-12T10:44:40Z</time>
      </trkpt>
      <trkpt lat="43.61111" lon="6.35422">
        <ele>555.72</ele>
        <time>2020-03-12T10:44:51Z</time>
      </trkpt>
      <trkpt lat="43.61109" lon="6.35419">
        <ele>555.84</ele>
        <time>2020-03-12T10:44:56Z</time>
      </trkpt>
      <trkpt lat="43.61107" lon="6.35414">
        <ele>556.06</ele>
        <time>2020-03-12T10:45:00Z</time>
      </trkpt>
      <trkpt lat="43.61106" lon="6.354">
        <ele>556.61</ele>
        <time>2020-03-12T10:45:12Z</time>
      </trkpt>
      <trkpt lat="43.61104" lon="6.35385">
        <ele>557.37</ele>
        <time>2020-03-12T10:45:26Z</time>
      </trkpt>
      <trkpt lat="43.61104" lon="6.35373">
        <ele>557.99</ele>
        <time>2020-03-12T10:45:37Z</time>
      </trkpt>
      <trkpt lat="43.61105" lon="6.35372">
        <ele>557.88</ele>
        <time>2020-03-12T10:45:53Z</time>
      </trkpt>
      <trkpt lat="43.61103" lon="6.35366">
        <ele>557.9</ele>
        <time>2020-03-12T10:46:07Z</time>
      </trkpt>
      <trkpt lat="43.61101" lon="6.35356">
        <ele>557.67</ele>
        <time>2020-03-12T10:46:15Z</time>
      </trkpt>
      <trkpt lat="43.61097" lon="6.35345">
        <ele>557.31</ele>
        <time>2020-03-12T10:46:25Z</time>
      </trkpt>
      <trkpt lat="43.61095" lon="6.35339">
        <ele>557.2</ele>
        <time>2020-03-12T10:46:29Z</time>
      </trkpt>
      <trkpt lat="43.6109" lon="6.35319">
        <ele>556.63</ele>
        <time>2020-03-12T10:46:44Z</time>
      </trkpt>
      <trkpt lat="43.61087" lon="6.35304">
        <ele>556.31</ele>
        <time>2020-03-12T10:46:55Z</time>
      </trkpt>
      <trkpt lat="43.61086" lon="6.353">
        <ele>556.29</ele>
        <time>2020-03-12T10:46:59Z</time>
      </trkpt>
      <trkpt lat="43.6108" lon="6.35287">
        <ele>555.53</ele>
        <time>2020-03-12T10:47:11Z</time>
      </trkpt>
      <trkpt lat="43.61073" lon="6.35272">
        <ele>554.9</ele>
        <time>2020-03-12T10:47:23Z</time>
      </trkpt>
      <trkpt lat="43.61068" lon="6.35259">
        <ele>554.54</ele>
        <time>2020-03-12T10:47:34Z</time>
      </trkpt>
      <trkpt lat="43.61061" lon="6.35245">
        <ele>554.41</ele>
        <time>2020-03-12T10:47:46Z</time>
      </trkpt>
      <trkpt lat="43.61055" lon="6.35236">
        <ele>554.32</ele>
        <time>2020-03-12T10:47:55Z</time>
      </trkpt>
      <trkpt lat="43.61052" lon="6.35226">
        <ele>554.34</ele>
        <time>2020-03-12T10:48:04Z</time>
      </trkpt>
      <trkpt lat="43.61049" lon="6.35221">
        <ele>554.35</ele>
        <time>2020-03-12T10:48:08Z</time>
      </trkpt>
      <trkpt lat="43.61041" lon="6.35203">
        <ele>554.5</ele>
        <time>2020-03-12T10:48:22Z</time>
      </trkpt>
      <trkpt lat="43.61038" lon="6.35198">
        <ele>554.52</ele>
        <time>2020-03-12T10:48:27Z</time>
      </trkpt>
      <trkpt lat="43.61034" lon="6.35192">
        <ele>554.61</ele>
        <time>2020-03-12T10:48:33Z</time>
      </trkpt>
      <trkpt lat="43.61027" lon="6.35179">
        <ele>555.05</ele>
        <time>2020-03-12T10:48:44Z</time>
      </trkpt>
      <trkpt lat="43.61023" lon="6.35172">
        <ele>555.42</ele>
        <time>2020-03-12T10:48:51Z</time>
      </trkpt>
      <trkpt lat="43.61021" lon="6.35169">
        <ele>555.52</ele>
        <time>2020-03-12T10:48:54Z</time>
      </trkpt>
      <trkpt lat="43.61015" lon="6.35157">
        <ele>556.28</ele>
        <time>2020-03-12T10:49:06Z</time>
      </trkpt>
      <trkpt lat="43.61012" lon="6.35149">
        <ele>556.96</ele>
        <time>2020-03-12T10:49:13Z</time>
      </trkpt>
      <trkpt lat="43.61008" lon="6.35136">
        <ele>558.09</ele>
        <time>2020-03-12T10:49:25Z</time>
      </trkpt>
      <trkpt lat="43.60998" lon="6.3513">
        <ele>559.65</ele>
        <time>2020-03-12T10:49:38Z</time>
      </trkpt>
      <trkpt lat="43.60991" lon="6.35117">
        <ele>560.73</ele>
        <time>2020-03-12T10:49:52Z</time>
      </trkpt>
      <trkpt lat="43.60983" lon="6.35104">
        <ele>560.79</ele>
        <time>2020-03-12T10:50:03Z</time>
      </trkpt>
      <trkpt lat="43.60978" lon="6.3509">
        <ele>561.18</ele>
        <time>2020-03-12T10:50:14Z</time>
      </trkpt>
      <trkpt lat="43.60975" lon="6.35086">
        <ele>561.22</ele>
        <time>2020-03-12T10:50:18Z</time>
      </trkpt>
      <trkpt lat="43.60972" lon="6.35078">
        <ele>561.2</ele>
        <time>2020-03-12T10:50:26Z</time>
      </trkpt>
      <trkpt lat="43.60966" lon="6.35059">
        <ele>561.71</ele>
        <time>2020-03-12T10:50:41Z</time>
      </trkpt>
      <trkpt lat="43.60962" lon="6.35045">
        <ele>562.61</ele>
        <time>2020-03-12T10:50:56Z</time>
      </trkpt>
      <trkpt lat="43.60957" lon="6.3503">
        <ele>563.79</ele>
        <time>2020-03-12T10:51:13Z</time>
      </trkpt>
      <trkpt lat="43.60957" lon="6.35028">
        <ele>564.02</ele>
        <time>2020-03-12T10:51:33Z</time>
      </trkpt>
      <trkpt lat="43.60952" lon="6.35019">
        <ele>563.82</ele>
        <time>2020-03-12T10:51:52Z</time>
      </trkpt>
      <trkpt lat="43.60946" lon="6.35003">
        <ele>565.06</ele>
        <time>2020-03-12T10:52:10Z</time>
      </trkpt>
      <trkpt lat="43.6094" lon="6.34989">
        <ele>566.26</ele>
        <time>2020-03-12T10:52:25Z</time>
      </trkpt>
      <trkpt lat="43.60935" lon="6.3497">
        <ele>567.67</ele>
        <time>2020-03-12T10:52:43Z</time>
      </trkpt>
      <trkpt lat="43.60932" lon="6.3497">
        <ele>568.16</ele>
        <time>2020-03-12T10:53:01Z</time>
      </trkpt>
      <trkpt lat="43.60932" lon="6.34964">
        <ele>568.39</ele>
        <time>2020-03-12T10:53:11Z</time>
      </trkpt>
      <trkpt lat="43.60925" lon="6.34953">
        <ele>569.22</ele>
        <time>2020-03-12T10:53:24Z</time>
      </trkpt>
      <trkpt lat="43.60919" lon="6.34956">
        <ele>570.43</ele>
        <time>2020-03-12T10:53:38Z</time>
      </trkpt>
      <trkpt lat="43.60919" lon="6.34955">
        <ele>570.41</ele>
        <time>2020-03-12T10:53:59Z</time>
      </trkpt>
      <trkpt lat="43.6092" lon="6.34955">
        <ele>570.37</ele>
        <time>2020-03-12T10:54:20Z</time>
      </trkpt>
      <trkpt lat="43.60919" lon="6.34955">
        <ele>570.38</ele>
        <time>2020-03-12T10:54:39Z</time>
      </trkpt>
      <trkpt lat="43.6092" lon="6.34954">
        <ele>570.63</ele>
        <time>2020-03-12T10:54:52Z</time>
      </trkpt>
      <trkpt lat="43.6092" lon="6.34955">
        <ele>570.49</ele>
        <time>2020-03-12T10:55:13Z</time>
      </trkpt>
      <trkpt lat="43.6092" lon="6.34956">
        <ele>570.49</ele>
        <time>2020-03-12T10:55:39Z</time>
      </trkpt>
      <trkpt lat="43.60921" lon="6.34956">
        <ele>570.49</ele>
        <time>2020-03-12T10:56:01Z</time>
      </trkpt>
      <trkpt lat="43.60917" lon="6.34956">
        <ele>570.49</ele>
        <time>2020-03-12T10:56:20Z</time>
      </trkpt>
      <trkpt lat="43.60915" lon="6.34958">
        <ele>570.49</ele>
        <time>2020-03-12T10:56:22Z</time>
      </trkpt>
      <trkpt lat="43.60908" lon="6.34962">
        <ele>570.07</ele>
        <time>2020-03-12T10:56:30Z</time>
      </trkpt>
      <trkpt lat="43.60898" lon="6.3497">
        <ele>569.66</ele>
        <time>2020-03-12T10:56:41Z</time>
      </trkpt>
      <trkpt lat="43.60896" lon="6.34972">
        <ele>569.59</ele>
        <time>2020-03-12T10:56:44Z</time>
      </trkpt>
      <trkpt lat="43.60886" lon="6.34978">
        <ele>569.57</ele>
        <time>2020-03-12T10:56:52Z</time>
      </trkpt>
      <trkpt lat="43.60874" lon="6.34987">
        <ele>568.74</ele>
        <time>2020-03-12T10:57:04Z</time>
      </trkpt>
      <trkpt lat="43.60861" lon="6.34997">
        <ele>568.35</ele>
        <time>2020-03-12T10:57:16Z</time>
      </trkpt>
      <trkpt lat="43.60851" lon="6.35005">
        <ele>568.23</ele>
        <time>2020-03-12T10:57:27Z</time>
      </trkpt>
      <trkpt lat="43.60839" lon="6.35014">
        <ele>568</ele>
        <time>2020-03-12T10:57:43Z</time>
      </trkpt>
      <trkpt lat="43.60834" lon="6.35018">
        <ele>568.1</ele>
        <time>2020-03-12T10:58:03Z</time>
      </trkpt>
      <trkpt lat="43.60833" lon="6.35018">
        <ele>568.08</ele>
        <time>2020-03-12T10:58:05Z</time>
      </trkpt>
      <trkpt lat="43.60826" lon="6.35022">
        <ele>568.02</ele>
        <time>2020-03-12T10:58:14Z</time>
      </trkpt>
      <trkpt lat="43.60814" lon="6.35029">
        <ele>567.78</ele>
        <time>2020-03-12T10:58:26Z</time>
      </trkpt>
      <trkpt lat="43.60812" lon="6.35028">
        <ele>567.68</ele>
        <time>2020-03-12T10:58:36Z</time>
      </trkpt>
      <trkpt lat="43.60805" lon="6.3503">
        <ele>567.82</ele>
        <time>2020-03-12T10:58:51Z</time>
      </trkpt>
      <trkpt lat="43.60795" lon="6.35034">
        <ele>567.5</ele>
        <time>2020-03-12T10:59:02Z</time>
      </trkpt>
      <trkpt lat="43.60789" lon="6.35037">
        <ele>566.97</ele>
        <time>2020-03-12T10:59:10Z</time>
      </trkpt>
      <trkpt lat="43.60785" lon="6.35039">
        <ele>566.69</ele>
        <time>2020-03-12T10:59:14Z</time>
      </trkpt>
      <trkpt lat="43.60772" lon="6.35042">
        <ele>565.71</ele>
        <time>2020-03-12T10:59:28Z</time>
      </trkpt>
      <trkpt lat="43.6077" lon="6.35045">
        <ele>565.72</ele>
        <time>2020-03-12T10:59:34Z</time>
      </trkpt>
      <trkpt lat="43.60756" lon="6.35055">
        <ele>564.58</ele>
        <time>2020-03-12T10:59:50Z</time>
      </trkpt>
      <trkpt lat="43.60745" lon="6.35066">
        <ele>564.24</ele>
        <time>2020-03-12T11:00:03Z</time>
      </trkpt>
      <trkpt lat="43.60737" lon="6.3508">
        <ele>563.49</ele>
        <time>2020-03-12T11:00:15Z</time>
      </trkpt>
      <trkpt lat="43.60729" lon="6.35093">
        <ele>562.61</ele>
        <time>2020-03-12T11:00:27Z</time>
      </trkpt>
      <trkpt lat="43.60721" lon="6.35108">
        <ele>562.65</ele>
        <time>2020-03-12T11:00:39Z</time>
      </trkpt>
      <trkpt lat="43.60716" lon="6.35111">
        <ele>562.65</ele>
        <time>2020-03-12T11:00:51Z</time>
      </trkpt>
      <trkpt lat="43.60715" lon="6.35112">
        <ele>562.38</ele>
        <time>2020-03-12T11:01:15Z</time>
      </trkpt>
      <trkpt lat="43.60713" lon="6.35114">
        <ele>562.27</ele>
        <time>2020-03-12T11:01:20Z</time>
      </trkpt>
      <trkpt lat="43.6071" lon="6.35116">
        <ele>562.2</ele>
        <time>2020-03-12T11:01:23Z</time>
      </trkpt>
      <trkpt lat="43.60705" lon="6.3512">
        <ele>562.17</ele>
        <time>2020-03-12T11:01:31Z</time>
      </trkpt>
      <trkpt lat="43.60696" lon="6.35124">
        <ele>562.12</ele>
        <time>2020-03-12T11:01:40Z</time>
      </trkpt>
      <trkpt lat="43.60684" lon="6.35132">
        <ele>562.06</ele>
        <time>2020-03-12T11:01:51Z</time>
      </trkpt>
      <trkpt lat="43.60673" lon="6.35139">
        <ele>561.85</ele>
        <time>2020-03-12T11:02:02Z</time>
      </trkpt>
      <trkpt lat="43.60666" lon="6.35147">
        <ele>561.8</ele>
        <time>2020-03-12T11:02:11Z</time>
      </trkpt>
      <trkpt lat="43.60657" lon="6.35159">
        <ele>561.57</ele>
        <time>2020-03-12T11:02:23Z</time>
      </trkpt>
      <trkpt lat="43.60648" lon="6.35169">
        <ele>561.33</ele>
        <time>2020-03-12T11:02:34Z</time>
      </trkpt>
      <trkpt lat="43.60638" lon="6.35181">
        <ele>560.93</ele>
        <time>2020-03-12T11:02:46Z</time>
      </trkpt>
      <trkpt lat="43.60633" lon="6.35193">
        <ele>560.83</ele>
        <time>2020-03-12T11:02:57Z</time>
      </trkpt>
      <trkpt lat="43.60625" lon="6.35198">
        <ele>561.13</ele>
        <time>2020-03-12T11:03:10Z</time>
      </trkpt>
      <trkpt lat="43.60622" lon="6.35199">
        <ele>561.16</ele>
        <time>2020-03-12T11:03:13Z</time>
      </trkpt>
      <trkpt lat="43.60615" lon="6.35203">
        <ele>561.06</ele>
        <time>2020-03-12T11:03:27Z</time>
      </trkpt>
      <trkpt lat="43.60611" lon="6.35208">
        <ele>560.92</ele>
        <time>2020-03-12T11:03:48Z</time>
      </trkpt>
      <trkpt lat="43.60598" lon="6.35219">
        <ele>560.99</ele>
        <time>2020-03-12T11:04:00Z</time>
      </trkpt>
      <trkpt lat="43.60588" lon="6.35227">
        <ele>561.13</ele>
        <time>2020-03-12T11:04:11Z</time>
      </trkpt>
      <trkpt lat="43.60587" lon="6.35229">
        <ele>561.18</ele>
        <time>2020-03-12T11:04:13Z</time>
      </trkpt>
      <trkpt lat="43.60579" lon="6.35239">
        <ele>561.35</ele>
        <time>2020-03-12T11:04:25Z</time>
      </trkpt>
      <trkpt lat="43.60566" lon="6.35249">
        <ele>561.62</ele>
        <time>2020-03-12T11:04:40Z</time>
      </trkpt>
      <trkpt lat="43.60564" lon="6.35251">
        <ele>561.71</ele>
        <time>2020-03-12T11:04:42Z</time>
      </trkpt>
      <trkpt lat="43.60555" lon="6.35257">
        <ele>561.86</ele>
        <time>2020-03-12T11:04:55Z</time>
      </trkpt>
      <trkpt lat="43.60548" lon="6.3526">
        <ele>561.65</ele>
        <time>2020-03-12T11:05:10Z</time>
      </trkpt>
      <trkpt lat="43.60545" lon="6.35263">
        <ele>561.65</ele>
        <time>2020-03-12T11:05:13Z</time>
      </trkpt>
      <trkpt lat="43.60538" lon="6.35267">
        <ele>561.29</ele>
        <time>2020-03-12T11:05:20Z</time>
      </trkpt>
      <trkpt lat="43.60525" lon="6.35273">
        <ele>561.19</ele>
        <time>2020-03-12T11:05:31Z</time>
      </trkpt>
      <trkpt lat="43.60518" lon="6.35281">
        <ele>561.11</ele>
        <time>2020-03-12T11:05:45Z</time>
      </trkpt>
      <trkpt lat="43.60507" lon="6.35288">
        <ele>561.19</ele>
        <time>2020-03-12T11:05:56Z</time>
      </trkpt>
      <trkpt lat="43.60495" lon="6.35291">
        <ele>561.23</ele>
        <time>2020-03-12T11:06:09Z</time>
      </trkpt>
      <trkpt lat="43.6048" lon="6.35298">
        <ele>561</ele>
        <time>2020-03-12T11:06:22Z</time>
      </trkpt>
      <trkpt lat="43.60468" lon="6.35303">
        <ele>561.21</ele>
        <time>2020-03-12T11:06:37Z</time>
      </trkpt>
      <trkpt lat="43.60462" lon="6.35306">
        <ele>561.9</ele>
        <time>2020-03-12T11:06:44Z</time>
      </trkpt>
      <trkpt lat="43.60455" lon="6.35311">
        <ele>562.38</ele>
        <time>2020-03-12T11:06:51Z</time>
      </trkpt>
      <trkpt lat="43.60446" lon="6.35315">
        <ele>562.69</ele>
        <time>2020-03-12T11:07:02Z</time>
      </trkpt>
      <trkpt lat="43.60433" lon="6.35322">
        <ele>562.79</ele>
        <time>2020-03-12T11:07:18Z</time>
      </trkpt>
      <trkpt lat="43.6042" lon="6.35327">
        <ele>563.43</ele>
        <time>2020-03-12T11:07:29Z</time>
      </trkpt>
      <trkpt lat="43.60414" lon="6.35328">
        <ele>563.54</ele>
        <time>2020-03-12T11:07:34Z</time>
      </trkpt>
      <trkpt lat="43.60405" lon="6.35332">
        <ele>563.51</ele>
        <time>2020-03-12T11:07:46Z</time>
      </trkpt>
      <trkpt lat="43.60389" lon="6.35335">
        <ele>563.28</ele>
        <time>2020-03-12T11:08:02Z</time>
      </trkpt>
      <trkpt lat="43.60378" lon="6.35338">
        <ele>562.82</ele>
        <time>2020-03-12T11:08:13Z</time>
      </trkpt>
      <trkpt lat="43.60377" lon="6.35338">
        <ele>562.81</ele>
        <time>2020-03-12T11:08:15Z</time>
      </trkpt>
      <trkpt lat="43.60362" lon="6.35339">
        <ele>562.55</ele>
        <time>2020-03-12T11:08:27Z</time>
      </trkpt>
      <trkpt lat="43.60355" lon="6.3534">
        <ele>562.42</ele>
        <time>2020-03-12T11:08:33Z</time>
      </trkpt>
      <trkpt lat="43.60341" lon="6.35338">
        <ele>562.08</ele>
        <time>2020-03-12T11:08:45Z</time>
      </trkpt>
      <trkpt lat="43.60339" lon="6.35339">
        <ele>562.16</ele>
        <time>2020-03-12T11:08:47Z</time>
      </trkpt>
      <trkpt lat="43.60335" lon="6.35341">
        <ele>562.25</ele>
        <time>2020-03-12T11:08:51Z</time>
      </trkpt>
      <trkpt lat="43.60327" lon="6.35347">
        <ele>562.4</ele>
        <time>2020-03-12T11:09:01Z</time>
      </trkpt>
      <trkpt lat="43.60325" lon="6.35348">
        <ele>562.42</ele>
        <time>2020-03-12T11:09:03Z</time>
      </trkpt>
      <trkpt lat="43.6032" lon="6.35351">
        <ele>562.61</ele>
        <time>2020-03-12T11:09:15Z</time>
      </trkpt>
      <trkpt lat="43.60319" lon="6.35356">
        <ele>562.61</ele>
        <time>2020-03-12T11:09:35Z</time>
      </trkpt>
      <trkpt lat="43.60315" lon="6.35362">
        <ele>562.61</ele>
        <time>2020-03-12T11:09:47Z</time>
      </trkpt>
      <trkpt lat="43.6031" lon="6.35373">
        <ele>562.4</ele>
        <time>2020-03-12T11:09:58Z</time>
      </trkpt>
      <trkpt lat="43.60303" lon="6.35387">
        <ele>562.21</ele>
        <time>2020-03-12T11:10:09Z</time>
      </trkpt>
      <trkpt lat="43.60298" lon="6.35403">
        <ele>562.09</ele>
        <time>2020-03-12T11:10:23Z</time>
      </trkpt>
      <trkpt lat="43.60292" lon="6.35422">
        <ele>561.54</ele>
        <time>2020-03-12T11:10:36Z</time>
      </trkpt>
      <trkpt lat="43.6029" lon="6.35432">
        <ele>561.42</ele>
        <time>2020-03-12T11:10:43Z</time>
      </trkpt>
      <trkpt lat="43.60288" lon="6.35443">
        <ele>561.32</ele>
        <time>2020-03-12T11:10:50Z</time>
      </trkpt>
      <trkpt lat="43.60287" lon="6.35451">
        <ele>561.26</ele>
        <time>2020-03-12T11:10:55Z</time>
      </trkpt>
      <trkpt lat="43.60275" lon="6.35463">
        <ele>561.03</ele>
        <time>2020-03-12T11:11:06Z</time>
      </trkpt>
      <trkpt lat="43.60263" lon="6.35479">
        <ele>560.73</ele>
        <time>2020-03-12T11:11:21Z</time>
      </trkpt>
      <trkpt lat="43.60244" lon="6.35494">
        <ele>560.84</ele>
        <time>2020-03-12T11:11:40Z</time>
      </trkpt>
      <trkpt lat="43.6023" lon="6.35506">
        <ele>560.41</ele>
        <time>2020-03-12T11:11:56Z</time>
      </trkpt>
      <trkpt lat="43.60228" lon="6.35508">
        <ele>560.13</ele>
        <time>2020-03-12T11:11:59Z</time>
      </trkpt>
      <trkpt lat="43.60216" lon="6.35517">
        <ele>560.11</ele>
        <time>2020-03-12T11:12:11Z</time>
      </trkpt>
      <trkpt lat="43.60203" lon="6.35525">
        <ele>559.82</ele>
        <time>2020-03-12T11:12:23Z</time>
      </trkpt>
      <trkpt lat="43.60191" lon="6.35529">
        <ele>559.65</ele>
        <time>2020-03-12T11:12:33Z</time>
      </trkpt>
      <trkpt lat="43.60185" lon="6.35534">
        <ele>559.51</ele>
        <time>2020-03-12T11:12:40Z</time>
      </trkpt>
      <trkpt lat="43.60181" lon="6.35536">
        <ele>559.42</ele>
        <time>2020-03-12T11:12:43Z</time>
      </trkpt>
      <trkpt lat="43.60178" lon="6.35537">
        <ele>559.34</ele>
        <time>2020-03-12T11:12:46Z</time>
      </trkpt>
      <trkpt lat="43.6017" lon="6.35541">
        <ele>558.98</ele>
        <time>2020-03-12T11:12:55Z</time>
      </trkpt>
      <trkpt lat="43.60155" lon="6.35544">
        <ele>558.41</ele>
        <time>2020-03-12T11:13:07Z</time>
      </trkpt>
      <trkpt lat="43.60142" lon="6.35546">
        <ele>557.66</ele>
        <time>2020-03-12T11:13:18Z</time>
      </trkpt>
      <trkpt lat="43.60127" lon="6.3555">
        <ele>557.08</ele>
        <time>2020-03-12T11:13:31Z</time>
      </trkpt>
      <trkpt lat="43.60124" lon="6.35551">
        <ele>557</ele>
        <time>2020-03-12T11:13:35Z</time>
      </trkpt>
      <trkpt lat="43.60114" lon="6.35561">
        <ele>557.22</ele>
        <time>2020-03-12T11:13:51Z</time>
      </trkpt>
      <trkpt lat="43.60107" lon="6.3557">
        <ele>557.96</ele>
        <time>2020-03-12T11:14:05Z</time>
      </trkpt>
      <trkpt lat="43.60102" lon="6.35574">
        <ele>558.27</ele>
        <time>2020-03-12T11:14:10Z</time>
      </trkpt>
      <trkpt lat="43.60087" lon="6.35586">
        <ele>558.63</ele>
        <time>2020-03-12T11:14:22Z</time>
      </trkpt>
      <trkpt lat="43.60077" lon="6.35594">
        <ele>559.11</ele>
        <time>2020-03-12T11:14:32Z</time>
      </trkpt>
      <trkpt lat="43.60072" lon="6.35605">
        <ele>559.94</ele>
        <time>2020-03-12T11:14:42Z</time>
      </trkpt>
      <trkpt lat="43.60067" lon="6.3562">
        <ele>560.53</ele>
        <time>2020-03-12T11:14:54Z</time>
      </trkpt>
      <trkpt lat="43.60066" lon="6.35628">
        <ele>560.95</ele>
        <time>2020-03-12T11:15:04Z</time>
      </trkpt>
      <trkpt lat="43.60058" lon="6.35642">
        <ele>560.78</ele>
        <time>2020-03-12T11:15:16Z</time>
      </trkpt>
      <trkpt lat="43.60048" lon="6.35659">
        <ele>561.1</ele>
        <time>2020-03-12T11:15:29Z</time>
      </trkpt>
      <trkpt lat="43.6004" lon="6.35672">
        <ele>560.95</ele>
        <time>2020-03-12T11:15:41Z</time>
      </trkpt>
      <trkpt lat="43.60031" lon="6.35684">
        <ele>561.31</ele>
        <time>2020-03-12T11:15:53Z</time>
      </trkpt>
      <trkpt lat="43.60026" lon="6.35691">
        <ele>561.45</ele>
        <time>2020-03-12T11:16:04Z</time>
      </trkpt>
      <trkpt lat="43.60019" lon="6.35702">
        <ele>561.59</ele>
        <time>2020-03-12T11:16:18Z</time>
      </trkpt>
      <trkpt lat="43.60017" lon="6.35704">
        <ele>561.67</ele>
        <time>2020-03-12T11:16:20Z</time>
      </trkpt>
      <trkpt lat="43.60008" lon="6.35714">
        <ele>561.78</ele>
        <time>2020-03-12T11:16:31Z</time>
      </trkpt>
      <trkpt lat="43.60001" lon="6.35725">
        <ele>562.07</ele>
        <time>2020-03-12T11:16:43Z</time>
      </trkpt>
      <trkpt lat="43.5999" lon="6.35735">
        <ele>562.66</ele>
        <time>2020-03-12T11:16:56Z</time>
      </trkpt>
      <trkpt lat="43.59982" lon="6.35744">
        <ele>563.02</ele>
        <time>2020-03-12T11:17:06Z</time>
      </trkpt>
      <trkpt lat="43.59974" lon="6.35755">
        <ele>563.19</ele>
        <time>2020-03-12T11:17:18Z</time>
      </trkpt>
      <trkpt lat="43.59963" lon="6.35765">
        <ele>563.33</ele>
        <time>2020-03-12T11:17:30Z</time>
      </trkpt>
      <trkpt lat="43.59954" lon="6.35772">
        <ele>563.27</ele>
        <time>2020-03-12T11:17:42Z</time>
      </trkpt>
      <trkpt lat="43.59944" lon="6.3578">
        <ele>562.7</ele>
        <time>2020-03-12T11:17:54Z</time>
      </trkpt>
      <trkpt lat="43.59939" lon="6.35783">
        <ele>562.65</ele>
        <time>2020-03-12T11:17:59Z</time>
      </trkpt>
      <trkpt lat="43.59926" lon="6.35788">
        <ele>561.68</ele>
        <time>2020-03-12T11:18:11Z</time>
      </trkpt>
      <trkpt lat="43.59917" lon="6.35794">
        <ele>561.06</ele>
        <time>2020-03-12T11:18:21Z</time>
      </trkpt>
      <trkpt lat="43.59915" lon="6.35796">
        <ele>560.97</ele>
        <time>2020-03-12T11:18:23Z</time>
      </trkpt>
      <trkpt lat="43.59901" lon="6.35805">
        <ele>560.45</ele>
        <time>2020-03-12T11:18:37Z</time>
      </trkpt>
      <trkpt lat="43.59896" lon="6.35813">
        <ele>560.55</ele>
        <time>2020-03-12T11:18:44Z</time>
      </trkpt>
      <trkpt lat="43.59885" lon="6.35827">
        <ele>560.19</ele>
        <time>2020-03-12T11:18:58Z</time>
      </trkpt>
      <trkpt lat="43.59882" lon="6.35828">
        <ele>559.62</ele>
        <time>2020-03-12T11:19:12Z</time>
      </trkpt>
      <trkpt lat="43.59878" lon="6.35833">
        <ele>559.71</ele>
        <time>2020-03-12T11:19:18Z</time>
      </trkpt>
      <trkpt lat="43.59872" lon="6.35845">
        <ele>559.1</ele>
        <time>2020-03-12T11:19:30Z</time>
      </trkpt>
      <trkpt lat="43.59856" lon="6.35852">
        <ele>558.62</ele>
        <time>2020-03-12T11:19:45Z</time>
      </trkpt>
      <trkpt lat="43.59845" lon="6.3586">
        <ele>558.31</ele>
        <time>2020-03-12T11:19:57Z</time>
      </trkpt>
      <trkpt lat="43.59832" lon="6.35865">
        <ele>557.74</ele>
        <time>2020-03-12T11:20:09Z</time>
      </trkpt>
      <trkpt lat="43.59823" lon="6.3587">
        <ele>557.6</ele>
        <time>2020-03-12T11:20:17Z</time>
      </trkpt>
      <trkpt lat="43.59809" lon="6.35882">
        <ele>557.03</ele>
        <time>2020-03-12T11:20:32Z</time>
      </trkpt>
      <trkpt lat="43.59799" lon="6.35892">
        <ele>556.71</ele>
        <time>2020-03-12T11:20:44Z</time>
      </trkpt>
      <trkpt lat="43.5979" lon="6.359">
        <ele>556.69</ele>
        <time>2020-03-12T11:20:54Z</time>
      </trkpt>
      <trkpt lat="43.59779" lon="6.3591">
        <ele>556.37</ele>
        <time>2020-03-12T11:21:06Z</time>
      </trkpt>
      <trkpt lat="43.59774" lon="6.35916">
        <ele>556.11</ele>
        <time>2020-03-12T11:21:12Z</time>
      </trkpt>
      <trkpt lat="43.59766" lon="6.35927">
        <ele>555.82</ele>
        <time>2020-03-12T11:21:22Z</time>
      </trkpt>
      <trkpt lat="43.59754" lon="6.3594">
        <ele>555.02</ele>
        <time>2020-03-12T11:21:36Z</time>
      </trkpt>
      <trkpt lat="43.59752" lon="6.35943">
        <ele>554.99</ele>
        <time>2020-03-12T11:21:39Z</time>
      </trkpt>
      <trkpt lat="43.59746" lon="6.35954">
        <ele>554.91</ele>
        <time>2020-03-12T11:21:50Z</time>
      </trkpt>
      <trkpt lat="43.59745" lon="6.35955">
        <ele>554.9</ele>
        <time>2020-03-12T11:21:51Z</time>
      </trkpt>
      <trkpt lat="43.59739" lon="6.35969">
        <ele>555.12</ele>
        <time>2020-03-12T11:22:03Z</time>
      </trkpt>
      <trkpt lat="43.59738" lon="6.3597">
        <ele>555.13</ele>
        <time>2020-03-12T11:22:04Z</time>
      </trkpt>
      <trkpt lat="43.59731" lon="6.35983">
        <ele>555.26</ele>
        <time>2020-03-12T11:22:14Z</time>
      </trkpt>
      <trkpt lat="43.59721" lon="6.35999">
        <ele>554.93</ele>
        <time>2020-03-12T11:22:27Z</time>
      </trkpt>
      <trkpt lat="43.59708" lon="6.36011">
        <ele>554.84</ele>
        <time>2020-03-12T11:22:41Z</time>
      </trkpt>
      <trkpt lat="43.59698" lon="6.3602">
        <ele>554.74</ele>
        <time>2020-03-12T11:22:52Z</time>
      </trkpt>
      <trkpt lat="43.59687" lon="6.36032">
        <ele>554.52</ele>
        <time>2020-03-12T11:23:05Z</time>
      </trkpt>
      <trkpt lat="43.59675" lon="6.36043">
        <ele>554.42</ele>
        <time>2020-03-12T11:23:18Z</time>
      </trkpt>
      <trkpt lat="43.5966" lon="6.36053">
        <ele>554.29</ele>
        <time>2020-03-12T11:23:34Z</time>
      </trkpt>
      <trkpt lat="43.59654" lon="6.36065">
        <ele>554.31</ele>
        <time>2020-03-12T11:23:45Z</time>
      </trkpt>
      <trkpt lat="43.59647" lon="6.3608">
        <ele>554.16</ele>
        <time>2020-03-12T11:23:56Z</time>
      </trkpt>
      <trkpt lat="43.59646" lon="6.36082">
        <ele>554.16</ele>
        <time>2020-03-12T11:23:58Z</time>
      </trkpt>
      <trkpt lat="43.5964" lon="6.36099">
        <ele>554.34</ele>
        <time>2020-03-12T11:24:11Z</time>
      </trkpt>
      <trkpt lat="43.59637" lon="6.36108">
        <ele>554.25</ele>
        <time>2020-03-12T11:24:18Z</time>
      </trkpt>
      <trkpt lat="43.59636" lon="6.36113">
        <ele>554.2</ele>
        <time>2020-03-12T11:24:22Z</time>
      </trkpt>
      <trkpt lat="43.59635" lon="6.36116">
        <ele>554.17</ele>
        <time>2020-03-12T11:24:24Z</time>
      </trkpt>
      <trkpt lat="43.59634" lon="6.3612">
        <ele>554.11</ele>
        <time>2020-03-12T11:24:27Z</time>
      </trkpt>
      <trkpt lat="43.59629" lon="6.3614">
        <ele>553.86</ele>
        <time>2020-03-12T11:24:40Z</time>
      </trkpt>
      <trkpt lat="43.59626" lon="6.36154">
        <ele>553.93</ele>
        <time>2020-03-12T11:24:51Z</time>
      </trkpt>
      <trkpt lat="43.59622" lon="6.3617">
        <ele>553.87</ele>
        <time>2020-03-12T11:25:02Z</time>
      </trkpt>
      <trkpt lat="43.59618" lon="6.36193">
        <ele>553.46</ele>
        <time>2020-03-12T11:25:18Z</time>
      </trkpt>
      <trkpt lat="43.59615" lon="6.36208">
        <ele>553.15</ele>
        <time>2020-03-12T11:25:31Z</time>
      </trkpt>
      <trkpt lat="43.59615" lon="6.36216">
        <ele>553.06</ele>
        <time>2020-03-12T11:25:45Z</time>
      </trkpt>
      <trkpt lat="43.59616" lon="6.36219">
        <ele>553.16</ele>
        <time>2020-03-12T11:25:55Z</time>
      </trkpt>
      <trkpt lat="43.59619" lon="6.36241">
        <ele>552.84</ele>
        <time>2020-03-12T11:26:11Z</time>
      </trkpt>
      <trkpt lat="43.5962" lon="6.36261">
        <ele>552.51</ele>
        <time>2020-03-12T11:26:25Z</time>
      </trkpt>
      <trkpt lat="43.5962" lon="6.36264">
        <ele>552.53</ele>
        <time>2020-03-12T11:26:39Z</time>
      </trkpt>
      <trkpt lat="43.5962" lon="6.36267">
        <ele>552.53</ele>
        <time>2020-03-12T11:27:00Z</time>
      </trkpt>
      <trkpt lat="43.59616" lon="6.36268">
        <ele>552.53</ele>
        <time>2020-03-12T11:27:39Z</time>
      </trkpt>
      <trkpt lat="43.59619" lon="6.36268">
        <ele>552.53</ele>
        <time>2020-03-12T11:27:59Z</time>
      </trkpt>
      <trkpt lat="43.59619" lon="6.36269">
        <ele>552.53</ele>
        <time>2020-03-12T11:28:25Z</time>
      </trkpt>
      <trkpt lat="43.59619" lon="6.36268">
        <ele>552.53</ele>
        <time>2020-03-12T11:28:47Z</time>
      </trkpt>
      <trkpt lat="43.59618" lon="6.36266">
        <ele>552.53</ele>
        <time>2020-03-12T11:29:05Z</time>
      </trkpt>
      <trkpt lat="43.59615" lon="6.36264">
        <ele>552.53</ele>
        <time>2020-03-12T11:29:31Z</time>
      </trkpt>
      <trkpt lat="43.59616" lon="6.36265">
        <ele>552.53</ele>
        <time>2020-03-12T11:29:57Z</time>
      </trkpt>
      <trkpt lat="43.59618" lon="6.36267">
        <ele>552.53</ele>
        <time>2020-03-12T11:30:20Z</time>
      </trkpt>
      <trkpt lat="43.59618" lon="6.36269">
        <ele>552.53</ele>
        <time>2020-03-12T11:30:48Z</time>
      </trkpt>
      <trkpt lat="43.5962" lon="6.3627">
        <ele>552.53</ele>
        <time>2020-03-12T11:31:12Z</time>
      </trkpt>
      <trkpt lat="43.5962" lon="6.36269">
        <ele>552.53</ele>
        <time>2020-03-12T11:31:40Z</time>
      </trkpt>
      <trkpt lat="43.59619" lon="6.36269">
        <ele>552.53</ele>
        <time>2020-03-12T11:32:06Z</time>
      </trkpt>
      <trkpt lat="43.59621" lon="6.36268">
        <ele>552.53</ele>
        <time>2020-03-12T11:32:31Z</time>
      </trkpt>
      <trkpt lat="43.59624" lon="6.36267">
        <ele>552.53</ele>
        <time>2020-03-12T11:32:58Z</time>
      </trkpt>
      <trkpt lat="43.59622" lon="6.36268">
        <ele>552.53</ele>
        <time>2020-03-12T11:33:25Z</time>
      </trkpt>
      <trkpt lat="43.59623" lon="6.36268">
        <ele>552.53</ele>
        <time>2020-03-12T11:33:52Z</time>
      </trkpt>
      <trkpt lat="43.59623" lon="6.36268">
        <ele>552.53</ele>
        <time>2020-03-12T11:34:16Z</time>
      </trkpt>
      <trkpt lat="43.59616" lon="6.36267">
        <ele>551.9</ele>
        <time>2020-03-12T11:34:41Z</time>
      </trkpt>
      <trkpt lat="43.59615" lon="6.36267">
        <ele>551.95</ele>
        <time>2020-03-12T11:34:52Z</time>
      </trkpt>
      <trkpt lat="43.59606" lon="6.36268">
        <ele>551.94</ele>
        <time>2020-03-12T11:35:22Z</time>
      </trkpt>
      <trkpt lat="43.59611" lon="6.36267">
        <ele>552.07</ele>
        <time>2020-03-12T11:35:52Z</time>
      </trkpt>
      <trkpt lat="43.59611" lon="6.36267">
        <ele>552.07</ele>
        <time>2020-03-12T11:36:17Z</time>
      </trkpt>
      <trkpt lat="43.59612" lon="6.36267">
        <ele>552.07</ele>
        <time>2020-03-12T11:36:43Z</time>
      </trkpt>
      <trkpt lat="43.59617" lon="6.36268">
        <ele>552.07</ele>
        <time>2020-03-12T11:37:08Z</time>
      </trkpt>
      <trkpt lat="43.59615" lon="6.36267">
        <ele>552.07</ele>
        <time>2020-03-12T11:37:33Z</time>
      </trkpt>
      <trkpt lat="43.59615" lon="6.36266">
        <ele>552.07</ele>
        <time>2020-03-12T11:37:59Z</time>
      </trkpt>
      <trkpt lat="43.59617" lon="6.36265">
        <ele>552.07</ele>
        <time>2020-03-12T11:38:27Z</time>
      </trkpt>
      <trkpt lat="43.59619" lon="6.36265">
        <ele>552.07</ele>
        <time>2020-03-12T11:39:01Z</time>
      </trkpt>
      <trkpt lat="43.5962" lon="6.36266">
        <ele>552.07</ele>
        <time>2020-03-12T11:40:36Z</time>
      </trkpt>
      <trkpt lat="43.59619" lon="6.36264">
        <ele>552.07</ele>
        <time>2020-03-12T11:41:09Z</time>
      </trkpt>
      <trkpt lat="43.59616" lon="6.36264">
        <ele>552.07</ele>
        <time>2020-03-12T11:41:32Z</time>
      </trkpt>
      <trkpt lat="43.59609" lon="6.36261">
        <ele>552.07</ele>
        <time>2020-03-12T11:41:51Z</time>
      </trkpt>
      <trkpt lat="43.59614" lon="6.36264">
        <ele>552.4</ele>
        <time>2020-03-12T11:42:21Z</time>
      </trkpt>
      <trkpt lat="43.59602" lon="6.36265">
        <ele>552.31</ele>
        <time>2020-03-12T11:42:40Z</time>
      </trkpt>
      <trkpt lat="43.59603" lon="6.36268">
        <ele>552.28</ele>
        <time>2020-03-12T11:43:01Z</time>
      </trkpt>
      <trkpt lat="43.59611" lon="6.36272">
        <ele>552.28</ele>
        <time>2020-03-12T11:43:27Z</time>
      </trkpt>
      <trkpt lat="43.59617" lon="6.3627">
        <ele>552.28</ele>
        <time>2020-03-12T11:44:41Z</time>
      </trkpt>
      <trkpt lat="43.59615" lon="6.36267">
        <ele>552.28</ele>
        <time>2020-03-12T11:45:07Z</time>
      </trkpt>
      <trkpt lat="43.59612" lon="6.36268">
        <ele>552.28</ele>
        <time>2020-03-12T11:46:43Z</time>
      </trkpt>
      <trkpt lat="43.59613" lon="6.36269">
        <ele>552.28</ele>
        <time>2020-03-12T11:47:03Z</time>
      </trkpt>
      <trkpt lat="43.59609" lon="6.36271">
        <ele>552.28</ele>
        <time>2020-03-12T11:47:19Z</time>
      </trkpt>
      <trkpt lat="43.59608" lon="6.3627">
        <ele>552.28</ele>
        <time>2020-03-12T11:47:36Z</time>
      </trkpt>
      <trkpt lat="43.5961" lon="6.3627">
        <ele>552.28</ele>
        <time>2020-03-12T11:48:00Z</time>
      </trkpt>
      <trkpt lat="43.5961" lon="6.36268">
        <ele>552.28</ele>
        <time>2020-03-12T11:48:21Z</time>
      </trkpt>
      <trkpt lat="43.59612" lon="6.36268">
        <ele>552.28</ele>
        <time>2020-03-12T11:48:44Z</time>
      </trkpt>
      <trkpt lat="43.5961" lon="6.36268">
        <ele>552.28</ele>
        <time>2020-03-12T11:49:08Z</time>
      </trkpt>
      <trkpt lat="43.59614" lon="6.36268">
        <ele>552.28</ele>
        <time>2020-03-12T11:49:31Z</time>
      </trkpt>
      <trkpt lat="43.59617" lon="6.36268">
        <ele>552.28</ele>
        <time>2020-03-12T11:49:55Z</time>
      </trkpt>
      <trkpt lat="43.59615" lon="6.3627">
        <ele>552.28</ele>
        <time>2020-03-12T11:50:26Z</time>
      </trkpt>
      <trkpt lat="43.59616" lon="6.36269">
        <ele>552.28</ele>
        <time>2020-03-12T11:50:35Z</time>
      </trkpt>
      <trkpt lat="43.59624" lon="6.36266">
        <ele>553.57</ele>
        <time>2020-03-12T11:51:04Z</time>
      </trkpt>
      <trkpt lat="43.59622" lon="6.36265">
        <ele>553.65</ele>
        <time>2020-03-12T11:52:00Z</time>
      </trkpt>
      <trkpt lat="43.59622" lon="6.36267">
        <ele>553.65</ele>
        <time>2020-03-12T11:52:42Z</time>
      </trkpt>
      <trkpt lat="43.59622" lon="6.36269">
        <ele>553.65</ele>
        <time>2020-03-12T11:53:07Z</time>
      </trkpt>
      <trkpt lat="43.59622" lon="6.36268">
        <ele>553.65</ele>
        <time>2020-03-12T11:53:33Z</time>
      </trkpt>
      <trkpt lat="43.59617" lon="6.36269">
        <ele>553.63</ele>
        <time>2020-03-12T11:54:46Z</time>
      </trkpt>
      <trkpt lat="43.5962" lon="6.36268">
        <ele>553.63</ele>
        <time>2020-03-12T11:55:15Z</time>
      </trkpt>
      <trkpt lat="43.59621" lon="6.36267">
        <ele>553.63</ele>
        <time>2020-03-12T11:55:45Z</time>
      </trkpt>
      <trkpt lat="43.59622" lon="6.36267">
        <ele>553.63</ele>
        <time>2020-03-12T11:56:07Z</time>
      </trkpt>
      <trkpt lat="43.59619" lon="6.36268">
        <ele>553.63</ele>
        <time>2020-03-12T11:56:34Z</time>
      </trkpt>
      <trkpt lat="43.5962" lon="6.36267">
        <ele>553.63</ele>
        <time>2020-03-12T11:56:56Z</time>
      </trkpt>
      <trkpt lat="43.5962" lon="6.36265">
        <ele>553.63</ele>
        <time>2020-03-12T11:57:24Z</time>
      </trkpt>
      <trkpt lat="43.59618" lon="6.36266">
        <ele>553.63</ele>
        <time>2020-03-12T11:57:49Z</time>
      </trkpt>
      <trkpt lat="43.59618" lon="6.36267">
        <ele>553.63</ele>
        <time>2020-03-12T11:58:13Z</time>
      </trkpt>
      <trkpt lat="43.59618" lon="6.36266">
        <ele>553.63</ele>
        <time>2020-03-12T11:58:40Z</time>
      </trkpt>
      <trkpt lat="43.59618" lon="6.36268">
        <ele>553.63</ele>
        <time>2020-03-12T11:59:08Z</time>
      </trkpt>
      <trkpt lat="43.59618" lon="6.36267">
        <ele>553.63</ele>
        <time>2020-03-12T11:59:30Z</time>
      </trkpt>
      <trkpt lat="43.59619" lon="6.36264">
        <ele>553.63</ele>
        <time>2020-03-12T11:59:47Z</time>
      </trkpt>
      <trkpt lat="43.59618" lon="6.36267">
        <ele>553.63</ele>
        <time>2020-03-12T12:00:33Z</time>
      </trkpt>
      <trkpt lat="43.5962" lon="6.36268">
        <ele>553.63</ele>
        <time>2020-03-12T12:00:56Z</time>
      </trkpt>
      <trkpt lat="43.59619" lon="6.36266">
        <ele>553.63</ele>
        <time>2020-03-12T12:01:15Z</time>
      </trkpt>
      <trkpt lat="43.59619" lon="6.36265">
        <ele>553.63</ele>
        <time>2020-03-12T12:01:36Z</time>
      </trkpt>
      <trkpt lat="43.59618" lon="6.36266">
        <ele>553.63</ele>
        <time>2020-03-12T12:02:02Z</time>
      </trkpt>
      <trkpt lat="43.59619" lon="6.36267">
        <ele>553.63</ele>
        <time>2020-03-12T12:02:29Z</time>
      </trkpt>
      <trkpt lat="43.59617" lon="6.36267">
        <ele>553.63</ele>
        <time>2020-03-12T12:02:57Z</time>
      </trkpt>
      <trkpt lat="43.59616" lon="6.36266">
        <ele>553.63</ele>
        <time>2020-03-12T12:04:11Z</time>
      </trkpt>
      <trkpt lat="43.59617" lon="6.36268">
        <ele>553.63</ele>
        <time>2020-03-12T12:04:37Z</time>
      </trkpt>
      <trkpt lat="43.59618" lon="6.36268">
        <ele>553.63</ele>
        <time>2020-03-12T12:05:07Z</time>
      </trkpt>
      <trkpt lat="43.59619" lon="6.36264">
        <ele>553.63</ele>
        <time>2020-03-12T12:05:29Z</time>
      </trkpt>
      <trkpt lat="43.59622" lon="6.36276">
        <ele>553.63</ele>
        <time>2020-03-12T12:05:46Z</time>
      </trkpt>
      <trkpt lat="43.59624" lon="6.36294">
        <ele>555.54</ele>
        <time>2020-03-12T12:06:01Z</time>
      </trkpt>
      <trkpt lat="43.59628" lon="6.36314">
        <ele>555.55</ele>
        <time>2020-03-12T12:06:15Z</time>
      </trkpt>
      <trkpt lat="43.59628" lon="6.36334">
        <ele>555.66</ele>
        <time>2020-03-12T12:06:29Z</time>
      </trkpt>
      <trkpt lat="43.59629" lon="6.36343">
        <ele>555.75</ele>
        <time>2020-03-12T12:06:35Z</time>
      </trkpt>
      <trkpt lat="43.59625" lon="6.36369">
        <ele>556.24</ele>
        <time>2020-03-12T12:06:52Z</time>
      </trkpt>
      <trkpt lat="43.59621" lon="6.3639">
        <ele>556.61</ele>
        <time>2020-03-12T12:07:05Z</time>
      </trkpt>
      <trkpt lat="43.59616" lon="6.36403">
        <ele>556.23</ele>
        <time>2020-03-12T12:07:15Z</time>
      </trkpt>
      <trkpt lat="43.59607" lon="6.36414">
        <ele>555.84</ele>
        <time>2020-03-12T12:07:25Z</time>
      </trkpt>
      <trkpt lat="43.59593" lon="6.36433">
        <ele>555.49</ele>
        <time>2020-03-12T12:07:41Z</time>
      </trkpt>
      <trkpt lat="43.59588" lon="6.36443">
        <ele>555.39</ele>
        <time>2020-03-12T12:07:50Z</time>
      </trkpt>
      <trkpt lat="43.59585" lon="6.36449">
        <ele>555.68</ele>
        <time>2020-03-12T12:08:03Z</time>
      </trkpt>
      <trkpt lat="43.5958" lon="6.36462">
        <ele>556.26</ele>
        <time>2020-03-12T12:08:14Z</time>
      </trkpt>
      <trkpt lat="43.59573" lon="6.36478">
        <ele>555.4</ele>
        <time>2020-03-12T12:08:28Z</time>
      </trkpt>
      <trkpt lat="43.59567" lon="6.36495">
        <ele>554.9</ele>
        <time>2020-03-12T12:08:42Z</time>
      </trkpt>
      <trkpt lat="43.59557" lon="6.36515">
        <ele>554.37</ele>
        <time>2020-03-12T12:08:56Z</time>
      </trkpt>
      <trkpt lat="43.59556" lon="6.36521">
        <ele>554.47</ele>
        <time>2020-03-12T12:08:59Z</time>
      </trkpt>
      <trkpt lat="43.59557" lon="6.36529">
        <ele>554.28</ele>
        <time>2020-03-12T12:09:04Z</time>
      </trkpt>
      <trkpt lat="43.59559" lon="6.36532">
        <ele>554.23</ele>
        <time>2020-03-12T12:09:07Z</time>
      </trkpt>
      <trkpt lat="43.59562" lon="6.36533">
        <ele>554.2</ele>
        <time>2020-03-12T12:09:10Z</time>
      </trkpt>
      <trkpt lat="43.59581" lon="6.36548">
        <ele>554.15</ele>
        <time>2020-03-12T12:09:30Z</time>
      </trkpt>
      <trkpt lat="43.59593" lon="6.36556">
        <ele>553.88</ele>
        <time>2020-03-12T12:09:43Z</time>
      </trkpt>
      <trkpt lat="43.59605" lon="6.36564">
        <ele>553.72</ele>
        <time>2020-03-12T12:09:56Z</time>
      </trkpt>
      <trkpt lat="43.59617" lon="6.3657">
        <ele>554.41</ele>
        <time>2020-03-12T12:10:08Z</time>
      </trkpt>
      <trkpt lat="43.5963" lon="6.36576">
        <ele>554.56</ele>
        <time>2020-03-12T12:10:19Z</time>
      </trkpt>
      <trkpt lat="43.59644" lon="6.36584">
        <ele>554.62</ele>
        <time>2020-03-12T12:10:33Z</time>
      </trkpt>
      <trkpt lat="43.59657" lon="6.36595">
        <ele>554.16</ele>
        <time>2020-03-12T12:10:46Z</time>
      </trkpt>
      <trkpt lat="43.59669" lon="6.36603">
        <ele>554.18</ele>
        <time>2020-03-12T12:10:58Z</time>
      </trkpt>
      <trkpt lat="43.59683" lon="6.36605">
        <ele>553.77</ele>
        <time>2020-03-12T12:11:10Z</time>
      </trkpt>
      <trkpt lat="43.59697" lon="6.36618">
        <ele>553.61</ele>
        <time>2020-03-12T12:11:24Z</time>
      </trkpt>
      <trkpt lat="43.59698" lon="6.3662">
        <ele>553.61</ele>
        <time>2020-03-12T12:11:26Z</time>
      </trkpt>
      <trkpt lat="43.59699" lon="6.36623">
        <ele>553.61</ele>
        <time>2020-03-12T12:11:28Z</time>
      </trkpt>
      <trkpt lat="43.59711" lon="6.36647">
        <ele>554.11</ele>
        <time>2020-03-12T12:11:45Z</time>
      </trkpt>
      <trkpt lat="43.59725" lon="6.36657">
        <ele>554.42</ele>
        <time>2020-03-12T12:11:58Z</time>
      </trkpt>
      <trkpt lat="43.5973" lon="6.36657">
        <ele>554.82</ele>
        <time>2020-03-12T12:12:04Z</time>
      </trkpt>
      <trkpt lat="43.59741" lon="6.36654">
        <ele>556.33</ele>
        <time>2020-03-12T12:12:16Z</time>
      </trkpt>
      <trkpt lat="43.59748" lon="6.36655">
        <ele>557.08</ele>
        <time>2020-03-12T12:12:26Z</time>
      </trkpt>
      <trkpt lat="43.59749" lon="6.36655">
        <ele>557.1</ele>
        <time>2020-03-12T12:12:27Z</time>
      </trkpt>
      <trkpt lat="43.59753" lon="6.3665">
        <ele>557.28</ele>
        <time>2020-03-12T12:12:32Z</time>
      </trkpt>
      <trkpt lat="43.59769" lon="6.36635">
        <ele>557.36</ele>
        <time>2020-03-12T12:12:48Z</time>
      </trkpt>
      <trkpt lat="43.59782" lon="6.36621">
        <ele>557.22</ele>
        <time>2020-03-12T12:13:03Z</time>
      </trkpt>
      <trkpt lat="43.59785" lon="6.36619">
        <ele>557.28</ele>
        <time>2020-03-12T12:13:06Z</time>
      </trkpt>
      <trkpt lat="43.59797" lon="6.36617">
        <ele>557.37</ele>
        <time>2020-03-12T12:13:18Z</time>
      </trkpt>
      <trkpt lat="43.59815" lon="6.36618">
        <ele>558.09</ele>
        <time>2020-03-12T12:13:32Z</time>
      </trkpt>
      <trkpt lat="43.59827" lon="6.36615">
        <ele>558.37</ele>
        <time>2020-03-12T12:13:44Z</time>
      </trkpt>
      <trkpt lat="43.5984" lon="6.36612">
        <ele>558.6</ele>
        <time>2020-03-12T12:13:55Z</time>
      </trkpt>
      <trkpt lat="43.59857" lon="6.36611">
        <ele>558.86</ele>
        <time>2020-03-12T12:14:08Z</time>
      </trkpt>
      <trkpt lat="43.59868" lon="6.3661">
        <ele>559.18</ele>
        <time>2020-03-12T12:14:19Z</time>
      </trkpt>
      <trkpt lat="43.59879" lon="6.36614">
        <ele>559.57</ele>
        <time>2020-03-12T12:14:30Z</time>
      </trkpt>
      <trkpt lat="43.5988" lon="6.36615">
        <ele>559.64</ele>
        <time>2020-03-12T12:14:31Z</time>
      </trkpt>
      <trkpt lat="43.59885" lon="6.36619">
        <ele>560.18</ele>
        <time>2020-03-12T12:14:36Z</time>
      </trkpt>
      <trkpt lat="43.59902" lon="6.36626">
        <ele>561.17</ele>
        <time>2020-03-12T12:14:50Z</time>
      </trkpt>
      <trkpt lat="43.59911" lon="6.36629">
        <ele>561.65</ele>
        <time>2020-03-12T12:14:59Z</time>
      </trkpt>
      <trkpt lat="43.59917" lon="6.36633">
        <ele>562.53</ele>
        <time>2020-03-12T12:15:10Z</time>
      </trkpt>
      <trkpt lat="43.59927" lon="6.36635">
        <ele>562.79</ele>
        <time>2020-03-12T12:15:23Z</time>
      </trkpt>
      <trkpt lat="43.59925" lon="6.36635">
        <ele>563.49</ele>
        <time>2020-03-12T12:15:35Z</time>
      </trkpt>
      <trkpt lat="43.59926" lon="6.36635">
        <ele>563.27</ele>
        <time>2020-03-12T12:15:37Z</time>
      </trkpt>
      <trkpt lat="43.59929" lon="6.36637">
        <ele>563.68</ele>
        <time>2020-03-12T12:15:49Z</time>
      </trkpt>
      <trkpt lat="43.5992" lon="6.36637">
        <ele>563.66</ele>
        <time>2020-03-12T12:15:57Z</time>
      </trkpt>
      <trkpt lat="43.59915" lon="6.36637">
        <ele>563.06</ele>
        <time>2020-03-12T12:16:03Z</time>
      </trkpt>
      <trkpt lat="43.59915" lon="6.36644">
        <ele>563.15</ele>
        <time>2020-03-12T12:16:14Z</time>
      </trkpt>
      <trkpt lat="43.59925" lon="6.36654">
        <ele>564.79</ele>
        <time>2020-03-12T12:16:27Z</time>
      </trkpt>
      <trkpt lat="43.59931" lon="6.36659">
        <ele>565.61</ele>
        <time>2020-03-12T12:16:35Z</time>
      </trkpt>
      <trkpt lat="43.5994" lon="6.36665">
        <ele>566.71</ele>
        <time>2020-03-12T12:16:46Z</time>
      </trkpt>
      <trkpt lat="43.59953" lon="6.36675">
        <ele>567.81</ele>
        <time>2020-03-12T12:16:59Z</time>
      </trkpt>
      <trkpt lat="43.59962" lon="6.36683">
        <ele>568.58</ele>
        <time>2020-03-12T12:17:12Z</time>
      </trkpt>
      <trkpt lat="43.59974" lon="6.3669">
        <ele>568.92</ele>
        <time>2020-03-12T12:17:25Z</time>
      </trkpt>
      <trkpt lat="43.59984" lon="6.36687">
        <ele>568.86</ele>
        <time>2020-03-12T12:17:35Z</time>
      </trkpt>
      <trkpt lat="43.59998" lon="6.36687">
        <ele>569.12</ele>
        <time>2020-03-12T12:17:47Z</time>
      </trkpt>
      <trkpt lat="43.60001" lon="6.36685">
        <ele>568.98</ele>
        <time>2020-03-12T12:17:50Z</time>
      </trkpt>
      <trkpt lat="43.60005" lon="6.3667">
        <ele>568.56</ele>
        <time>2020-03-12T12:18:02Z</time>
      </trkpt>
      <trkpt lat="43.60008" lon="6.36647">
        <ele>568.97</ele>
        <time>2020-03-12T12:18:17Z</time>
      </trkpt>
      <trkpt lat="43.60009" lon="6.36628">
        <ele>569.58</ele>
        <time>2020-03-12T12:18:31Z</time>
      </trkpt>
      <trkpt lat="43.60009" lon="6.36622">
        <ele>569.13</ele>
        <time>2020-03-12T12:18:44Z</time>
      </trkpt>
      <trkpt lat="43.60013" lon="6.36611">
        <ele>569.17</ele>
        <time>2020-03-12T12:18:57Z</time>
      </trkpt>
      <trkpt lat="43.60028" lon="6.36595">
        <ele>568.91</ele>
        <time>2020-03-12T12:19:14Z</time>
      </trkpt>
      <trkpt lat="43.60033" lon="6.36583">
        <ele>568.22</ele>
        <time>2020-03-12T12:19:25Z</time>
      </trkpt>
      <trkpt lat="43.60035" lon="6.36575">
        <ele>566.95</ele>
        <time>2020-03-12T12:19:36Z</time>
      </trkpt>
      <trkpt lat="43.60036" lon="6.36571">
        <ele>566.74</ele>
        <time>2020-03-12T12:19:41Z</time>
      </trkpt>
      <trkpt lat="43.60035" lon="6.36565">
        <ele>566.36</ele>
        <time>2020-03-12T12:19:45Z</time>
      </trkpt>
      <trkpt lat="43.60036" lon="6.36548">
        <ele>564.75</ele>
        <time>2020-03-12T12:19:58Z</time>
      </trkpt>
      <trkpt lat="43.60039" lon="6.36541">
        <ele>564.11</ele>
        <time>2020-03-12T12:20:06Z</time>
      </trkpt>
      <trkpt lat="43.60046" lon="6.36531">
        <ele>563.69</ele>
        <time>2020-03-12T12:20:17Z</time>
      </trkpt>
      <trkpt lat="43.60059" lon="6.36524">
        <ele>563.65</ele>
        <time>2020-03-12T12:20:29Z</time>
      </trkpt>
      <trkpt lat="43.60072" lon="6.36528">
        <ele>564.27</ele>
        <time>2020-03-12T12:20:40Z</time>
      </trkpt>
      <trkpt lat="43.60077" lon="6.36533">
        <ele>564.91</ele>
        <time>2020-03-12T12:20:45Z</time>
      </trkpt>
      <trkpt lat="43.60079" lon="6.36534">
        <ele>565.03</ele>
        <time>2020-03-12T12:20:47Z</time>
      </trkpt>
      <trkpt lat="43.60095" lon="6.36546">
        <ele>565.07</ele>
        <time>2020-03-12T12:21:01Z</time>
      </trkpt>
      <trkpt lat="43.601" lon="6.36551">
        <ele>565.26</ele>
        <time>2020-03-12T12:21:07Z</time>
      </trkpt>
      <trkpt lat="43.60105" lon="6.36555">
        <ele>565.1</ele>
        <time>2020-03-12T12:21:13Z</time>
      </trkpt>
      <trkpt lat="43.60108" lon="6.36567">
        <ele>564.65</ele>
        <time>2020-03-12T12:21:20Z</time>
      </trkpt>
      <trkpt lat="43.60118" lon="6.36587">
        <ele>563.24</ele>
        <time>2020-03-12T12:21:33Z</time>
      </trkpt>
      <trkpt lat="43.6013" lon="6.36598">
        <ele>561.96</ele>
        <time>2020-03-12T12:21:47Z</time>
      </trkpt>
      <trkpt lat="43.60131" lon="6.366">
        <ele>561.82</ele>
        <time>2020-03-12T12:21:49Z</time>
      </trkpt>
      <trkpt lat="43.60142" lon="6.36606">
        <ele>560.9</ele>
        <time>2020-03-12T12:22:02Z</time>
      </trkpt>
      <trkpt lat="43.60155" lon="6.36609">
        <ele>560.6</ele>
        <time>2020-03-12T12:22:13Z</time>
      </trkpt>
      <trkpt lat="43.60168" lon="6.36613">
        <ele>559.91</ele>
        <time>2020-03-12T12:22:25Z</time>
      </trkpt>
      <trkpt lat="43.6018" lon="6.36622">
        <ele>559.38</ele>
        <time>2020-03-12T12:22:38Z</time>
      </trkpt>
      <trkpt lat="43.60193" lon="6.3663">
        <ele>558.02</ele>
        <time>2020-03-12T12:22:57Z</time>
      </trkpt>
      <trkpt lat="43.60203" lon="6.36637">
        <ele>557.34</ele>
        <time>2020-03-12T12:23:11Z</time>
      </trkpt>
      <trkpt lat="43.60216" lon="6.36645">
        <ele>556.77</ele>
        <time>2020-03-12T12:23:22Z</time>
      </trkpt>
      <trkpt lat="43.60223" lon="6.3665">
        <ele>556.03</ele>
        <time>2020-03-12T12:23:31Z</time>
      </trkpt>
      <trkpt lat="43.60226" lon="6.36652">
        <ele>555.87</ele>
        <time>2020-03-12T12:23:33Z</time>
      </trkpt>
      <trkpt lat="43.60233" lon="6.36658">
        <ele>555.33</ele>
        <time>2020-03-12T12:23:40Z</time>
      </trkpt>
      <trkpt lat="43.60242" lon="6.36664">
        <ele>554.82</ele>
        <time>2020-03-12T12:23:47Z</time>
      </trkpt>
      <trkpt lat="43.60247" lon="6.36667">
        <ele>554.75</ele>
        <time>2020-03-12T12:23:52Z</time>
      </trkpt>
      <trkpt lat="43.6026" lon="6.36674">
        <ele>553.24</ele>
        <time>2020-03-12T12:24:04Z</time>
      </trkpt>
      <trkpt lat="43.60273" lon="6.36677">
        <ele>551.94</ele>
        <time>2020-03-12T12:24:15Z</time>
      </trkpt>
      <trkpt lat="43.60287" lon="6.36671">
        <ele>550.74</ele>
        <time>2020-03-12T12:24:28Z</time>
      </trkpt>
      <trkpt lat="43.603" lon="6.36662">
        <ele>549.54</ele>
        <time>2020-03-12T12:24:41Z</time>
      </trkpt>
      <trkpt lat="43.60312" lon="6.36651">
        <ele>548.15</ele>
        <time>2020-03-12T12:24:54Z</time>
      </trkpt>
      <trkpt lat="43.6032" lon="6.36641">
        <ele>546.69</ele>
        <time>2020-03-12T12:25:06Z</time>
      </trkpt>
      <trkpt lat="43.60326" lon="6.36637">
        <ele>546.04</ele>
        <time>2020-03-12T12:25:11Z</time>
      </trkpt>
      <trkpt lat="43.60341" lon="6.36636">
        <ele>544.3</ele>
        <time>2020-03-12T12:25:24Z</time>
      </trkpt>
      <trkpt lat="43.60352" lon="6.36646">
        <ele>542.91</ele>
        <time>2020-03-12T12:25:36Z</time>
      </trkpt>
      <trkpt lat="43.60353" lon="6.36648">
        <ele>542.72</ele>
        <time>2020-03-12T12:25:38Z</time>
      </trkpt>
      <trkpt lat="43.60355" lon="6.36666">
        <ele>542.44</ele>
        <time>2020-03-12T12:25:49Z</time>
      </trkpt>
      <trkpt lat="43.6036" lon="6.36683">
        <ele>542.13</ele>
        <time>2020-03-12T12:26:01Z</time>
      </trkpt>
      <trkpt lat="43.60368" lon="6.36697">
        <ele>541.91</ele>
        <time>2020-03-12T12:26:13Z</time>
      </trkpt>
      <trkpt lat="43.60376" lon="6.367">
        <ele>541.96</ele>
        <time>2020-03-12T12:26:23Z</time>
      </trkpt>
      <trkpt lat="43.60387" lon="6.36698">
        <ele>541.9</ele>
        <time>2020-03-12T12:26:35Z</time>
      </trkpt>
      <trkpt lat="43.60402" lon="6.36696">
        <ele>542.37</ele>
        <time>2020-03-12T12:26:51Z</time>
      </trkpt>
      <trkpt lat="43.60415" lon="6.36694">
        <ele>541.98</ele>
        <time>2020-03-12T12:27:04Z</time>
      </trkpt>
      <trkpt lat="43.6043" lon="6.36696">
        <ele>541.21</ele>
        <time>2020-03-12T12:27:19Z</time>
      </trkpt>
      <trkpt lat="43.60437" lon="6.36704">
        <ele>541.26</ele>
        <time>2020-03-12T12:27:34Z</time>
      </trkpt>
      <trkpt lat="43.60438" lon="6.36705">
        <ele>541.18</ele>
        <time>2020-03-12T12:27:35Z</time>
      </trkpt>
      <trkpt lat="43.60445" lon="6.36719">
        <ele>541.18</ele>
        <time>2020-03-12T12:27:46Z</time>
      </trkpt>
      <trkpt lat="43.60448" lon="6.36726">
        <ele>541.66</ele>
        <time>2020-03-12T12:27:53Z</time>
      </trkpt>
      <trkpt lat="43.60456" lon="6.36737">
        <ele>542.04</ele>
        <time>2020-03-12T12:28:04Z</time>
      </trkpt>
      <trkpt lat="43.60464" lon="6.36748">
        <ele>542.59</ele>
        <time>2020-03-12T12:28:15Z</time>
      </trkpt>
      <trkpt lat="43.60469" lon="6.3676">
        <ele>543.11</ele>
        <time>2020-03-12T12:28:25Z</time>
      </trkpt>
      <trkpt lat="43.6047" lon="6.36762">
        <ele>543.18</ele>
        <time>2020-03-12T12:28:27Z</time>
      </trkpt>
      <trkpt lat="43.60479" lon="6.36778">
        <ele>543.54</ele>
        <time>2020-03-12T12:28:41Z</time>
      </trkpt>
      <trkpt lat="43.60481" lon="6.36782">
        <ele>543.59</ele>
        <time>2020-03-12T12:28:45Z</time>
      </trkpt>
      <trkpt lat="43.60492" lon="6.36799">
        <ele>543.93</ele>
        <time>2020-03-12T12:28:59Z</time>
      </trkpt>
      <trkpt lat="43.60499" lon="6.36815">
        <ele>544.41</ele>
        <time>2020-03-12T12:29:10Z</time>
      </trkpt>
      <trkpt lat="43.60508" lon="6.36833">
        <ele>544.62</ele>
        <time>2020-03-12T12:29:24Z</time>
      </trkpt>
      <trkpt lat="43.60517" lon="6.36846">
        <ele>545.3</ele>
        <time>2020-03-12T12:29:36Z</time>
      </trkpt>
      <trkpt lat="43.60519" lon="6.3685">
        <ele>545.44</ele>
        <time>2020-03-12T12:29:39Z</time>
      </trkpt>
      <trkpt lat="43.60525" lon="6.36862">
        <ele>546.26</ele>
        <time>2020-03-12T12:29:49Z</time>
      </trkpt>
      <trkpt lat="43.60536" lon="6.36878">
        <ele>546.55</ele>
        <time>2020-03-12T12:30:02Z</time>
      </trkpt>
      <trkpt lat="43.60543" lon="6.36892">
        <ele>547.14</ele>
        <time>2020-03-12T12:30:15Z</time>
      </trkpt>
      <trkpt lat="43.6055" lon="6.36907">
        <ele>547.49</ele>
        <time>2020-03-12T12:30:27Z</time>
      </trkpt>
      <trkpt lat="43.60557" lon="6.36924">
        <ele>547.34</ele>
        <time>2020-03-12T12:30:39Z</time>
      </trkpt>
      <trkpt lat="43.60564" lon="6.36939">
        <ele>547.29</ele>
        <time>2020-03-12T12:30:51Z</time>
      </trkpt>
      <trkpt lat="43.60572" lon="6.36954">
        <ele>546.98</ele>
        <time>2020-03-12T12:31:04Z</time>
      </trkpt>
      <trkpt lat="43.60576" lon="6.36963">
        <ele>547.06</ele>
        <time>2020-03-12T12:31:16Z</time>
      </trkpt>
      <trkpt lat="43.60581" lon="6.36971">
        <ele>547.37</ele>
        <time>2020-03-12T12:31:32Z</time>
      </trkpt>
      <trkpt lat="43.60587" lon="6.36984">
        <ele>547.59</ele>
        <time>2020-03-12T12:31:45Z</time>
      </trkpt>
      <trkpt lat="43.60591" lon="6.3699">
        <ele>547.64</ele>
        <time>2020-03-12T12:31:51Z</time>
      </trkpt>
      <trkpt lat="43.60595" lon="6.36994">
        <ele>547.73</ele>
        <time>2020-03-12T12:31:55Z</time>
      </trkpt>
      <trkpt lat="43.60604" lon="6.37009">
        <ele>548.01</ele>
        <time>2020-03-12T12:32:08Z</time>
      </trkpt>
      <trkpt lat="43.60607" lon="6.37012">
        <ele>547.97</ele>
        <time>2020-03-12T12:32:14Z</time>
      </trkpt>
      <trkpt lat="43.60611" lon="6.37018">
        <ele>548.29</ele>
        <time>2020-03-12T12:32:21Z</time>
      </trkpt>
      <trkpt lat="43.60615" lon="6.37034">
        <ele>548.32</ele>
        <time>2020-03-12T12:32:33Z</time>
      </trkpt>
      <trkpt lat="43.60617" lon="6.37049">
        <ele>548.51</ele>
        <time>2020-03-12T12:32:45Z</time>
      </trkpt>
      <trkpt lat="43.60623" lon="6.37066">
        <ele>548.54</ele>
        <time>2020-03-12T12:32:58Z</time>
      </trkpt>
      <trkpt lat="43.60626" lon="6.37084">
        <ele>548.5</ele>
        <time>2020-03-12T12:33:11Z</time>
      </trkpt>
      <trkpt lat="43.60626" lon="6.37086">
        <ele>548.46</ele>
        <time>2020-03-12T12:33:12Z</time>
      </trkpt>
      <trkpt lat="43.60628" lon="6.37099">
        <ele>548.3</ele>
        <time>2020-03-12T12:33:22Z</time>
      </trkpt>
      <trkpt lat="43.60635" lon="6.37116">
        <ele>548.43</ele>
        <time>2020-03-12T12:33:35Z</time>
      </trkpt>
      <trkpt lat="43.60637" lon="6.37132">
        <ele>548.33</ele>
        <time>2020-03-12T12:33:46Z</time>
      </trkpt>
      <trkpt lat="43.60639" lon="6.37154">
        <ele>548.39</ele>
        <time>2020-03-12T12:34:02Z</time>
      </trkpt>
      <trkpt lat="43.60645" lon="6.3718">
        <ele>547.7</ele>
        <time>2020-03-12T12:34:19Z</time>
      </trkpt>
      <trkpt lat="43.60651" lon="6.3719">
        <ele>547.03</ele>
        <time>2020-03-12T12:34:29Z</time>
      </trkpt>
      <trkpt lat="43.60659" lon="6.37204">
        <ele>546.88</ele>
        <time>2020-03-12T12:34:40Z</time>
      </trkpt>
      <trkpt lat="43.60661" lon="6.37208">
        <ele>546.98</ele>
        <time>2020-03-12T12:34:43Z</time>
      </trkpt>
      <trkpt lat="43.60669" lon="6.37225">
        <ele>546.5</ele>
        <time>2020-03-12T12:34:56Z</time>
      </trkpt>
      <trkpt lat="43.60672" lon="6.37236">
        <ele>546.47</ele>
        <time>2020-03-12T12:35:08Z</time>
      </trkpt>
      <trkpt lat="43.60673" lon="6.37237">
        <ele>546.47</ele>
        <time>2020-03-12T12:35:10Z</time>
      </trkpt>
      <trkpt lat="43.60674" lon="6.37257">
        <ele>546.48</ele>
        <time>2020-03-12T12:35:22Z</time>
      </trkpt>
      <trkpt lat="43.60675" lon="6.37278">
        <ele>546.42</ele>
        <time>2020-03-12T12:35:35Z</time>
      </trkpt>
      <trkpt lat="43.60673" lon="6.3729">
        <ele>546.59</ele>
        <time>2020-03-12T12:35:43Z</time>
      </trkpt>
      <trkpt lat="43.60673" lon="6.37299">
        <ele>546.65</ele>
        <time>2020-03-12T12:35:49Z</time>
      </trkpt>
      <trkpt lat="43.6067" lon="6.37321">
        <ele>546.58</ele>
        <time>2020-03-12T12:36:02Z</time>
      </trkpt>
      <trkpt lat="43.60665" lon="6.37341">
        <ele>545.66</ele>
        <time>2020-03-12T12:36:16Z</time>
      </trkpt>
      <trkpt lat="43.60663" lon="6.37346">
        <ele>545.59</ele>
        <time>2020-03-12T12:36:20Z</time>
      </trkpt>
      <trkpt lat="43.60653" lon="6.37359">
        <ele>545.06</ele>
        <time>2020-03-12T12:36:32Z</time>
      </trkpt>
      <trkpt lat="43.60641" lon="6.3737">
        <ele>544.48</ele>
        <time>2020-03-12T12:36:43Z</time>
      </trkpt>
      <trkpt lat="43.60637" lon="6.37379">
        <ele>544.13</ele>
        <time>2020-03-12T12:36:50Z</time>
      </trkpt>
      <trkpt lat="43.60636" lon="6.37383">
        <ele>543.96</ele>
        <time>2020-03-12T12:36:53Z</time>
      </trkpt>
      <trkpt lat="43.60633" lon="6.37385">
        <ele>543.86</ele>
        <time>2020-03-12T12:36:56Z</time>
      </trkpt>
      <trkpt lat="43.60624" lon="6.37398">
        <ele>543.51</ele>
        <time>2020-03-12T12:37:07Z</time>
      </trkpt>
      <trkpt lat="43.60614" lon="6.37414">
        <ele>543.02</ele>
        <time>2020-03-12T12:37:20Z</time>
      </trkpt>
      <trkpt lat="43.60606" lon="6.37425">
        <ele>542.5</ele>
        <time>2020-03-12T12:37:31Z</time>
      </trkpt>
      <trkpt lat="43.60593" lon="6.37437">
        <ele>541.82</ele>
        <time>2020-03-12T12:37:45Z</time>
      </trkpt>
      <trkpt lat="43.60589" lon="6.37438">
        <ele>541.28</ele>
        <time>2020-03-12T12:37:56Z</time>
      </trkpt>
      <trkpt lat="43.60585" lon="6.37442">
        <ele>541.32</ele>
        <time>2020-03-12T12:38:02Z</time>
      </trkpt>
      <trkpt lat="43.60578" lon="6.37452">
        <ele>541.03</ele>
        <time>2020-03-12T12:38:11Z</time>
      </trkpt>
      <trkpt lat="43.60567" lon="6.3746">
        <ele>540.5</ele>
        <time>2020-03-12T12:38:22Z</time>
      </trkpt>
      <trkpt lat="43.60556" lon="6.37468">
        <ele>540.28</ele>
        <time>2020-03-12T12:38:34Z</time>
      </trkpt>
      <trkpt lat="43.60544" lon="6.37478">
        <ele>539.45</ele>
        <time>2020-03-12T12:38:46Z</time>
      </trkpt>
      <trkpt lat="43.60538" lon="6.37484">
        <ele>538.81</ele>
        <time>2020-03-12T12:38:55Z</time>
      </trkpt>
      <trkpt lat="43.60535" lon="6.37485">
        <ele>538.66</ele>
        <time>2020-03-12T12:38:57Z</time>
      </trkpt>
      <trkpt lat="43.60527" lon="6.37503">
        <ele>538.02</ele>
        <time>2020-03-12T12:39:11Z</time>
      </trkpt>
      <trkpt lat="43.60526" lon="6.37505">
        <ele>537.9</ele>
        <time>2020-03-12T12:39:12Z</time>
      </trkpt>
      <trkpt lat="43.60521" lon="6.37524">
        <ele>537.04</ele>
        <time>2020-03-12T12:39:25Z</time>
      </trkpt>
      <trkpt lat="43.60519" lon="6.37532">
        <ele>536.69</ele>
        <time>2020-03-12T12:39:31Z</time>
      </trkpt>
      <trkpt lat="43.60517" lon="6.37551">
        <ele>535.73</ele>
        <time>2020-03-12T12:39:44Z</time>
      </trkpt>
      <trkpt lat="43.60517" lon="6.37552">
        <ele>535.65</ele>
        <time>2020-03-12T12:39:45Z</time>
      </trkpt>
      <trkpt lat="43.60512" lon="6.3756">
        <ele>535.37</ele>
        <time>2020-03-12T12:39:52Z</time>
      </trkpt>
      <trkpt lat="43.60508" lon="6.37577">
        <ele>534.9</ele>
        <time>2020-03-12T12:40:03Z</time>
      </trkpt>
      <trkpt lat="43.60503" lon="6.37593">
        <ele>534.34</ele>
        <time>2020-03-12T12:40:14Z</time>
      </trkpt>
      <trkpt lat="43.60499" lon="6.3761">
        <ele>533.54</ele>
        <time>2020-03-12T12:40:27Z</time>
      </trkpt>
      <trkpt lat="43.60497" lon="6.37626">
        <ele>532.78</ele>
        <time>2020-03-12T12:40:38Z</time>
      </trkpt>
      <trkpt lat="43.60493" lon="6.37644">
        <ele>532.03</ele>
        <time>2020-03-12T12:40:50Z</time>
      </trkpt>
      <trkpt lat="43.60492" lon="6.37661">
        <ele>531.23</ele>
        <time>2020-03-12T12:41:01Z</time>
      </trkpt>
      <trkpt lat="43.60492" lon="6.37664">
        <ele>530.99</ele>
        <time>2020-03-12T12:41:08Z</time>
      </trkpt>
      <trkpt lat="43.60493" lon="6.37671">
        <ele>530.94</ele>
        <time>2020-03-12T12:41:12Z</time>
      </trkpt>
      <trkpt lat="43.60493" lon="6.37679">
        <ele>530.7</ele>
        <time>2020-03-12T12:41:17Z</time>
      </trkpt>
      <trkpt lat="43.60492" lon="6.37685">
        <ele>530.39</ele>
        <time>2020-03-12T12:41:21Z</time>
      </trkpt>
      <trkpt lat="43.60494" lon="6.37707">
        <ele>529.42</ele>
        <time>2020-03-12T12:41:35Z</time>
      </trkpt>
      <trkpt lat="43.60494" lon="6.37723">
        <ele>528.78</ele>
        <time>2020-03-12T12:41:46Z</time>
      </trkpt>
      <trkpt lat="43.60493" lon="6.37741">
        <ele>528.16</ele>
        <time>2020-03-12T12:41:59Z</time>
      </trkpt>
      <trkpt lat="43.60495" lon="6.37756">
        <ele>527.45</ele>
        <time>2020-03-12T12:42:09Z</time>
      </trkpt>
      <trkpt lat="43.60495" lon="6.37768">
        <ele>527</ele>
        <time>2020-03-12T12:42:21Z</time>
      </trkpt>
      <trkpt lat="43.60495" lon="6.37769">
        <ele>527</ele>
        <time>2020-03-12T12:42:22Z</time>
      </trkpt>
      <trkpt lat="43.60495" lon="6.37775">
        <ele>526.85</ele>
        <time>2020-03-12T12:42:36Z</time>
      </trkpt>
      <trkpt lat="43.60497" lon="6.37791">
        <ele>526.49</ele>
        <time>2020-03-12T12:42:47Z</time>
      </trkpt>
      <trkpt lat="43.605" lon="6.37804">
        <ele>525.76</ele>
        <time>2020-03-12T12:42:56Z</time>
      </trkpt>
      <trkpt lat="43.60501" lon="6.37807">
        <ele>525.66</ele>
        <time>2020-03-12T12:42:58Z</time>
      </trkpt>
      <trkpt lat="43.60503" lon="6.37828">
        <ele>525.15</ele>
        <time>2020-03-12T12:43:12Z</time>
      </trkpt>
      <trkpt lat="43.60503" lon="6.37846">
        <ele>524.41</ele>
        <time>2020-03-12T12:43:24Z</time>
      </trkpt>
      <trkpt lat="43.60505" lon="6.37867">
        <ele>523.45</ele>
        <time>2020-03-12T12:43:37Z</time>
      </trkpt>
      <trkpt lat="43.60503" lon="6.37887">
        <ele>523.11</ele>
        <time>2020-03-12T12:43:50Z</time>
      </trkpt>
      <trkpt lat="43.60504" lon="6.37899">
        <ele>522.5</ele>
        <time>2020-03-12T12:44:01Z</time>
      </trkpt>
      <trkpt lat="43.60505" lon="6.37902">
        <ele>522.21</ele>
        <time>2020-03-12T12:44:05Z</time>
      </trkpt>
      <trkpt lat="43.60505" lon="6.37912">
        <ele>522.1</ele>
        <time>2020-03-12T12:44:11Z</time>
      </trkpt>
      <trkpt lat="43.60504" lon="6.37919">
        <ele>521.77</ele>
        <time>2020-03-12T12:44:15Z</time>
      </trkpt>
      <trkpt lat="43.60501" lon="6.37926">
        <ele>521.62</ele>
        <time>2020-03-12T12:44:19Z</time>
      </trkpt>
      <trkpt lat="43.60505" lon="6.37945">
        <ele>520.89</ele>
        <time>2020-03-12T12:44:31Z</time>
      </trkpt>
      <trkpt lat="43.60502" lon="6.37969">
        <ele>519.69</ele>
        <time>2020-03-12T12:44:46Z</time>
      </trkpt>
      <trkpt lat="43.60496" lon="6.37993">
        <ele>518.63</ele>
        <time>2020-03-12T12:45:01Z</time>
      </trkpt>
      <trkpt lat="43.60497" lon="6.38015">
        <ele>517.56</ele>
        <time>2020-03-12T12:45:15Z</time>
      </trkpt>
      <trkpt lat="43.60502" lon="6.38029">
        <ele>517.23</ele>
        <time>2020-03-12T12:45:25Z</time>
      </trkpt>
      <trkpt lat="43.60509" lon="6.3804">
        <ele>516.68</ele>
        <time>2020-03-12T12:45:35Z</time>
      </trkpt>
      <trkpt lat="43.60519" lon="6.38044">
        <ele>516.02</ele>
        <time>2020-03-12T12:45:44Z</time>
      </trkpt>
      <trkpt lat="43.60531" lon="6.38052">
        <ele>515.4</ele>
        <time>2020-03-12T12:45:55Z</time>
      </trkpt>
      <trkpt lat="43.60536" lon="6.38058">
        <ele>515.08</ele>
        <time>2020-03-12T12:46:01Z</time>
      </trkpt>
      <trkpt lat="43.60546" lon="6.38068">
        <ele>514.42</ele>
        <time>2020-03-12T12:46:13Z</time>
      </trkpt>
      <trkpt lat="43.60552" lon="6.38084">
        <ele>513.16</ele>
        <time>2020-03-12T12:46:27Z</time>
      </trkpt>
      <trkpt lat="43.60561" lon="6.38102">
        <ele>512.12</ele>
        <time>2020-03-12T12:46:40Z</time>
      </trkpt>
      <trkpt lat="43.60569" lon="6.38115">
        <ele>511.55</ele>
        <time>2020-03-12T12:46:51Z</time>
      </trkpt>
      <trkpt lat="43.60571" lon="6.38122">
        <ele>510.99</ele>
        <time>2020-03-12T12:46:57Z</time>
      </trkpt>
      <trkpt lat="43.60574" lon="6.38131">
        <ele>510.24</ele>
        <time>2020-03-12T12:47:07Z</time>
      </trkpt>
      <trkpt lat="43.60585" lon="6.38142">
        <ele>509.64</ele>
        <time>2020-03-12T12:47:15Z</time>
      </trkpt>
      <trkpt lat="43.60591" lon="6.38154">
        <ele>508.76</ele>
        <time>2020-03-12T12:47:25Z</time>
      </trkpt>
      <trkpt lat="43.60593" lon="6.38157">
        <ele>508.62</ele>
        <time>2020-03-12T12:47:27Z</time>
      </trkpt>
      <trkpt lat="43.60602" lon="6.38177">
        <ele>507.51</ele>
        <time>2020-03-12T12:47:40Z</time>
      </trkpt>
      <trkpt lat="43.60606" lon="6.38186">
        <ele>507.09</ele>
        <time>2020-03-12T12:47:46Z</time>
      </trkpt>
      <trkpt lat="43.60609" lon="6.38199">
        <ele>506.33</ele>
        <time>2020-03-12T12:47:57Z</time>
      </trkpt>
      <trkpt lat="43.60611" lon="6.38202">
        <ele>505.46</ele>
        <time>2020-03-12T12:48:11Z</time>
      </trkpt>
      <trkpt lat="43.60623" lon="6.38214">
        <ele>504.76</ele>
        <time>2020-03-12T12:48:22Z</time>
      </trkpt>
      <trkpt lat="43.60635" lon="6.38222">
        <ele>504.22</ele>
        <time>2020-03-12T12:48:31Z</time>
      </trkpt>
      <trkpt lat="43.60656" lon="6.38232">
        <ele>503.86</ele>
        <time>2020-03-12T12:48:48Z</time>
      </trkpt>
      <trkpt lat="43.60657" lon="6.38231">
        <ele>503.62</ele>
        <time>2020-03-12T12:49:09Z</time>
      </trkpt>
      <trkpt lat="43.60657" lon="6.38233">
        <ele>503.6</ele>
        <time>2020-03-12T12:49:12Z</time>
      </trkpt>
      <trkpt lat="43.60662" lon="6.38241">
        <ele>503.17</ele>
        <time>2020-03-12T12:49:18Z</time>
      </trkpt>
      <trkpt lat="43.60665" lon="6.38248">
        <ele>501.27</ele>
        <time>2020-03-12T12:49:29Z</time>
      </trkpt>
      <trkpt lat="43.60663" lon="6.38255">
        <ele>499.33</ele>
        <time>2020-03-12T12:49:41Z</time>
      </trkpt>
      <trkpt lat="43.60653" lon="6.38258">
        <ele>498.8</ele>
        <time>2020-03-12T12:50:01Z</time>
      </trkpt>
      <trkpt lat="43.60639" lon="6.38252">
        <ele>497.98</ele>
        <time>2020-03-12T12:50:12Z</time>
      </trkpt>
      <trkpt lat="43.60637" lon="6.38251">
        <ele>497.72</ele>
        <time>2020-03-12T12:50:14Z</time>
      </trkpt>
      <trkpt lat="43.60628" lon="6.38249">
        <ele>497.02</ele>
        <time>2020-03-12T12:50:23Z</time>
      </trkpt>
      <trkpt lat="43.60622" lon="6.38248">
        <ele>495.62</ele>
        <time>2020-03-12T12:50:38Z</time>
      </trkpt>
      <trkpt lat="43.60621" lon="6.38249">
        <ele>495.45</ele>
        <time>2020-03-12T12:50:41Z</time>
      </trkpt>
      <trkpt lat="43.60614" lon="6.38251">
        <ele>495.16</ele>
        <time>2020-03-12T12:50:46Z</time>
      </trkpt>
      <trkpt lat="43.6061" lon="6.38252">
        <ele>494.52</ele>
        <time>2020-03-12T12:51:02Z</time>
      </trkpt>
      <trkpt lat="43.60612" lon="6.38253">
        <ele>494.73</ele>
        <time>2020-03-12T12:51:18Z</time>
      </trkpt>
      <trkpt lat="43.60613" lon="6.3826">
        <ele>494.88</ele>
        <time>2020-03-12T12:51:29Z</time>
      </trkpt>
    </trkseg>
  </trk>
</gpx>